<?xml version="1.0" encoding="UTF-8" standalone="no" ?>
<gpx xmlns="http://www.topografix.com/GPX/1/1" xmlns:xsi="http://www.w3.org/2001/XMLSchema-instance" xsi:schemaLocation="http://www.topografix.com/GPX/1/1 http://www.topografix.com/GPX/1/1/gpx.xsd" version="1.1" creator="VisuGPX - https://www.visugpx.com">
  <metadata>
    <name>meudon grande terrasse </name>
    <desc><![CDATA[meudon grande terrasse AVF Antony]]></desc>
  </metadata>
  <trk>
    <name><![CDATA[Track 024]]></name>
    <desc><![CDATA[23 juin 2016  1:31 pm]]></desc>
    <trkseg>
      <trkpt lat="48.80346" lon="2.25598">
        <ele>126.212</ele>
        <time>2016-06-23T11:31:29.000Z</time>
      </trkpt>
      <trkpt lat="48.80346" lon="2.25598">
        <ele>126.298</ele>
        <time>2016-06-23T11:31:29.000Z</time>
      </trkpt>
      <trkpt lat="48.80346" lon="2.25598">
        <ele>126.342</ele>
        <time>2016-06-23T11:31:37.481Z</time>
      </trkpt>
      <trkpt lat="48.80334" lon="2.25577">
        <ele>126.287</ele>
        <time>2016-06-23T11:31:53.519Z</time>
      </trkpt>
      <trkpt lat="48.80334" lon="2.25576">
        <ele>126.267</ele>
        <time>2016-06-23T11:31:54.000Z</time>
      </trkpt>
      <trkpt lat="48.80334" lon="2.25576">
        <ele>126.392</ele>
        <time>2016-06-23T11:31:58.000Z</time>
      </trkpt>
      <trkpt lat="48.80334" lon="2.25576">
        <ele>126.504</ele>
        <time>2016-06-23T11:34:28.206Z</time>
      </trkpt>
      <trkpt lat="48.80335" lon="2.25556">
        <ele>126.328</ele>
        <time>2016-06-23T11:34:45.523Z</time>
      </trkpt>
      <trkpt lat="48.8033" lon="2.25544">
        <ele>126.547</ele>
        <time>2016-06-23T11:34:54.762Z</time>
      </trkpt>
      <trkpt lat="48.80328" lon="2.2553">
        <ele>127.365</ele>
        <time>2016-06-23T11:35:03.883Z</time>
      </trkpt>
      <trkpt lat="48.80328" lon="2.25515">
        <ele>128.286</ele>
        <time>2016-06-23T11:35:12.343Z</time>
      </trkpt>
      <trkpt lat="48.80327" lon="2.25501">
        <ele>128.765</ele>
        <time>2016-06-23T11:35:20.911Z</time>
      </trkpt>
      <trkpt lat="48.80322" lon="2.25488">
        <ele>128.884</ele>
        <time>2016-06-23T11:35:29.550Z</time>
      </trkpt>
      <trkpt lat="48.80319" lon="2.25474">
        <ele>128.872</ele>
        <time>2016-06-23T11:35:38.274Z</time>
      </trkpt>
      <trkpt lat="48.8032" lon="2.2546">
        <ele>128.826</ele>
        <time>2016-06-23T11:35:46.331Z</time>
      </trkpt>
      <trkpt lat="48.80324" lon="2.25447">
        <ele>128.744</ele>
        <time>2016-06-23T11:35:54.920Z</time>
      </trkpt>
      <trkpt lat="48.8033" lon="2.25435">
        <ele>128.292</ele>
        <time>2016-06-23T11:36:04.492Z</time>
      </trkpt>
      <trkpt lat="48.8033" lon="2.25421">
        <ele>127.242</ele>
        <time>2016-06-23T11:36:14.434Z</time>
      </trkpt>
      <trkpt lat="48.80331" lon="2.25406">
        <ele>126.07</ele>
        <time>2016-06-23T11:36:23.400Z</time>
      </trkpt>
      <trkpt lat="48.8033" lon="2.25392">
        <ele>125.42</ele>
        <time>2016-06-23T11:36:30.321Z</time>
      </trkpt>
      <trkpt lat="48.80331" lon="2.25379">
        <ele>125.346</ele>
        <time>2016-06-23T11:36:37.518Z</time>
      </trkpt>
      <trkpt lat="48.80333" lon="2.25365">
        <ele>125.586</ele>
        <time>2016-06-23T11:36:45.096Z</time>
      </trkpt>
      <trkpt lat="48.80334" lon="2.25351">
        <ele>125.87</ele>
        <time>2016-06-23T11:36:52.974Z</time>
      </trkpt>
      <trkpt lat="48.80334" lon="2.25335">
        <ele>125.947</ele>
        <time>2016-06-23T11:37:01.160Z</time>
      </trkpt>
      <trkpt lat="48.80336" lon="2.2532">
        <ele>125.736</ele>
        <time>2016-06-23T11:37:09.401Z</time>
      </trkpt>
      <trkpt lat="48.80337" lon="2.25306">
        <ele>125.482</ele>
        <time>2016-06-23T11:37:17.327Z</time>
      </trkpt>
      <trkpt lat="48.80337" lon="2.25291">
        <ele>125.55</ele>
        <time>2016-06-23T11:37:25.945Z</time>
      </trkpt>
      <trkpt lat="48.80341" lon="2.25279">
        <ele>125.975</ele>
        <time>2016-06-23T11:37:34.856Z</time>
      </trkpt>
      <trkpt lat="48.80342" lon="2.25265">
        <ele>126.559</ele>
        <time>2016-06-23T11:37:45.601Z</time>
      </trkpt>
      <trkpt lat="48.80343" lon="2.25251">
        <ele>127.309</ele>
        <time>2016-06-23T11:37:56.106Z</time>
      </trkpt>
      <trkpt lat="48.80339" lon="2.25238">
        <ele>128.299</ele>
        <time>2016-06-23T11:38:06.408Z</time>
      </trkpt>
      <trkpt lat="48.80336" lon="2.25225">
        <ele>129.432</ele>
        <time>2016-06-23T11:38:16.345Z</time>
      </trkpt>
      <trkpt lat="48.80328" lon="2.25216">
        <ele>130.626</ele>
        <time>2016-06-23T11:38:26.687Z</time>
      </trkpt>
      <trkpt lat="48.8032" lon="2.25212">
        <ele>131.875</ele>
        <time>2016-06-23T11:38:40.152Z</time>
      </trkpt>
      <trkpt lat="48.80311" lon="2.25209">
        <ele>133.18</ele>
        <time>2016-06-23T11:38:52.554Z</time>
      </trkpt>
      <trkpt lat="48.80302" lon="2.25205">
        <ele>134.493</ele>
        <time>2016-06-23T11:39:04.264Z</time>
      </trkpt>
      <trkpt lat="48.80293" lon="2.25201">
        <ele>135.964</ele>
        <time>2016-06-23T11:39:15.185Z</time>
      </trkpt>
      <trkpt lat="48.80285" lon="2.25194">
        <ele>137.766</ele>
        <time>2016-06-23T11:39:24.380Z</time>
      </trkpt>
      <trkpt lat="48.80275" lon="2.25194">
        <ele>139.646</ele>
        <time>2016-06-23T11:39:34.345Z</time>
      </trkpt>
      <trkpt lat="48.80267" lon="2.25187">
        <ele>141.286</ele>
        <time>2016-06-23T11:39:45.999Z</time>
      </trkpt>
      <trkpt lat="48.80267" lon="2.25187">
        <ele>142.512</ele>
        <time>2016-06-23T11:39:55.999Z</time>
      </trkpt>
      <trkpt lat="48.80267" lon="2.25187">
        <ele>143.052</ele>
        <time>2016-06-23T11:39:56.099Z</time>
      </trkpt>
      <trkpt lat="48.80257" lon="2.25179">
        <ele>142.929</ele>
        <time>2016-06-23T11:40:09.027Z</time>
      </trkpt>
      <trkpt lat="48.80249" lon="2.25172">
        <ele>143.171</ele>
        <time>2016-06-23T11:40:15.999Z</time>
      </trkpt>
      <trkpt lat="48.80249" lon="2.25172">
        <ele>144.476</ele>
        <time>2016-06-23T11:40:17.999Z</time>
      </trkpt>
      <trkpt lat="48.80249" lon="2.25172">
        <ele>145.66</ele>
        <time>2016-06-23T11:40:25.374Z</time>
      </trkpt>
      <trkpt lat="48.80238" lon="2.25177">
        <ele>144.89</ele>
        <time>2016-06-23T11:40:45.876Z</time>
      </trkpt>
      <trkpt lat="48.8023" lon="2.25172">
        <ele>145.033</ele>
        <time>2016-06-23T11:40:56.382Z</time>
      </trkpt>
      <trkpt lat="48.80222" lon="2.25164">
        <ele>146.703</ele>
        <time>2016-06-23T11:41:06.801Z</time>
      </trkpt>
      <trkpt lat="48.80214" lon="2.25159">
        <ele>148.999</ele>
        <time>2016-06-23T11:41:16.400Z</time>
      </trkpt>
      <trkpt lat="48.80205" lon="2.25154">
        <ele>150.837</ele>
        <time>2016-06-23T11:41:26.077Z</time>
      </trkpt>
      <trkpt lat="48.80196" lon="2.2515">
        <ele>152.104</ele>
        <time>2016-06-23T11:41:34.477Z</time>
      </trkpt>
      <trkpt lat="48.80186" lon="2.25147">
        <ele>152.876</ele>
        <time>2016-06-23T11:41:42.880Z</time>
      </trkpt>
      <trkpt lat="48.80176" lon="2.25145">
        <ele>153.273</ele>
        <time>2016-06-23T11:41:51.206Z</time>
      </trkpt>
      <trkpt lat="48.80166" lon="2.25146">
        <ele>153.739</ele>
        <time>2016-06-23T11:41:58.732Z</time>
      </trkpt>
      <trkpt lat="48.80156" lon="2.25142">
        <ele>154.573</ele>
        <time>2016-06-23T11:42:06.107Z</time>
      </trkpt>
      <trkpt lat="48.80147" lon="2.25139">
        <ele>155.467</ele>
        <time>2016-06-23T11:42:13.601Z</time>
      </trkpt>
      <trkpt lat="48.80136" lon="2.25138">
        <ele>156.066</ele>
        <time>2016-06-23T11:42:20.785Z</time>
      </trkpt>
      <trkpt lat="48.80127" lon="2.25131">
        <ele>156.475</ele>
        <time>2016-06-23T11:42:27.706Z</time>
      </trkpt>
      <trkpt lat="48.80118" lon="2.25126">
        <ele>156.841</ele>
        <time>2016-06-23T11:42:33.999Z</time>
      </trkpt>
      <trkpt lat="48.80118" lon="2.25126">
        <ele>157.105</ele>
        <time>2016-06-23T11:42:41.999Z</time>
      </trkpt>
      <trkpt lat="48.80118" lon="2.25126">
        <ele>157.168</ele>
        <time>2016-06-23T11:42:46.679Z</time>
      </trkpt>
      <trkpt lat="48.80114" lon="2.25106">
        <ele>157.086</ele>
        <time>2016-06-23T11:43:07.668Z</time>
      </trkpt>
      <trkpt lat="48.80111" lon="2.25092">
        <ele>157.039</ele>
        <time>2016-06-23T11:43:16.740Z</time>
      </trkpt>
      <trkpt lat="48.80105" lon="2.25082">
        <ele>157.188</ele>
        <time>2016-06-23T11:43:26.717Z</time>
      </trkpt>
      <trkpt lat="48.80102" lon="2.25068">
        <ele>157.464</ele>
        <time>2016-06-23T11:43:37.102Z</time>
      </trkpt>
      <trkpt lat="48.80096" lon="2.25057">
        <ele>157.752</ele>
        <time>2016-06-23T11:43:45.925Z</time>
      </trkpt>
      <trkpt lat="48.80092" lon="2.25044">
        <ele>158.022</ele>
        <time>2016-06-23T11:43:53.782Z</time>
      </trkpt>
      <trkpt lat="48.80088" lon="2.25031">
        <ele>158.166</ele>
        <time>2016-06-23T11:44:02.771Z</time>
      </trkpt>
      <trkpt lat="48.80083" lon="2.25018">
        <ele>158.106</ele>
        <time>2016-06-23T11:44:12.513Z</time>
      </trkpt>
      <trkpt lat="48.8008" lon="2.25004">
        <ele>157.968</ele>
        <time>2016-06-23T11:44:22.025Z</time>
      </trkpt>
      <trkpt lat="48.80077" lon="2.2499">
        <ele>157.922</ele>
        <time>2016-06-23T11:44:30.823Z</time>
      </trkpt>
      <trkpt lat="48.80074" lon="2.24976">
        <ele>158</ele>
        <time>2016-06-23T11:44:38.382Z</time>
      </trkpt>
      <trkpt lat="48.80071" lon="2.24963">
        <ele>158.115</ele>
        <time>2016-06-23T11:44:45.514Z</time>
      </trkpt>
      <trkpt lat="48.80064" lon="2.24953">
        <ele>158.235</ele>
        <time>2016-06-23T11:44:53.571Z</time>
      </trkpt>
      <trkpt lat="48.80063" lon="2.24938">
        <ele>158.475</ele>
        <time>2016-06-23T11:45:01.871Z</time>
      </trkpt>
      <trkpt lat="48.80061" lon="2.24923">
        <ele>159.128</ele>
        <time>2016-06-23T11:45:09.797Z</time>
      </trkpt>
      <trkpt lat="48.80064" lon="2.24908">
        <ele>160.348</ele>
        <time>2016-06-23T11:45:17.185Z</time>
      </trkpt>
      <trkpt lat="48.80062" lon="2.24894">
        <ele>161.704</ele>
        <time>2016-06-23T11:45:24.805Z</time>
      </trkpt>
      <trkpt lat="48.80056" lon="2.24883">
        <ele>162.593</ele>
        <time>2016-06-23T11:45:31.939Z</time>
      </trkpt>
      <trkpt lat="48.80053" lon="2.24869">
        <ele>162.93</ele>
        <time>2016-06-23T11:45:39.122Z</time>
      </trkpt>
      <trkpt lat="48.80047" lon="2.24858">
        <ele>162.996</ele>
        <time>2016-06-23T11:45:47.441Z</time>
      </trkpt>
      <trkpt lat="48.80043" lon="2.24845">
        <ele>163.005</ele>
        <time>2016-06-23T11:45:55.491Z</time>
      </trkpt>
      <trkpt lat="48.80036" lon="2.24834">
        <ele>162.928</ele>
        <time>2016-06-23T11:46:03.371Z</time>
      </trkpt>
      <trkpt lat="48.80027" lon="2.24829">
        <ele>162.712</ele>
        <time>2016-06-23T11:46:11.408Z</time>
      </trkpt>
      <trkpt lat="48.80018" lon="2.24828">
        <ele>162.455</ele>
        <time>2016-06-23T11:46:19.095Z</time>
      </trkpt>
      <trkpt lat="48.80008" lon="2.24832">
        <ele>162.262</ele>
        <time>2016-06-23T11:46:27.704Z</time>
      </trkpt>
      <trkpt lat="48.79999" lon="2.24832">
        <ele>162.138</ele>
        <time>2016-06-23T11:46:35.881Z</time>
      </trkpt>
      <trkpt lat="48.79992" lon="2.24821">
        <ele>162.012</ele>
        <time>2016-06-23T11:46:43.809Z</time>
      </trkpt>
      <trkpt lat="48.79986" lon="2.24811">
        <ele>161.844</ele>
        <time>2016-06-23T11:46:51.345Z</time>
      </trkpt>
      <trkpt lat="48.79981" lon="2.248">
        <ele>161.702</ele>
        <time>2016-06-23T11:47:01.045Z</time>
      </trkpt>
      <trkpt lat="48.79975" lon="2.24789">
        <ele>161.637</ele>
        <time>2016-06-23T11:47:13.644Z</time>
      </trkpt>
      <trkpt lat="48.79968" lon="2.24778">
        <ele>161.625</ele>
        <time>2016-06-23T11:47:27.522Z</time>
      </trkpt>
      <trkpt lat="48.79963" lon="2.24765">
        <ele>161.611</ele>
        <time>2016-06-23T11:47:37.830Z</time>
      </trkpt>
      <trkpt lat="48.79956" lon="2.24757">
        <ele>161.563</ele>
        <time>2016-06-23T11:47:46.289Z</time>
      </trkpt>
      <trkpt lat="48.7995" lon="2.24746">
        <ele>161.508</ele>
        <time>2016-06-23T11:47:54.668Z</time>
      </trkpt>
      <trkpt lat="48.79942" lon="2.24737">
        <ele>161.48</ele>
        <time>2016-06-23T11:48:03.288Z</time>
      </trkpt>
      <trkpt lat="48.79935" lon="2.24728">
        <ele>161.435</ele>
        <time>2016-06-23T11:48:12.071Z</time>
      </trkpt>
      <trkpt lat="48.79928" lon="2.24719">
        <ele>161.376</ele>
        <time>2016-06-23T11:48:21.551Z</time>
      </trkpt>
      <trkpt lat="48.7992" lon="2.24711">
        <ele>161.365</ele>
        <time>2016-06-23T11:48:31.331Z</time>
      </trkpt>
      <trkpt lat="48.79913" lon="2.24702">
        <ele>161.398</ele>
        <time>2016-06-23T11:48:38.849Z</time>
      </trkpt>
      <trkpt lat="48.79905" lon="2.24692">
        <ele>161.432</ele>
        <time>2016-06-23T11:48:47.198Z</time>
      </trkpt>
      <trkpt lat="48.79899" lon="2.24681">
        <ele>161.466</ele>
        <time>2016-06-23T11:48:54.972Z</time>
      </trkpt>
      <trkpt lat="48.7989" lon="2.24676">
        <ele>161.54</ele>
        <time>2016-06-23T11:49:02.797Z</time>
      </trkpt>
      <trkpt lat="48.79882" lon="2.24669">
        <ele>161.691</ele>
        <time>2016-06-23T11:49:10.680Z</time>
      </trkpt>
      <trkpt lat="48.79874" lon="2.24661">
        <ele>161.855</ele>
        <time>2016-06-23T11:49:19.354Z</time>
      </trkpt>
      <trkpt lat="48.79867" lon="2.24652">
        <ele>161.948</ele>
        <time>2016-06-23T11:49:27.388Z</time>
      </trkpt>
      <trkpt lat="48.79861" lon="2.24641">
        <ele>161.982</ele>
        <time>2016-06-23T11:49:35.712Z</time>
      </trkpt>
      <trkpt lat="48.79853" lon="2.24632">
        <ele>162.065</ele>
        <time>2016-06-23T11:49:44.412Z</time>
      </trkpt>
      <trkpt lat="48.79845" lon="2.24621">
        <ele>162.244</ele>
        <time>2016-06-23T11:49:53.924Z</time>
      </trkpt>
      <trkpt lat="48.79842" lon="2.24608">
        <ele>162.38</ele>
        <time>2016-06-23T11:50:02.407Z</time>
      </trkpt>
      <trkpt lat="48.79836" lon="2.24596">
        <ele>162.359</ele>
        <time>2016-06-23T11:50:11.334Z</time>
      </trkpt>
      <trkpt lat="48.79827" lon="2.2459">
        <ele>162.264</ele>
        <time>2016-06-23T11:50:20.355Z</time>
      </trkpt>
      <trkpt lat="48.79819" lon="2.24582">
        <ele>162.199</ele>
        <time>2016-06-23T11:50:27.808Z</time>
      </trkpt>
      <trkpt lat="48.7981" lon="2.24577">
        <ele>162.203</ele>
        <time>2016-06-23T11:50:34.795Z</time>
      </trkpt>
      <trkpt lat="48.798" lon="2.24576">
        <ele>162.272</ele>
        <time>2016-06-23T11:50:42.249Z</time>
      </trkpt>
      <trkpt lat="48.79791" lon="2.24581">
        <ele>162.371</ele>
        <time>2016-06-23T11:50:51.678Z</time>
      </trkpt>
      <trkpt lat="48.79784" lon="2.24589">
        <ele>162.49</ele>
        <time>2016-06-23T11:51:02.446Z</time>
      </trkpt>
      <trkpt lat="48.79778" lon="2.246">
        <ele>162.618</ele>
        <time>2016-06-23T11:51:13.149Z</time>
      </trkpt>
      <trkpt lat="48.79771" lon="2.2461">
        <ele>162.678</ele>
        <time>2016-06-23T11:51:22.519Z</time>
      </trkpt>
      <trkpt lat="48.79764" lon="2.2462">
        <ele>162.639</ele>
        <time>2016-06-23T11:51:31.189Z</time>
      </trkpt>
      <trkpt lat="48.79757" lon="2.24629">
        <ele>162.623</ele>
        <time>2016-06-23T11:51:38.450Z</time>
      </trkpt>
      <trkpt lat="48.79751" lon="2.24639">
        <ele>162.727</ele>
        <time>2016-06-23T11:51:45.279Z</time>
      </trkpt>
      <trkpt lat="48.79743" lon="2.24648">
        <ele>162.828</ele>
        <time>2016-06-23T11:51:51.978Z</time>
      </trkpt>
      <trkpt lat="48.79737" lon="2.24659">
        <ele>162.801</ele>
        <time>2016-06-23T11:51:58.983Z</time>
      </trkpt>
      <trkpt lat="48.79731" lon="2.24671">
        <ele>162.723</ele>
        <time>2016-06-23T11:52:07.337Z</time>
      </trkpt>
      <trkpt lat="48.79725" lon="2.24682">
        <ele>162.69</ele>
        <time>2016-06-23T11:52:16.508Z</time>
      </trkpt>
      <trkpt lat="48.79719" lon="2.24693">
        <ele>162.674</ele>
        <time>2016-06-23T11:52:24.466Z</time>
      </trkpt>
      <trkpt lat="48.79712" lon="2.24702">
        <ele>162.627</ele>
        <time>2016-06-23T11:52:31.496Z</time>
      </trkpt>
      <trkpt lat="48.79706" lon="2.24713">
        <ele>162.552</ele>
        <time>2016-06-23T11:52:38.352Z</time>
      </trkpt>
      <trkpt lat="48.79701" lon="2.24725">
        <ele>162.474</ele>
        <time>2016-06-23T11:52:46.366Z</time>
      </trkpt>
      <trkpt lat="48.79694" lon="2.24736">
        <ele>162.423</ele>
        <time>2016-06-23T11:52:54.558Z</time>
      </trkpt>
      <trkpt lat="48.79687" lon="2.24746">
        <ele>162.411</ele>
        <time>2016-06-23T11:53:02.000Z</time>
      </trkpt>
      <trkpt lat="48.79687" lon="2.24746">
        <ele>162.399</ele>
        <time>2016-06-23T11:53:10.000Z</time>
      </trkpt>
      <trkpt lat="48.79687" lon="2.24746">
        <ele>162.346</ele>
        <time>2016-06-23T11:57:34.399Z</time>
      </trkpt>
      <trkpt lat="48.79673" lon="2.24768">
        <ele>162.275</ele>
        <time>2016-06-23T11:58:00.742Z</time>
      </trkpt>
      <trkpt lat="48.79663" lon="2.24772">
        <ele>162.226</ele>
        <time>2016-06-23T11:58:11.108Z</time>
      </trkpt>
      <trkpt lat="48.79654" lon="2.24777">
        <ele>162.189</ele>
        <time>2016-06-23T11:58:19.740Z</time>
      </trkpt>
      <trkpt lat="48.79645" lon="2.24781">
        <ele>162.054</ele>
        <time>2016-06-23T11:58:29.993Z</time>
      </trkpt>
      <trkpt lat="48.79636" lon="2.24783">
        <ele>161.669</ele>
        <time>2016-06-23T11:58:39.919Z</time>
      </trkpt>
      <trkpt lat="48.79626" lon="2.24783">
        <ele>160.81</ele>
        <time>2016-06-23T11:58:50.393Z</time>
      </trkpt>
      <trkpt lat="48.79617" lon="2.24785">
        <ele>159.247</ele>
        <time>2016-06-23T11:59:00.059Z</time>
      </trkpt>
      <trkpt lat="48.79606" lon="2.24785">
        <ele>157.06</ele>
        <time>2016-06-23T11:59:08.756Z</time>
      </trkpt>
      <trkpt lat="48.79596" lon="2.24786">
        <ele>154.75</ele>
        <time>2016-06-23T11:59:16.969Z</time>
      </trkpt>
      <trkpt lat="48.79587" lon="2.24789">
        <ele>152.662</ele>
        <time>2016-06-23T11:59:23.671Z</time>
      </trkpt>
      <trkpt lat="48.79577" lon="2.24787">
        <ele>150.826</ele>
        <time>2016-06-23T11:59:30.458Z</time>
      </trkpt>
      <trkpt lat="48.79567" lon="2.24781">
        <ele>149.275</ele>
        <time>2016-06-23T11:59:38.977Z</time>
      </trkpt>
      <trkpt lat="48.79565" lon="2.24766">
        <ele>148.059</ele>
        <time>2016-06-23T11:59:48.601Z</time>
      </trkpt>
      <trkpt lat="48.79565" lon="2.24751">
        <ele>147.113</ele>
        <time>2016-06-23T11:59:58.006Z</time>
      </trkpt>
      <trkpt lat="48.7956" lon="2.2474">
        <ele>146.336</ele>
        <time>2016-06-23T12:00:06.341Z</time>
      </trkpt>
      <trkpt lat="48.79555" lon="2.24728">
        <ele>145.666</ele>
        <time>2016-06-23T12:00:12.987Z</time>
      </trkpt>
      <trkpt lat="48.7955" lon="2.24715">
        <ele>145.069</ele>
        <time>2016-06-23T12:00:19.321Z</time>
      </trkpt>
      <trkpt lat="48.79549" lon="2.24701">
        <ele>144.491</ele>
        <time>2016-06-23T12:00:26.288Z</time>
      </trkpt>
      <trkpt lat="48.79549" lon="2.24686">
        <ele>143.927</ele>
        <time>2016-06-23T12:00:35.103Z</time>
      </trkpt>
      <trkpt lat="48.79545" lon="2.24672">
        <ele>143.333</ele>
        <time>2016-06-23T12:00:43.881Z</time>
      </trkpt>
      <trkpt lat="48.79544" lon="2.24657">
        <ele>142.626</ele>
        <time>2016-06-23T12:00:51.660Z</time>
      </trkpt>
      <trkpt lat="48.79541" lon="2.24643">
        <ele>141.867</ele>
        <time>2016-06-23T12:00:59.572Z</time>
      </trkpt>
      <trkpt lat="48.79541" lon="2.24628">
        <ele>140.972</ele>
        <time>2016-06-23T12:01:05.818Z</time>
      </trkpt>
      <trkpt lat="48.79538" lon="2.24614">
        <ele>139.777</ele>
        <time>2016-06-23T12:01:12.558Z</time>
      </trkpt>
      <trkpt lat="48.7953" lon="2.24607">
        <ele>138.508</ele>
        <time>2016-06-23T12:01:19.830Z</time>
      </trkpt>
      <trkpt lat="48.79523" lon="2.24595">
        <ele>137.455</ele>
        <time>2016-06-23T12:01:27.633Z</time>
      </trkpt>
      <trkpt lat="48.79523" lon="2.24579">
        <ele>136.557</ele>
        <time>2016-06-23T12:01:35.941Z</time>
      </trkpt>
      <trkpt lat="48.79523" lon="2.24565">
        <ele>135.652</ele>
        <time>2016-06-23T12:01:44.092Z</time>
      </trkpt>
      <trkpt lat="48.7952" lon="2.2455">
        <ele>134.6</ele>
        <time>2016-06-23T12:01:52.859Z</time>
      </trkpt>
      <trkpt lat="48.79519" lon="2.24535">
        <ele>133.382</ele>
        <time>2016-06-23T12:02:02.348Z</time>
      </trkpt>
      <trkpt lat="48.79519" lon="2.24521">
        <ele>132.123</ele>
        <time>2016-06-23T12:02:10.665Z</time>
      </trkpt>
      <trkpt lat="48.79518" lon="2.24507">
        <ele>130.881</ele>
        <time>2016-06-23T12:02:18.794Z</time>
      </trkpt>
      <trkpt lat="48.79515" lon="2.24493">
        <ele>129.702</ele>
        <time>2016-06-23T12:02:27.096Z</time>
      </trkpt>
      <trkpt lat="48.79515" lon="2.24478">
        <ele>128.593</ele>
        <time>2016-06-23T12:02:35.966Z</time>
      </trkpt>
      <trkpt lat="48.79515" lon="2.24464">
        <ele>127.46</ele>
        <time>2016-06-23T12:02:44.587Z</time>
      </trkpt>
      <trkpt lat="48.79519" lon="2.24451">
        <ele>126.387</ele>
        <time>2016-06-23T12:02:53.074Z</time>
      </trkpt>
      <trkpt lat="48.79521" lon="2.24437">
        <ele>125.565</ele>
        <time>2016-06-23T12:03:02.134Z</time>
      </trkpt>
      <trkpt lat="48.79526" lon="2.24425">
        <ele>124.942</ele>
        <time>2016-06-23T12:03:10.579Z</time>
      </trkpt>
      <trkpt lat="48.79531" lon="2.24413">
        <ele>124.337</ele>
        <time>2016-06-23T12:03:18.031Z</time>
      </trkpt>
      <trkpt lat="48.79531" lon="2.24398">
        <ele>123.694</ele>
        <time>2016-06-23T12:03:25.523Z</time>
      </trkpt>
      <trkpt lat="48.79534" lon="2.24383">
        <ele>123.014</ele>
        <time>2016-06-23T12:03:33.862Z</time>
      </trkpt>
      <trkpt lat="48.79535" lon="2.24369">
        <ele>122.354</ele>
        <time>2016-06-23T12:03:42.677Z</time>
      </trkpt>
      <trkpt lat="48.79541" lon="2.24358">
        <ele>121.729</ele>
        <time>2016-06-23T12:03:51.114Z</time>
      </trkpt>
      <trkpt lat="48.79543" lon="2.24344">
        <ele>121.086</ele>
        <time>2016-06-23T12:03:59.166Z</time>
      </trkpt>
      <trkpt lat="48.79542" lon="2.24329">
        <ele>120.464</ele>
        <time>2016-06-23T12:04:07.796Z</time>
      </trkpt>
      <trkpt lat="48.79543" lon="2.24314">
        <ele>119.853</ele>
        <time>2016-06-23T12:04:15.974Z</time>
      </trkpt>
      <trkpt lat="48.79543" lon="2.24299">
        <ele>119.137</ele>
        <time>2016-06-23T12:04:23.853Z</time>
      </trkpt>
      <trkpt lat="48.79537" lon="2.24287">
        <ele>118.444</ele>
        <time>2016-06-23T12:04:31.849Z</time>
      </trkpt>
      <trkpt lat="48.79528" lon="2.24284">
        <ele>117.953</ele>
        <time>2016-06-23T12:04:41.000Z</time>
      </trkpt>
      <trkpt lat="48.79528" lon="2.24284">
        <ele>117.662</ele>
        <time>2016-06-23T12:04:41.000Z</time>
      </trkpt>
      <trkpt lat="48.79528" lon="2.24284">
        <ele>117.534</ele>
        <time>2016-06-23T12:05:02.981Z</time>
      </trkpt>
      <trkpt lat="48.79519" lon="2.24281">
        <ele>117.522</ele>
        <time>2016-06-23T12:05:21.000Z</time>
      </trkpt>
      <trkpt lat="48.79519" lon="2.24281">
        <ele>117.527</ele>
        <time>2016-06-23T12:05:21.000Z</time>
      </trkpt>
      <trkpt lat="48.79519" lon="2.24281">
        <ele>117.51</ele>
        <time>2016-06-23T12:05:21.968Z</time>
      </trkpt>
      <trkpt lat="48.79509" lon="2.24263">
        <ele>117.46</ele>
        <time>2016-06-23T12:06:04.475Z</time>
      </trkpt>
      <trkpt lat="48.79507" lon="2.24248">
        <ele>117.504</ele>
        <time>2016-06-23T12:06:13.744Z</time>
      </trkpt>
      <trkpt lat="48.79512" lon="2.24235">
        <ele>117.724</ele>
        <time>2016-06-23T12:06:22.518Z</time>
      </trkpt>
      <trkpt lat="48.79515" lon="2.24222">
        <ele>117.882</ele>
        <time>2016-06-23T12:06:30.320Z</time>
      </trkpt>
      <trkpt lat="48.79519" lon="2.2421">
        <ele>117.758</ele>
        <time>2016-06-23T12:06:37.455Z</time>
      </trkpt>
      <trkpt lat="48.79523" lon="2.24197">
        <ele>117.472</ele>
        <time>2016-06-23T12:06:44.175Z</time>
      </trkpt>
      <trkpt lat="48.79527" lon="2.24185">
        <ele>117.146</ele>
        <time>2016-06-23T12:06:51.099Z</time>
      </trkpt>
      <trkpt lat="48.79533" lon="2.24173">
        <ele>116.748</ele>
        <time>2016-06-23T12:06:58.092Z</time>
      </trkpt>
      <trkpt lat="48.79536" lon="2.2416">
        <ele>116.305</ele>
        <time>2016-06-23T12:07:05.700Z</time>
      </trkpt>
      <trkpt lat="48.7954" lon="2.24148">
        <ele>115.878</ele>
        <time>2016-06-23T12:07:13.256Z</time>
      </trkpt>
      <trkpt lat="48.79543" lon="2.24134">
        <ele>115.522</ele>
        <time>2016-06-23T12:07:20.844Z</time>
      </trkpt>
      <trkpt lat="48.79544" lon="2.2412">
        <ele>115.299</ele>
        <time>2016-06-23T12:07:28.623Z</time>
      </trkpt>
      <trkpt lat="48.79544" lon="2.24106">
        <ele>115.252</ele>
        <time>2016-06-23T12:07:36.766Z</time>
      </trkpt>
      <trkpt lat="48.7954" lon="2.24092">
        <ele>115.342</ele>
        <time>2016-06-23T12:07:45.856Z</time>
      </trkpt>
      <trkpt lat="48.79536" lon="2.2408">
        <ele>115.519</ele>
        <time>2016-06-23T12:07:54.401Z</time>
      </trkpt>
      <trkpt lat="48.79531" lon="2.24068">
        <ele>115.724</ele>
        <time>2016-06-23T12:08:02.215Z</time>
      </trkpt>
      <trkpt lat="48.79527" lon="2.24055">
        <ele>115.83</ele>
        <time>2016-06-23T12:08:10.088Z</time>
      </trkpt>
      <trkpt lat="48.79522" lon="2.24043">
        <ele>115.758</ele>
        <time>2016-06-23T12:08:17.676Z</time>
      </trkpt>
      <trkpt lat="48.79519" lon="2.24029">
        <ele>115.616</ele>
        <time>2016-06-23T12:08:26.041Z</time>
      </trkpt>
      <trkpt lat="48.79515" lon="2.24015">
        <ele>115.506</ele>
        <time>2016-06-23T12:08:33.964Z</time>
      </trkpt>
      <trkpt lat="48.79513" lon="2.24001">
        <ele>115.438</ele>
        <time>2016-06-23T12:08:41.917Z</time>
      </trkpt>
      <trkpt lat="48.79511" lon="2.23987">
        <ele>115.418</ele>
        <time>2016-06-23T12:08:49.270Z</time>
      </trkpt>
      <trkpt lat="48.79508" lon="2.23974">
        <ele>115.468</ele>
        <time>2016-06-23T12:08:56.944Z</time>
      </trkpt>
      <trkpt lat="48.79507" lon="2.23958">
        <ele>115.602</ele>
        <time>2016-06-23T12:09:04.920Z</time>
      </trkpt>
      <trkpt lat="48.79504" lon="2.23945">
        <ele>115.859</ele>
        <time>2016-06-23T12:09:12.550Z</time>
      </trkpt>
      <trkpt lat="48.79501" lon="2.23931">
        <ele>116.2</ele>
        <time>2016-06-23T12:09:20.552Z</time>
      </trkpt>
      <trkpt lat="48.79497" lon="2.23918">
        <ele>116.466</ele>
        <time>2016-06-23T12:09:28.525Z</time>
      </trkpt>
      <trkpt lat="48.79492" lon="2.23907">
        <ele>116.575</ele>
        <time>2016-06-23T12:09:37.002Z</time>
      </trkpt>
      <trkpt lat="48.79489" lon="2.23893">
        <ele>116.635</ele>
        <time>2016-06-23T12:09:46.202Z</time>
      </trkpt>
      <trkpt lat="48.79485" lon="2.2388">
        <ele>116.74</ele>
        <time>2016-06-23T12:09:54.752Z</time>
      </trkpt>
      <trkpt lat="48.79488" lon="2.23866">
        <ele>116.871</ele>
        <time>2016-06-23T12:10:03.850Z</time>
      </trkpt>
      <trkpt lat="48.79488" lon="2.23851">
        <ele>117.002</ele>
        <time>2016-06-23T12:10:12.949Z</time>
      </trkpt>
      <trkpt lat="48.7949" lon="2.23836">
        <ele>117.13</ele>
        <time>2016-06-23T12:10:20.456Z</time>
      </trkpt>
      <trkpt lat="48.79494" lon="2.23821">
        <ele>117.234</ele>
        <time>2016-06-23T12:10:27.455Z</time>
      </trkpt>
      <trkpt lat="48.79503" lon="2.23815">
        <ele>117.312</ele>
        <time>2016-06-23T12:10:33.617Z</time>
      </trkpt>
      <trkpt lat="48.795" lon="2.238">
        <ele>117.376</ele>
        <time>2016-06-23T12:10:40.195Z</time>
      </trkpt>
      <trkpt lat="48.79496" lon="2.23787">
        <ele>117.542</ele>
        <time>2016-06-23T12:10:46.837Z</time>
      </trkpt>
      <trkpt lat="48.79494" lon="2.23773">
        <ele>117.943</ele>
        <time>2016-06-23T12:10:53.418Z</time>
      </trkpt>
      <trkpt lat="48.79491" lon="2.23759">
        <ele>118.445</ele>
        <time>2016-06-23T12:11:00.584Z</time>
      </trkpt>
      <trkpt lat="48.7949" lon="2.23743">
        <ele>118.804</ele>
        <time>2016-06-23T12:11:07.823Z</time>
      </trkpt>
      <trkpt lat="48.79485" lon="2.23731">
        <ele>119.025</ele>
        <time>2016-06-23T12:11:15.372Z</time>
      </trkpt>
      <trkpt lat="48.79478" lon="2.23722">
        <ele>119.289</ele>
        <time>2016-06-23T12:11:22.471Z</time>
      </trkpt>
      <trkpt lat="48.79482" lon="2.2371">
        <ele>119.669</ele>
        <time>2016-06-23T12:11:28.944Z</time>
      </trkpt>
      <trkpt lat="48.79483" lon="2.23694">
        <ele>120.039</ele>
        <time>2016-06-23T12:11:36.392Z</time>
      </trkpt>
      <trkpt lat="48.79477" lon="2.23682">
        <ele>120.286</ele>
        <time>2016-06-23T12:11:43.711Z</time>
      </trkpt>
      <trkpt lat="48.79479" lon="2.23667">
        <ele>120.442</ele>
        <time>2016-06-23T12:11:51.213Z</time>
      </trkpt>
      <trkpt lat="48.79485" lon="2.23656">
        <ele>120.635</ele>
        <time>2016-06-23T12:11:58.688Z</time>
      </trkpt>
      <trkpt lat="48.79484" lon="2.23641">
        <ele>120.951</ele>
        <time>2016-06-23T12:12:07.193Z</time>
      </trkpt>
      <trkpt lat="48.79487" lon="2.23627">
        <ele>121.45</ele>
        <time>2016-06-23T12:12:16.919Z</time>
      </trkpt>
      <trkpt lat="48.79486" lon="2.23614">
        <ele>122.075</ele>
        <time>2016-06-23T12:12:26.490Z</time>
      </trkpt>
      <trkpt lat="48.79487" lon="2.23599">
        <ele>122.707</ele>
        <time>2016-06-23T12:12:35.491Z</time>
      </trkpt>
      <trkpt lat="48.7949" lon="2.23585">
        <ele>123.31</ele>
        <time>2016-06-23T12:12:42.497Z</time>
      </trkpt>
      <trkpt lat="48.7949" lon="2.23571">
        <ele>123.803</ele>
        <time>2016-06-23T12:12:48.995Z</time>
      </trkpt>
      <trkpt lat="48.79492" lon="2.23557">
        <ele>124.056</ele>
        <time>2016-06-23T12:12:56.000Z</time>
      </trkpt>
      <trkpt lat="48.79492" lon="2.23557">
        <ele>124.096</ele>
        <time>2016-06-23T12:12:58.000Z</time>
      </trkpt>
      <trkpt lat="48.79492" lon="2.23557">
        <ele>124.025</ele>
        <time>2016-06-23T12:13:19.072Z</time>
      </trkpt>
      <trkpt lat="48.79492" lon="2.23542">
        <ele>123.945</ele>
        <time>2016-06-23T12:13:35.543Z</time>
      </trkpt>
      <trkpt lat="48.79492" lon="2.23528">
        <ele>123.685</ele>
        <time>2016-06-23T12:13:45.641Z</time>
      </trkpt>
      <trkpt lat="48.79494" lon="2.23514">
        <ele>123.031</ele>
        <time>2016-06-23T12:13:53.522Z</time>
      </trkpt>
      <trkpt lat="48.79496" lon="2.23501">
        <ele>122.251</ele>
        <time>2016-06-23T12:14:01.884Z</time>
      </trkpt>
      <trkpt lat="48.79497" lon="2.23486">
        <ele>121.661</ele>
        <time>2016-06-23T12:14:11.985Z</time>
      </trkpt>
      <trkpt lat="48.79502" lon="2.23474">
        <ele>121.135</ele>
        <time>2016-06-23T12:14:22.034Z</time>
      </trkpt>
      <trkpt lat="48.79507" lon="2.23461">
        <ele>120.449</ele>
        <time>2016-06-23T12:14:30.454Z</time>
      </trkpt>
      <trkpt lat="48.79506" lon="2.23446">
        <ele>119.551</ele>
        <time>2016-06-23T12:14:38.204Z</time>
      </trkpt>
      <trkpt lat="48.79499" lon="2.23437">
        <ele>118.642</ele>
        <time>2016-06-23T12:14:45.909Z</time>
      </trkpt>
      <trkpt lat="48.7949" lon="2.2343">
        <ele>118.013</ele>
        <time>2016-06-23T12:14:53.962Z</time>
      </trkpt>
      <trkpt lat="48.79481" lon="2.23426">
        <ele>117.726</ele>
        <time>2016-06-23T12:15:02.200Z</time>
      </trkpt>
      <trkpt lat="48.79472" lon="2.23424">
        <ele>117.635</ele>
        <time>2016-06-23T12:15:10.285Z</time>
      </trkpt>
      <trkpt lat="48.79462" lon="2.2342">
        <ele>117.601</ele>
        <time>2016-06-23T12:15:19.312Z</time>
      </trkpt>
      <trkpt lat="48.79453" lon="2.23418">
        <ele>117.56</ele>
        <time>2016-06-23T12:15:27.935Z</time>
      </trkpt>
      <trkpt lat="48.79444" lon="2.23415">
        <ele>117.504</ele>
        <time>2016-06-23T12:15:36.873Z</time>
      </trkpt>
      <trkpt lat="48.79435" lon="2.23414">
        <ele>117.435</ele>
        <time>2016-06-23T12:15:44.807Z</time>
      </trkpt>
      <trkpt lat="48.79425" lon="2.23412">
        <ele>117.359</ele>
        <time>2016-06-23T12:15:54.107Z</time>
      </trkpt>
      <trkpt lat="48.7942" lon="2.23399">
        <ele>117.27</ele>
        <time>2016-06-23T12:16:05.006Z</time>
      </trkpt>
      <trkpt lat="48.79418" lon="2.23386">
        <ele>117.17</ele>
        <time>2016-06-23T12:16:16.724Z</time>
      </trkpt>
      <trkpt lat="48.79421" lon="2.23371">
        <ele>117.09</ele>
        <time>2016-06-23T12:16:27.185Z</time>
      </trkpt>
      <trkpt lat="48.79424" lon="2.23358">
        <ele>117.081</ele>
        <time>2016-06-23T12:16:36.342Z</time>
      </trkpt>
      <trkpt lat="48.79428" lon="2.23344">
        <ele>117.14</ele>
        <time>2016-06-23T12:16:47.517Z</time>
      </trkpt>
      <trkpt lat="48.79433" lon="2.23332">
        <ele>117.222</ele>
        <time>2016-06-23T12:16:58.925Z</time>
      </trkpt>
      <trkpt lat="48.7944" lon="2.23322">
        <ele>117.298</ele>
        <time>2016-06-23T12:17:08.530Z</time>
      </trkpt>
      <trkpt lat="48.79448" lon="2.23313">
        <ele>117.363</ele>
        <time>2016-06-23T12:17:16.794Z</time>
      </trkpt>
      <trkpt lat="48.79455" lon="2.23305">
        <ele>117.407</ele>
        <time>2016-06-23T12:17:25.186Z</time>
      </trkpt>
      <trkpt lat="48.79462" lon="2.23295">
        <ele>117.431</ele>
        <time>2016-06-23T12:17:33.572Z</time>
      </trkpt>
      <trkpt lat="48.7947" lon="2.23285">
        <ele>117.484</ele>
        <time>2016-06-23T12:17:43.479Z</time>
      </trkpt>
      <trkpt lat="48.79477" lon="2.23277">
        <ele>117.594</ele>
        <time>2016-06-23T12:17:53.432Z</time>
      </trkpt>
      <trkpt lat="48.79485" lon="2.2327">
        <ele>117.746</ele>
        <time>2016-06-23T12:18:04.490Z</time>
      </trkpt>
      <trkpt lat="48.79494" lon="2.23264">
        <ele>117.906</ele>
        <time>2016-06-23T12:18:13.698Z</time>
      </trkpt>
      <trkpt lat="48.79503" lon="2.23258">
        <ele>118.052</ele>
        <time>2016-06-23T12:18:21.704Z</time>
      </trkpt>
      <trkpt lat="48.79513" lon="2.23258">
        <ele>118.204</ele>
        <time>2016-06-23T12:18:29.583Z</time>
      </trkpt>
      <trkpt lat="48.79521" lon="2.23266">
        <ele>118.384</ele>
        <time>2016-06-23T12:18:36.764Z</time>
      </trkpt>
      <trkpt lat="48.79527" lon="2.23277">
        <ele>118.546</ele>
        <time>2016-06-23T12:18:44.358Z</time>
      </trkpt>
      <trkpt lat="48.79527" lon="2.23292">
        <ele>118.679</ele>
        <time>2016-06-23T12:18:53.198Z</time>
      </trkpt>
      <trkpt lat="48.79524" lon="2.23305">
        <ele>118.812</ele>
        <time>2016-06-23T12:19:03.304Z</time>
      </trkpt>
      <trkpt lat="48.79519" lon="2.23318">
        <ele>118.915</ele>
        <time>2016-06-23T12:19:13.282Z</time>
      </trkpt>
      <trkpt lat="48.79517" lon="2.23332">
        <ele>118.95</ele>
        <time>2016-06-23T12:19:22.259Z</time>
      </trkpt>
      <trkpt lat="48.79515" lon="2.23345">
        <ele>118.902</ele>
        <time>2016-06-23T12:19:31.540Z</time>
      </trkpt>
      <trkpt lat="48.79511" lon="2.23358">
        <ele>118.747</ele>
        <time>2016-06-23T12:19:41.138Z</time>
      </trkpt>
      <trkpt lat="48.79508" lon="2.23372">
        <ele>118.505</ele>
        <time>2016-06-23T12:19:50.058Z</time>
      </trkpt>
      <trkpt lat="48.79505" lon="2.23387">
        <ele>118.227</ele>
        <time>2016-06-23T12:19:58.462Z</time>
      </trkpt>
      <trkpt lat="48.79503" lon="2.23402">
        <ele>117.974</ele>
        <time>2016-06-23T12:20:06.869Z</time>
      </trkpt>
      <trkpt lat="48.79504" lon="2.23416">
        <ele>117.813</ele>
        <time>2016-06-23T12:20:14.439Z</time>
      </trkpt>
      <trkpt lat="48.79509" lon="2.23428">
        <ele>117.743</ele>
        <time>2016-06-23T12:20:20.896Z</time>
      </trkpt>
      <trkpt lat="48.79517" lon="2.23436">
        <ele>117.696</ele>
        <time>2016-06-23T12:20:27.506Z</time>
      </trkpt>
      <trkpt lat="48.79526" lon="2.23442">
        <ele>117.586</ele>
        <time>2016-06-23T12:20:34.440Z</time>
      </trkpt>
      <trkpt lat="48.79534" lon="2.2345">
        <ele>117.332</ele>
        <time>2016-06-23T12:20:41.661Z</time>
      </trkpt>
      <trkpt lat="48.79541" lon="2.23458">
        <ele>116.96</ele>
        <time>2016-06-23T12:20:50.536Z</time>
      </trkpt>
      <trkpt lat="48.7955" lon="2.23461">
        <ele>116.547</ele>
        <time>2016-06-23T12:21:01.567Z</time>
      </trkpt>
      <trkpt lat="48.79558" lon="2.23453">
        <ele>116.078</ele>
        <time>2016-06-23T12:21:12.105Z</time>
      </trkpt>
      <trkpt lat="48.79566" lon="2.23445">
        <ele>115.575</ele>
        <time>2016-06-23T12:21:20.727Z</time>
      </trkpt>
      <trkpt lat="48.79572" lon="2.23433">
        <ele>115.17</ele>
        <time>2016-06-23T12:21:29.000Z</time>
      </trkpt>
      <trkpt lat="48.79572" lon="2.23433">
        <ele>114.937</ele>
        <time>2016-06-23T12:21:33.000Z</time>
      </trkpt>
      <trkpt lat="48.79572" lon="2.23433">
        <ele>114.837</ele>
        <time>2016-06-23T12:21:33.100Z</time>
      </trkpt>
      <trkpt lat="48.79579" lon="2.23421">
        <ele>114.804</ele>
        <time>2016-06-23T12:21:50.474Z</time>
      </trkpt>
      <trkpt lat="48.79588" lon="2.23416">
        <ele>114.727</ele>
        <time>2016-06-23T12:22:04.095Z</time>
      </trkpt>
      <trkpt lat="48.79597" lon="2.23408">
        <ele>114.447</ele>
        <time>2016-06-23T12:22:17.620Z</time>
      </trkpt>
      <trkpt lat="48.79604" lon="2.23398">
        <ele>113.934</ele>
        <time>2016-06-23T12:22:25.761Z</time>
      </trkpt>
      <trkpt lat="48.79613" lon="2.23391">
        <ele>113.397</ele>
        <time>2016-06-23T12:22:32.935Z</time>
      </trkpt>
      <trkpt lat="48.7962" lon="2.23381">
        <ele>113.034</ele>
        <time>2016-06-23T12:22:40.771Z</time>
      </trkpt>
      <trkpt lat="48.79628" lon="2.23373">
        <ele>112.86</ele>
        <time>2016-06-23T12:22:49.751Z</time>
      </trkpt>
      <trkpt lat="48.79635" lon="2.23363">
        <ele>112.788</ele>
        <time>2016-06-23T12:22:59.530Z</time>
      </trkpt>
      <trkpt lat="48.79642" lon="2.23355">
        <ele>112.733</ele>
        <time>2016-06-23T12:23:10.339Z</time>
      </trkpt>
      <trkpt lat="48.79648" lon="2.23343">
        <ele>112.67</ele>
        <time>2016-06-23T12:23:21.972Z</time>
      </trkpt>
      <trkpt lat="48.79656" lon="2.23333">
        <ele>112.613</ele>
        <time>2016-06-23T12:23:30.781Z</time>
      </trkpt>
      <trkpt lat="48.79662" lon="2.23322">
        <ele>112.568</ele>
        <time>2016-06-23T12:23:37.884Z</time>
      </trkpt>
      <trkpt lat="48.7967" lon="2.23313">
        <ele>112.546</ele>
        <time>2016-06-23T12:23:44.974Z</time>
      </trkpt>
      <trkpt lat="48.79678" lon="2.23304">
        <ele>112.63</ele>
        <time>2016-06-23T12:23:50.416Z</time>
      </trkpt>
      <trkpt lat="48.79687" lon="2.23296">
        <ele>112.858</ele>
        <time>2016-06-23T12:23:56.754Z</time>
      </trkpt>
      <trkpt lat="48.79694" lon="2.23286">
        <ele>113.138</ele>
        <time>2016-06-23T12:24:03.223Z</time>
      </trkpt>
      <trkpt lat="48.79703" lon="2.23282">
        <ele>113.371</ele>
        <time>2016-06-23T12:24:10.180Z</time>
      </trkpt>
      <trkpt lat="48.79711" lon="2.23271">
        <ele>113.52</ele>
        <time>2016-06-23T12:24:18.966Z</time>
      </trkpt>
      <trkpt lat="48.79719" lon="2.23265">
        <ele>113.578</ele>
        <time>2016-06-23T12:24:29.400Z</time>
      </trkpt>
      <trkpt lat="48.79728" lon="2.23259">
        <ele>113.584</ele>
        <time>2016-06-23T12:24:41.142Z</time>
      </trkpt>
      <trkpt lat="48.79735" lon="2.23251">
        <ele>113.61</ele>
        <time>2016-06-23T12:24:49.000Z</time>
      </trkpt>
      <trkpt lat="48.79735" lon="2.23251">
        <ele>113.697</ele>
        <time>2016-06-23T12:24:54.000Z</time>
      </trkpt>
      <trkpt lat="48.79735" lon="2.23251">
        <ele>113.756</ele>
        <time>2016-06-23T12:24:54.100Z</time>
      </trkpt>
      <trkpt lat="48.79751" lon="2.23224">
        <ele>113.708</ele>
        <time>2016-06-23T12:25:29.951Z</time>
      </trkpt>
      <trkpt lat="48.79745" lon="2.23212">
        <ele>113.729</ele>
        <time>2016-06-23T12:25:38.833Z</time>
      </trkpt>
      <trkpt lat="48.7974" lon="2.232">
        <ele>114.089</ele>
        <time>2016-06-23T12:25:48.058Z</time>
      </trkpt>
      <trkpt lat="48.79745" lon="2.23189">
        <ele>114.701</ele>
        <time>2016-06-23T12:25:56.205Z</time>
      </trkpt>
      <trkpt lat="48.79752" lon="2.23179">
        <ele>115.297</ele>
        <time>2016-06-23T12:26:03.752Z</time>
      </trkpt>
      <trkpt lat="48.79755" lon="2.23166">
        <ele>115.866</ele>
        <time>2016-06-23T12:26:12.788Z</time>
      </trkpt>
      <trkpt lat="48.79758" lon="2.23153">
        <ele>116.446</ele>
        <time>2016-06-23T12:26:22.843Z</time>
      </trkpt>
      <trkpt lat="48.79762" lon="2.23139">
        <ele>116.949</ele>
        <time>2016-06-23T12:26:35.544Z</time>
      </trkpt>
      <trkpt lat="48.79767" lon="2.23127">
        <ele>117.583</ele>
        <time>2016-06-23T12:26:44.717Z</time>
      </trkpt>
      <trkpt lat="48.79771" lon="2.23114">
        <ele>118.634</ele>
        <time>2016-06-23T12:26:52.753Z</time>
      </trkpt>
      <trkpt lat="48.79774" lon="2.23101">
        <ele>119.878</ele>
        <time>2016-06-23T12:27:00.540Z</time>
      </trkpt>
      <trkpt lat="48.79775" lon="2.23087">
        <ele>120.857</ele>
        <time>2016-06-23T12:27:09.580Z</time>
      </trkpt>
      <trkpt lat="48.79777" lon="2.23073">
        <ele>121.444</ele>
        <time>2016-06-23T12:27:18.834Z</time>
      </trkpt>
      <trkpt lat="48.79776" lon="2.23059">
        <ele>121.856</ele>
        <time>2016-06-23T12:27:26.283Z</time>
      </trkpt>
      <trkpt lat="48.79776" lon="2.23043">
        <ele>122.313</ele>
        <time>2016-06-23T12:27:33.349Z</time>
      </trkpt>
      <trkpt lat="48.79775" lon="2.23029">
        <ele>122.76</ele>
        <time>2016-06-23T12:27:40.428Z</time>
      </trkpt>
      <trkpt lat="48.79776" lon="2.23014">
        <ele>123.092</ele>
        <time>2016-06-23T12:27:48.437Z</time>
      </trkpt>
      <trkpt lat="48.79773" lon="2.23001">
        <ele>123.329</ele>
        <time>2016-06-23T12:27:56.781Z</time>
      </trkpt>
      <trkpt lat="48.79769" lon="2.22987">
        <ele>123.554</ele>
        <time>2016-06-23T12:28:05.932Z</time>
      </trkpt>
      <trkpt lat="48.79767" lon="2.22973">
        <ele>123.825</ele>
        <time>2016-06-23T12:28:15.863Z</time>
      </trkpt>
      <trkpt lat="48.79762" lon="2.22962">
        <ele>124.124</ele>
        <time>2016-06-23T12:28:26.199Z</time>
      </trkpt>
      <trkpt lat="48.79759" lon="2.22947">
        <ele>124.471</ele>
        <time>2016-06-23T12:28:36.430Z</time>
      </trkpt>
      <trkpt lat="48.79757" lon="2.22933">
        <ele>124.943</ele>
        <time>2016-06-23T12:28:44.794Z</time>
      </trkpt>
      <trkpt lat="48.79755" lon="2.2292">
        <ele>125.5</ele>
        <time>2016-06-23T12:28:52.172Z</time>
      </trkpt>
      <trkpt lat="48.79753" lon="2.22904">
        <ele>126.036</ele>
        <time>2016-06-23T12:29:00.208Z</time>
      </trkpt>
      <trkpt lat="48.7975" lon="2.22892">
        <ele>126.53</ele>
        <time>2016-06-23T12:29:07.398Z</time>
      </trkpt>
      <trkpt lat="48.79747" lon="2.22879">
        <ele>127.038</ele>
        <time>2016-06-23T12:29:14.842Z</time>
      </trkpt>
      <trkpt lat="48.79748" lon="2.22865">
        <ele>127.572</ele>
        <time>2016-06-23T12:29:22.557Z</time>
      </trkpt>
      <trkpt lat="48.79746" lon="2.22851">
        <ele>128.069</ele>
        <time>2016-06-23T12:29:30.082Z</time>
      </trkpt>
      <trkpt lat="48.79745" lon="2.22836">
        <ele>128.478</ele>
        <time>2016-06-23T12:29:37.722Z</time>
      </trkpt>
      <trkpt lat="48.79746" lon="2.22822">
        <ele>128.792</ele>
        <time>2016-06-23T12:29:44.747Z</time>
      </trkpt>
      <trkpt lat="48.79743" lon="2.22809">
        <ele>129.089</ele>
        <time>2016-06-23T12:29:52.190Z</time>
      </trkpt>
      <trkpt lat="48.79746" lon="2.22794">
        <ele>129.501</ele>
        <time>2016-06-23T12:30:00.099Z</time>
      </trkpt>
      <trkpt lat="48.79754" lon="2.22786">
        <ele>130.147</ele>
        <time>2016-06-23T12:30:06.996Z</time>
      </trkpt>
      <trkpt lat="48.79759" lon="2.22774">
        <ele>131.012</ele>
        <time>2016-06-23T12:30:13.863Z</time>
      </trkpt>
      <trkpt lat="48.79752" lon="2.22763">
        <ele>131.878</ele>
        <time>2016-06-23T12:30:22.000Z</time>
      </trkpt>
      <trkpt lat="48.79752" lon="2.22763">
        <ele>132.482</ele>
        <time>2016-06-23T12:30:28.000Z</time>
      </trkpt>
      <trkpt lat="48.79752" lon="2.22763">
        <ele>132.701</ele>
        <time>2016-06-23T12:33:42.164Z</time>
      </trkpt>
      <trkpt lat="48.79752" lon="2.22747">
        <ele>132.435</ele>
        <time>2016-06-23T12:34:39.782Z</time>
      </trkpt>
      <trkpt lat="48.79758" lon="2.22735">
        <ele>131.934</ele>
        <time>2016-06-23T12:35:07.126Z</time>
      </trkpt>
      <trkpt lat="48.7976" lon="2.22721">
        <ele>130.871</ele>
        <time>2016-06-23T12:35:18.866Z</time>
      </trkpt>
      <trkpt lat="48.79761" lon="2.22706">
        <ele>129.813</ele>
        <time>2016-06-23T12:35:26.661Z</time>
      </trkpt>
      <trkpt lat="48.79765" lon="2.22692">
        <ele>129.382</ele>
        <time>2016-06-23T12:35:33.334Z</time>
      </trkpt>
      <trkpt lat="48.79767" lon="2.22677">
        <ele>129.485</ele>
        <time>2016-06-23T12:35:39.683Z</time>
      </trkpt>
      <trkpt lat="48.79768" lon="2.22664">
        <ele>129.724</ele>
        <time>2016-06-23T12:35:45.696Z</time>
      </trkpt>
      <trkpt lat="48.79769" lon="2.22649">
        <ele>129.824</ele>
        <time>2016-06-23T12:35:52.710Z</time>
      </trkpt>
      <trkpt lat="48.79768" lon="2.22635">
        <ele>129.816</ele>
        <time>2016-06-23T12:35:59.798Z</time>
      </trkpt>
      <trkpt lat="48.79767" lon="2.2262">
        <ele>129.815</ele>
        <time>2016-06-23T12:36:07.578Z</time>
      </trkpt>
      <trkpt lat="48.79767" lon="2.22606">
        <ele>129.935</ele>
        <time>2016-06-23T12:36:15.412Z</time>
      </trkpt>
      <trkpt lat="48.79766" lon="2.22591">
        <ele>130.273</ele>
        <time>2016-06-23T12:36:24.167Z</time>
      </trkpt>
      <trkpt lat="48.79765" lon="2.22577">
        <ele>130.819</ele>
        <time>2016-06-23T12:36:33.294Z</time>
      </trkpt>
      <trkpt lat="48.79763" lon="2.22563">
        <ele>131.446</ele>
        <time>2016-06-23T12:36:41.883Z</time>
      </trkpt>
      <trkpt lat="48.79765" lon="2.22549">
        <ele>131.96</ele>
        <time>2016-06-23T12:36:49.355Z</time>
      </trkpt>
      <trkpt lat="48.79767" lon="2.22534">
        <ele>132.186</ele>
        <time>2016-06-23T12:36:56.242Z</time>
      </trkpt>
      <trkpt lat="48.79769" lon="2.22519">
        <ele>132.145</ele>
        <time>2016-06-23T12:37:03.189Z</time>
      </trkpt>
      <trkpt lat="48.79768" lon="2.22505">
        <ele>132.032</ele>
        <time>2016-06-23T12:37:10.350Z</time>
      </trkpt>
      <trkpt lat="48.79768" lon="2.22491">
        <ele>132.001</ele>
        <time>2016-06-23T12:37:18.673Z</time>
      </trkpt>
      <trkpt lat="48.79762" lon="2.22481">
        <ele>132.096</ele>
        <time>2016-06-23T12:37:27.907Z</time>
      </trkpt>
      <trkpt lat="48.79761" lon="2.22467">
        <ele>132.374</ele>
        <time>2016-06-23T12:37:39.768Z</time>
      </trkpt>
      <trkpt lat="48.79764" lon="2.22452">
        <ele>132.818</ele>
        <time>2016-06-23T12:37:52.023Z</time>
      </trkpt>
      <trkpt lat="48.79763" lon="2.22438">
        <ele>133.401</ele>
        <time>2016-06-23T12:38:02.092Z</time>
      </trkpt>
      <trkpt lat="48.79764" lon="2.22424">
        <ele>134.31</ele>
        <time>2016-06-23T12:38:12.665Z</time>
      </trkpt>
      <trkpt lat="48.79762" lon="2.22411">
        <ele>135.626</ele>
        <time>2016-06-23T12:38:22.940Z</time>
      </trkpt>
      <trkpt lat="48.79758" lon="2.22397">
        <ele>137.059</ele>
        <time>2016-06-23T12:38:32.666Z</time>
      </trkpt>
      <trkpt lat="48.79756" lon="2.22384">
        <ele>138.297</ele>
        <time>2016-06-23T12:38:41.150Z</time>
      </trkpt>
      <trkpt lat="48.79753" lon="2.22369">
        <ele>139.23</ele>
        <time>2016-06-23T12:38:50.351Z</time>
      </trkpt>
      <trkpt lat="48.79753" lon="2.22354">
        <ele>139.927</ele>
        <time>2016-06-23T12:38:58.999Z</time>
      </trkpt>
      <trkpt lat="48.79753" lon="2.22354">
        <ele>140.441</ele>
        <time>2016-06-23T12:39:02.999Z</time>
      </trkpt>
      <trkpt lat="48.79753" lon="2.22354">
        <ele>140.666</ele>
        <time>2016-06-23T12:39:34.090Z</time>
      </trkpt>
      <trkpt lat="48.79743" lon="2.22345">
        <ele>140.397</ele>
        <time>2016-06-23T12:39:48.999Z</time>
      </trkpt>
      <trkpt lat="48.79743" lon="2.22345">
        <ele>140.281</ele>
        <time>2016-06-23T12:39:51.999Z</time>
      </trkpt>
      <trkpt lat="48.79743" lon="2.22345">
        <ele>140.241</ele>
        <time>2016-06-23T12:39:52.099Z</time>
      </trkpt>
      <trkpt lat="48.79743" lon="2.22345">
        <ele>140.174</ele>
        <time>2016-06-23T12:41:29.999Z</time>
      </trkpt>
      <trkpt lat="48.79743" lon="2.22345">
        <ele>140.124</ele>
        <time>2016-06-23T12:41:50.128Z</time>
      </trkpt>
      <trkpt lat="48.79748" lon="2.22333">
        <ele>140.035</ele>
        <time>2016-06-23T12:42:06.999Z</time>
      </trkpt>
      <trkpt lat="48.79748" lon="2.22333">
        <ele>140.011</ele>
        <time>2016-06-23T12:42:11.999Z</time>
      </trkpt>
      <trkpt lat="48.79748" lon="2.22333">
        <ele>139.986</ele>
        <time>2016-06-23T12:42:12.099Z</time>
      </trkpt>
      <trkpt lat="48.79744" lon="2.2232">
        <ele>139.879</ele>
        <time>2016-06-23T12:43:55.000Z</time>
      </trkpt>
      <trkpt lat="48.79744" lon="2.2232">
        <ele>139.847</ele>
        <time>2016-06-23T12:43:58.000Z</time>
      </trkpt>
      <trkpt lat="48.79744" lon="2.2232">
        <ele>139.822</ele>
        <time>2016-06-23T12:43:58.100Z</time>
      </trkpt>
      <trkpt lat="48.79739" lon="2.22303">
        <ele>139.777</ele>
        <time>2016-06-23T12:44:17.248Z</time>
      </trkpt>
      <trkpt lat="48.79736" lon="2.2229">
        <ele>140.638</ele>
        <time>2016-06-23T12:44:28.756Z</time>
      </trkpt>
      <trkpt lat="48.79734" lon="2.22275">
        <ele>143.149</ele>
        <time>2016-06-23T12:44:43.918Z</time>
      </trkpt>
      <trkpt lat="48.79736" lon="2.22261">
        <ele>146.227</ele>
        <time>2016-06-23T12:44:57.654Z</time>
      </trkpt>
      <trkpt lat="48.79733" lon="2.22248">
        <ele>148.552</ele>
        <time>2016-06-23T12:45:07.915Z</time>
      </trkpt>
      <trkpt lat="48.7973" lon="2.22236">
        <ele>150.158</ele>
        <time>2016-06-23T12:45:15.257Z</time>
      </trkpt>
      <trkpt lat="48.79723" lon="2.22223">
        <ele>151.448</ele>
        <time>2016-06-23T12:45:22.115Z</time>
      </trkpt>
      <trkpt lat="48.79719" lon="2.22211">
        <ele>152.611</ele>
        <time>2016-06-23T12:45:29.604Z</time>
      </trkpt>
      <trkpt lat="48.79721" lon="2.22198">
        <ele>153.662</ele>
        <time>2016-06-23T12:45:39.791Z</time>
      </trkpt>
      <trkpt lat="48.79722" lon="2.22182">
        <ele>154.544</ele>
        <time>2016-06-23T12:45:54.199Z</time>
      </trkpt>
      <trkpt lat="48.79723" lon="2.22168">
        <ele>155.074</ele>
        <time>2016-06-23T12:46:07.604Z</time>
      </trkpt>
      <trkpt lat="48.79726" lon="2.22155">
        <ele>155.187</ele>
        <time>2016-06-23T12:46:18.339Z</time>
      </trkpt>
      <trkpt lat="48.79731" lon="2.22142">
        <ele>155.05</ele>
        <time>2016-06-23T12:46:26.273Z</time>
      </trkpt>
      <trkpt lat="48.79735" lon="2.22128">
        <ele>154.819</ele>
        <time>2016-06-23T12:46:36.242Z</time>
      </trkpt>
      <trkpt lat="48.79738" lon="2.22114">
        <ele>154.59</ele>
        <time>2016-06-23T12:46:45.068Z</time>
      </trkpt>
      <trkpt lat="48.79737" lon="2.22099">
        <ele>154.425</ele>
        <time>2016-06-23T12:46:52.000Z</time>
      </trkpt>
      <trkpt lat="48.79737" lon="2.22099">
        <ele>154.334</ele>
        <time>2016-06-23T12:46:59.000Z</time>
      </trkpt>
      <trkpt lat="48.79737" lon="2.22099">
        <ele>154.28</ele>
        <time>2016-06-23T12:46:59.100Z</time>
      </trkpt>
      <trkpt lat="48.7974" lon="2.22073">
        <ele>154.247</ele>
        <time>2016-06-23T12:47:21.830Z</time>
      </trkpt>
      <trkpt lat="48.79746" lon="2.22061">
        <ele>154.295</ele>
        <time>2016-06-23T12:47:31.007Z</time>
      </trkpt>
      <trkpt lat="48.79749" lon="2.22047">
        <ele>154.446</ele>
        <time>2016-06-23T12:47:40.164Z</time>
      </trkpt>
      <trkpt lat="48.79751" lon="2.22032">
        <ele>154.608</ele>
        <time>2016-06-23T12:47:49.350Z</time>
      </trkpt>
      <trkpt lat="48.79756" lon="2.22019">
        <ele>154.698</ele>
        <time>2016-06-23T12:47:57.625Z</time>
      </trkpt>
      <trkpt lat="48.7976" lon="2.22005">
        <ele>154.751</ele>
        <time>2016-06-23T12:48:05.538Z</time>
      </trkpt>
      <trkpt lat="48.79762" lon="2.21991">
        <ele>154.82</ele>
        <time>2016-06-23T12:48:12.592Z</time>
      </trkpt>
      <trkpt lat="48.79766" lon="2.21979">
        <ele>154.937</ele>
        <time>2016-06-23T12:48:19.552Z</time>
      </trkpt>
      <trkpt lat="48.79769" lon="2.21966">
        <ele>155.086</ele>
        <time>2016-06-23T12:48:27.157Z</time>
      </trkpt>
      <trkpt lat="48.79773" lon="2.21952">
        <ele>155.199</ele>
        <time>2016-06-23T12:48:35.826Z</time>
      </trkpt>
      <trkpt lat="48.79776" lon="2.21939">
        <ele>155.255</ele>
        <time>2016-06-23T12:48:44.610Z</time>
      </trkpt>
      <trkpt lat="48.7978" lon="2.21926">
        <ele>155.355</ele>
        <time>2016-06-23T12:48:53.887Z</time>
      </trkpt>
      <trkpt lat="48.79784" lon="2.21913">
        <ele>155.591</ele>
        <time>2016-06-23T12:49:04.933Z</time>
      </trkpt>
      <trkpt lat="48.7979" lon="2.21901">
        <ele>155.917</ele>
        <time>2016-06-23T12:49:16.239Z</time>
      </trkpt>
      <trkpt lat="48.79792" lon="2.21887">
        <ele>156.372</ele>
        <time>2016-06-23T12:49:25.810Z</time>
      </trkpt>
      <trkpt lat="48.79792" lon="2.21873">
        <ele>157.155</ele>
        <time>2016-06-23T12:49:35.246Z</time>
      </trkpt>
      <trkpt lat="48.79795" lon="2.21859">
        <ele>158.232</ele>
        <time>2016-06-23T12:49:46.468Z</time>
      </trkpt>
      <trkpt lat="48.79797" lon="2.21845">
        <ele>159.207</ele>
        <time>2016-06-23T12:49:56.783Z</time>
      </trkpt>
      <trkpt lat="48.79797" lon="2.2183">
        <ele>159.783</ele>
        <time>2016-06-23T12:50:04.561Z</time>
      </trkpt>
      <trkpt lat="48.798" lon="2.21816">
        <ele>160.052</ele>
        <time>2016-06-23T12:50:12.399Z</time>
      </trkpt>
      <trkpt lat="48.79801" lon="2.21802">
        <ele>160.286</ele>
        <time>2016-06-23T12:50:20.140Z</time>
      </trkpt>
      <trkpt lat="48.798" lon="2.21788">
        <ele>160.572</ele>
        <time>2016-06-23T12:50:27.704Z</time>
      </trkpt>
      <trkpt lat="48.79802" lon="2.21774">
        <ele>160.84</ele>
        <time>2016-06-23T12:50:35.307Z</time>
      </trkpt>
      <trkpt lat="48.798" lon="2.21759">
        <ele>161.047</ele>
        <time>2016-06-23T12:50:42.567Z</time>
      </trkpt>
      <trkpt lat="48.79802" lon="2.21745">
        <ele>161.172</ele>
        <time>2016-06-23T12:50:49.742Z</time>
      </trkpt>
      <trkpt lat="48.79805" lon="2.21731">
        <ele>161.282</ele>
        <time>2016-06-23T12:50:56.981Z</time>
      </trkpt>
      <trkpt lat="48.79806" lon="2.21715">
        <ele>161.471</ele>
        <time>2016-06-23T12:51:05.190Z</time>
      </trkpt>
      <trkpt lat="48.79806" lon="2.21701">
        <ele>161.657</ele>
        <time>2016-06-23T12:51:14.190Z</time>
      </trkpt>
      <trkpt lat="48.79807" lon="2.21687">
        <ele>161.764</ele>
        <time>2016-06-23T12:51:20.548Z</time>
      </trkpt>
      <trkpt lat="48.79816" lon="2.21615">
        <ele>161.887</ele>
        <time>2016-06-23T12:51:52.852Z</time>
      </trkpt>
      <trkpt lat="48.79814" lon="2.21601">
        <ele>162.25</ele>
        <time>2016-06-23T12:51:58.755Z</time>
      </trkpt>
      <trkpt lat="48.79815" lon="2.21587">
        <ele>162.866</ele>
        <time>2016-06-23T12:52:05.957Z</time>
      </trkpt>
      <trkpt lat="48.79821" lon="2.21575">
        <ele>163.507</ele>
        <time>2016-06-23T12:52:13.772Z</time>
      </trkpt>
      <trkpt lat="48.79825" lon="2.21563">
        <ele>164.135</ele>
        <time>2016-06-23T12:52:21.677Z</time>
      </trkpt>
      <trkpt lat="48.79831" lon="2.21553">
        <ele>164.819</ele>
        <time>2016-06-23T12:52:30.533Z</time>
      </trkpt>
      <trkpt lat="48.79837" lon="2.21541">
        <ele>165.571</ele>
        <time>2016-06-23T12:52:40.171Z</time>
      </trkpt>
      <trkpt lat="48.79842" lon="2.21528">
        <ele>166.381</ele>
        <time>2016-06-23T12:52:49.220Z</time>
      </trkpt>
      <trkpt lat="48.79847" lon="2.21515">
        <ele>167.251</ele>
        <time>2016-06-23T12:52:58.114Z</time>
      </trkpt>
      <trkpt lat="48.7985" lon="2.21502">
        <ele>168.241</ele>
        <time>2016-06-23T12:53:07.519Z</time>
      </trkpt>
      <trkpt lat="48.79855" lon="2.2149">
        <ele>169.263</ele>
        <time>2016-06-23T12:53:16.165Z</time>
      </trkpt>
      <trkpt lat="48.79859" lon="2.21477">
        <ele>170.035</ele>
        <time>2016-06-23T12:53:24.023Z</time>
      </trkpt>
      <trkpt lat="48.79862" lon="2.21464">
        <ele>170.455</ele>
        <time>2016-06-23T12:53:32.832Z</time>
      </trkpt>
      <trkpt lat="48.79867" lon="2.21452">
        <ele>170.668</ele>
        <time>2016-06-23T12:53:44.302Z</time>
      </trkpt>
      <trkpt lat="48.79874" lon="2.21442">
        <ele>170.779</ele>
        <time>2016-06-23T12:53:55.055Z</time>
      </trkpt>
      <trkpt lat="48.79882" lon="2.21434">
        <ele>170.805</ele>
        <time>2016-06-23T12:54:04.644Z</time>
      </trkpt>
      <trkpt lat="48.79889" lon="2.21424">
        <ele>170.754</ele>
        <time>2016-06-23T12:54:13.046Z</time>
      </trkpt>
      <trkpt lat="48.79892" lon="2.21411">
        <ele>170.737</ele>
        <time>2016-06-23T12:54:21.535Z</time>
      </trkpt>
      <trkpt lat="48.79895" lon="2.21396">
        <ele>170.861</ele>
        <time>2016-06-23T12:54:30.447Z</time>
      </trkpt>
      <trkpt lat="48.79898" lon="2.21382">
        <ele>171.133</ele>
        <time>2016-06-23T12:54:37.782Z</time>
      </trkpt>
      <trkpt lat="48.79902" lon="2.21369">
        <ele>171.464</ele>
        <time>2016-06-23T12:54:45.029Z</time>
      </trkpt>
      <trkpt lat="48.79905" lon="2.21354">
        <ele>171.707</ele>
        <time>2016-06-23T12:54:54.140Z</time>
      </trkpt>
      <trkpt lat="48.79907" lon="2.21341">
        <ele>171.823</ele>
        <time>2016-06-23T12:55:03.990Z</time>
      </trkpt>
      <trkpt lat="48.79902" lon="2.21328">
        <ele>171.972</ele>
        <time>2016-06-23T12:55:17.770Z</time>
      </trkpt>
      <trkpt lat="48.79896" lon="2.21318">
        <ele>172.294</ele>
        <time>2016-06-23T12:55:29.858Z</time>
      </trkpt>
      <trkpt lat="48.79891" lon="2.21305">
        <ele>172.748</ele>
        <time>2016-06-23T12:55:41.163Z</time>
      </trkpt>
      <trkpt lat="48.7989" lon="2.2129">
        <ele>173.179</ele>
        <time>2016-06-23T12:55:51.486Z</time>
      </trkpt>
      <trkpt lat="48.79886" lon="2.21278">
        <ele>173.497</ele>
        <time>2016-06-23T12:55:59.602Z</time>
      </trkpt>
      <trkpt lat="48.79882" lon="2.21264">
        <ele>173.737</ele>
        <time>2016-06-23T12:56:07.381Z</time>
      </trkpt>
      <trkpt lat="48.79878" lon="2.21251">
        <ele>173.92</ele>
        <time>2016-06-23T12:56:14.972Z</time>
      </trkpt>
      <trkpt lat="48.79882" lon="2.21237">
        <ele>174.015</ele>
        <time>2016-06-23T12:56:23.319Z</time>
      </trkpt>
      <trkpt lat="48.79876" lon="2.21226">
        <ele>174.057</ele>
        <time>2016-06-23T12:56:31.636Z</time>
      </trkpt>
      <trkpt lat="48.79874" lon="2.21212">
        <ele>174.103</ele>
        <time>2016-06-23T12:56:40.605Z</time>
      </trkpt>
      <trkpt lat="48.7987" lon="2.21199">
        <ele>174.135</ele>
        <time>2016-06-23T12:56:52.806Z</time>
      </trkpt>
      <trkpt lat="48.7987" lon="2.21185">
        <ele>174.063</ele>
        <time>2016-06-23T12:57:05.803Z</time>
      </trkpt>
      <trkpt lat="48.79868" lon="2.2117">
        <ele>173.874</ele>
        <time>2016-06-23T12:57:16.020Z</time>
      </trkpt>
      <trkpt lat="48.79864" lon="2.21156">
        <ele>173.693</ele>
        <time>2016-06-23T12:57:26.506Z</time>
      </trkpt>
      <trkpt lat="48.79859" lon="2.21144">
        <ele>173.637</ele>
        <time>2016-06-23T12:57:36.963Z</time>
      </trkpt>
      <trkpt lat="48.79859" lon="2.21131">
        <ele>173.697</ele>
        <time>2016-06-23T12:57:45.226Z</time>
      </trkpt>
      <trkpt lat="48.79853" lon="2.21119">
        <ele>173.785</ele>
        <time>2016-06-23T12:57:53.367Z</time>
      </trkpt>
      <trkpt lat="48.79846" lon="2.21108">
        <ele>173.822</ele>
        <time>2016-06-23T12:58:01.985Z</time>
      </trkpt>
      <trkpt lat="48.79842" lon="2.21095">
        <ele>173.827</ele>
        <time>2016-06-23T12:58:10.075Z</time>
      </trkpt>
      <trkpt lat="48.79841" lon="2.21081">
        <ele>173.82</ele>
        <time>2016-06-23T12:58:17.356Z</time>
      </trkpt>
      <trkpt lat="48.79849" lon="2.21074">
        <ele>173.807</ele>
        <time>2016-06-23T12:58:25.977Z</time>
      </trkpt>
      <trkpt lat="48.79858" lon="2.2107">
        <ele>173.816</ele>
        <time>2016-06-23T12:58:36.931Z</time>
      </trkpt>
      <trkpt lat="48.79864" lon="2.21059">
        <ele>173.913</ele>
        <time>2016-06-23T12:58:49.997Z</time>
      </trkpt>
      <trkpt lat="48.79872" lon="2.21052">
        <ele>174.097</ele>
        <time>2016-06-23T12:59:02.973Z</time>
      </trkpt>
      <trkpt lat="48.7988" lon="2.21044">
        <ele>174.243</ele>
        <time>2016-06-23T12:59:12.932Z</time>
      </trkpt>
      <trkpt lat="48.7989" lon="2.21039">
        <ele>174.244</ele>
        <time>2016-06-23T12:59:22.800Z</time>
      </trkpt>
      <trkpt lat="48.79898" lon="2.2103">
        <ele>174.161</ele>
        <time>2016-06-23T12:59:31.843Z</time>
      </trkpt>
      <trkpt lat="48.79905" lon="2.2102">
        <ele>174.135</ele>
        <time>2016-06-23T12:59:40.640Z</time>
      </trkpt>
      <trkpt lat="48.79914" lon="2.21016">
        <ele>174.221</ele>
        <time>2016-06-23T12:59:49.098Z</time>
      </trkpt>
      <trkpt lat="48.79923" lon="2.21008">
        <ele>174.322</ele>
        <time>2016-06-23T12:59:58.462Z</time>
      </trkpt>
      <trkpt lat="48.79931" lon="2.20999">
        <ele>174.342</ele>
        <time>2016-06-23T13:00:06.257Z</time>
      </trkpt>
      <trkpt lat="48.79942" lon="2.20998">
        <ele>174.334</ele>
        <time>2016-06-23T13:00:14.486Z</time>
      </trkpt>
      <trkpt lat="48.7995" lon="2.2099">
        <ele>174.378</ele>
        <time>2016-06-23T13:00:21.864Z</time>
      </trkpt>
      <trkpt lat="48.79958" lon="2.20983">
        <ele>174.462</ele>
        <time>2016-06-23T13:00:29.652Z</time>
      </trkpt>
      <trkpt lat="48.79967" lon="2.20977">
        <ele>174.534</ele>
        <time>2016-06-23T13:00:39.146Z</time>
      </trkpt>
      <trkpt lat="48.79974" lon="2.20967">
        <ele>174.578</ele>
        <time>2016-06-23T13:00:48.284Z</time>
      </trkpt>
      <trkpt lat="48.79984" lon="2.20962">
        <ele>174.599</ele>
        <time>2016-06-23T13:00:56.291Z</time>
      </trkpt>
      <trkpt lat="48.79992" lon="2.20953">
        <ele>174.605</ele>
        <time>2016-06-23T13:01:04.897Z</time>
      </trkpt>
      <trkpt lat="48.79998" lon="2.20943">
        <ele>174.611</ele>
        <time>2016-06-23T13:01:13.712Z</time>
      </trkpt>
      <trkpt lat="48.80006" lon="2.20937">
        <ele>174.619</ele>
        <time>2016-06-23T13:01:21.608Z</time>
      </trkpt>
      <trkpt lat="48.80016" lon="2.20938">
        <ele>174.624</ele>
        <time>2016-06-23T13:01:29.381Z</time>
      </trkpt>
      <trkpt lat="48.80024" lon="2.2093">
        <ele>174.654</ele>
        <time>2016-06-23T13:01:37.994Z</time>
      </trkpt>
      <trkpt lat="48.80033" lon="2.20926">
        <ele>174.734</ele>
        <time>2016-06-23T13:01:47.149Z</time>
      </trkpt>
      <trkpt lat="48.80041" lon="2.20918">
        <ele>174.845</ele>
        <time>2016-06-23T13:01:55.548Z</time>
      </trkpt>
      <trkpt lat="48.80049" lon="2.20908">
        <ele>175.002</ele>
        <time>2016-06-23T13:02:04.024Z</time>
      </trkpt>
      <trkpt lat="48.80059" lon="2.20906">
        <ele>175.215</ele>
        <time>2016-06-23T13:02:11.432Z</time>
      </trkpt>
      <trkpt lat="48.80067" lon="2.20912">
        <ele>175.357</ele>
        <time>2016-06-23T13:02:19.187Z</time>
      </trkpt>
      <trkpt lat="48.80077" lon="2.20915">
        <ele>175.339</ele>
        <time>2016-06-23T13:02:27.986Z</time>
      </trkpt>
      <trkpt lat="48.80086" lon="2.20911">
        <ele>175.271</ele>
        <time>2016-06-23T13:02:35.698Z</time>
      </trkpt>
      <trkpt lat="48.80092" lon="2.209">
        <ele>175.267</ele>
        <time>2016-06-23T13:02:43.202Z</time>
      </trkpt>
      <trkpt lat="48.80095" lon="2.20887">
        <ele>175.274</ele>
        <time>2016-06-23T13:02:51.526Z</time>
      </trkpt>
      <trkpt lat="48.80103" lon="2.2088">
        <ele>175.22</ele>
        <time>2016-06-23T13:02:59.959Z</time>
      </trkpt>
      <trkpt lat="48.80102" lon="2.20867">
        <ele>175.118</ele>
        <time>2016-06-23T13:03:08.952Z</time>
      </trkpt>
      <trkpt lat="48.80097" lon="2.20853">
        <ele>175.014</ele>
        <time>2016-06-23T13:03:21.047Z</time>
      </trkpt>
      <trkpt lat="48.80094" lon="2.20839">
        <ele>174.964</ele>
        <time>2016-06-23T13:03:31.527Z</time>
      </trkpt>
      <trkpt lat="48.80096" lon="2.20825">
        <ele>175.011</ele>
        <time>2016-06-23T13:03:40.672Z</time>
      </trkpt>
      <trkpt lat="48.80103" lon="2.20812">
        <ele>175.146</ele>
        <time>2016-06-23T13:03:50.101Z</time>
      </trkpt>
      <trkpt lat="48.80102" lon="2.20797">
        <ele>175.327</ele>
        <time>2016-06-23T13:03:59.072Z</time>
      </trkpt>
      <trkpt lat="48.80106" lon="2.20783">
        <ele>175.491</ele>
        <time>2016-06-23T13:04:07.365Z</time>
      </trkpt>
      <trkpt lat="48.80112" lon="2.20772">
        <ele>175.6</ele>
        <time>2016-06-23T13:04:14.571Z</time>
      </trkpt>
      <trkpt lat="48.80118" lon="2.2076">
        <ele>175.65</ele>
        <time>2016-06-23T13:04:22.144Z</time>
      </trkpt>
      <trkpt lat="48.80123" lon="2.20749">
        <ele>175.657</ele>
        <time>2016-06-23T13:04:29.933Z</time>
      </trkpt>
      <trkpt lat="48.80132" lon="2.20738">
        <ele>175.665</ele>
        <time>2016-06-23T13:04:38.760Z</time>
      </trkpt>
      <trkpt lat="48.80139" lon="2.20728">
        <ele>175.699</ele>
        <time>2016-06-23T13:04:45.990Z</time>
      </trkpt>
      <trkpt lat="48.80139" lon="2.20714">
        <ele>175.695</ele>
        <time>2016-06-23T13:04:54.056Z</time>
      </trkpt>
      <trkpt lat="48.80144" lon="2.20702">
        <ele>175.499</ele>
        <time>2016-06-23T13:05:03.069Z</time>
      </trkpt>
      <trkpt lat="48.8015" lon="2.2069">
        <ele>175.388</ele>
        <time>2016-06-23T13:05:12.540Z</time>
      </trkpt>
      <trkpt lat="48.80155" lon="2.20678">
        <ele>175.339</ele>
        <time>2016-06-23T13:05:22.047Z</time>
      </trkpt>
      <trkpt lat="48.80161" lon="2.20668">
        <ele>175.315</ele>
        <time>2016-06-23T13:05:31.050Z</time>
      </trkpt>
      <trkpt lat="48.80166" lon="2.20657">
        <ele>175.343</ele>
        <time>2016-06-23T13:05:38.805Z</time>
      </trkpt>
      <trkpt lat="48.80172" lon="2.20645">
        <ele>175.4</ele>
        <time>2016-06-23T13:05:46.834Z</time>
      </trkpt>
      <trkpt lat="48.80177" lon="2.20633">
        <ele>175.449</ele>
        <time>2016-06-23T13:05:55.571Z</time>
      </trkpt>
      <trkpt lat="48.80181" lon="2.2062">
        <ele>175.435</ele>
        <time>2016-06-23T13:06:03.685Z</time>
      </trkpt>
      <trkpt lat="48.80184" lon="2.20607">
        <ele>175.372</ele>
        <time>2016-06-23T13:06:11.601Z</time>
      </trkpt>
      <trkpt lat="48.80187" lon="2.20593">
        <ele>175.309</ele>
        <time>2016-06-23T13:06:20.792Z</time>
      </trkpt>
      <trkpt lat="48.80194" lon="2.20584">
        <ele>175.279</ele>
        <time>2016-06-23T13:06:28.739Z</time>
      </trkpt>
      <trkpt lat="48.80203" lon="2.20575">
        <ele>175.267</ele>
        <time>2016-06-23T13:06:35.029Z</time>
      </trkpt>
      <trkpt lat="48.8021" lon="2.20562">
        <ele>175.26</ele>
        <time>2016-06-23T13:06:40.592Z</time>
      </trkpt>
      <trkpt lat="48.80213" lon="2.20549">
        <ele>175.261</ele>
        <time>2016-06-23T13:06:46.943Z</time>
      </trkpt>
      <trkpt lat="48.80217" lon="2.20536">
        <ele>175.273</ele>
        <time>2016-06-23T13:06:55.244Z</time>
      </trkpt>
      <trkpt lat="48.80216" lon="2.2052">
        <ele>175.25</ele>
        <time>2016-06-23T13:07:05.000Z</time>
      </trkpt>
      <trkpt lat="48.80216" lon="2.2052">
        <ele>175.184</ele>
        <time>2016-06-23T13:07:12.000Z</time>
      </trkpt>
      <trkpt lat="48.80216" lon="2.2052">
        <ele>175.105</ele>
        <time>2016-06-23T13:07:29.031Z</time>
      </trkpt>
      <trkpt lat="48.80224" lon="2.20511">
        <ele>175.044</ele>
        <time>2016-06-23T13:07:43.566Z</time>
      </trkpt>
      <trkpt lat="48.80233" lon="2.2051">
        <ele>174.943</ele>
        <time>2016-06-23T13:07:53.184Z</time>
      </trkpt>
      <trkpt lat="48.80241" lon="2.20503">
        <ele>174.748</ele>
        <time>2016-06-23T13:08:02.855Z</time>
      </trkpt>
      <trkpt lat="48.80249" lon="2.20494">
        <ele>174.538</ele>
        <time>2016-06-23T13:08:11.344Z</time>
      </trkpt>
      <trkpt lat="48.80257" lon="2.20487">
        <ele>174.419</ele>
        <time>2016-06-23T13:08:18.052Z</time>
      </trkpt>
      <trkpt lat="48.80264" lon="2.20477">
        <ele>174.464</ele>
        <time>2016-06-23T13:08:25.000Z</time>
      </trkpt>
      <trkpt lat="48.80264" lon="2.20477">
        <ele>174.672</ele>
        <time>2016-06-23T13:08:35.000Z</time>
      </trkpt>
      <trkpt lat="48.80264" lon="2.20477">
        <ele>174.821</ele>
        <time>2016-06-23T13:08:36.789Z</time>
      </trkpt>
      <trkpt lat="48.80278" lon="2.20485">
        <ele>174.746</ele>
        <time>2016-06-23T13:08:56.479Z</time>
      </trkpt>
      <trkpt lat="48.80283" lon="2.20497">
        <ele>174.613</ele>
        <time>2016-06-23T13:09:05.428Z</time>
      </trkpt>
      <trkpt lat="48.80292" lon="2.20503">
        <ele>174.63</ele>
        <time>2016-06-23T13:09:14.022Z</time>
      </trkpt>
      <trkpt lat="48.80299" lon="2.20513">
        <ele>174.773</ele>
        <time>2016-06-23T13:09:22.310Z</time>
      </trkpt>
      <trkpt lat="48.80306" lon="2.20522">
        <ele>174.859</ele>
        <time>2016-06-23T13:09:30.016Z</time>
      </trkpt>
      <trkpt lat="48.80315" lon="2.20529">
        <ele>174.796</ele>
        <time>2016-06-23T13:09:37.865Z</time>
      </trkpt>
      <trkpt lat="48.80322" lon="2.20538">
        <ele>174.706</ele>
        <time>2016-06-23T13:09:45.786Z</time>
      </trkpt>
      <trkpt lat="48.8033" lon="2.20546">
        <ele>174.726</ele>
        <time>2016-06-23T13:09:54.987Z</time>
      </trkpt>
      <trkpt lat="48.80338" lon="2.20555">
        <ele>174.823</ele>
        <time>2016-06-23T13:10:04.579Z</time>
      </trkpt>
      <trkpt lat="48.80347" lon="2.2056">
        <ele>174.963</ele>
        <time>2016-06-23T13:10:13.909Z</time>
      </trkpt>
      <trkpt lat="48.80354" lon="2.20572">
        <ele>175.145</ele>
        <time>2016-06-23T13:10:21.315Z</time>
      </trkpt>
      <trkpt lat="48.80362" lon="2.2058">
        <ele>175.298</ele>
        <time>2016-06-23T13:10:27.511Z</time>
      </trkpt>
      <trkpt lat="48.8037" lon="2.20588">
        <ele>175.381</ele>
        <time>2016-06-23T13:10:34.760Z</time>
      </trkpt>
      <trkpt lat="48.80378" lon="2.20598">
        <ele>175.436</ele>
        <time>2016-06-23T13:10:42.682Z</time>
      </trkpt>
      <trkpt lat="48.80385" lon="2.20609">
        <ele>175.419</ele>
        <time>2016-06-23T13:10:49.932Z</time>
      </trkpt>
      <trkpt lat="48.80392" lon="2.20618">
        <ele>175.257</ele>
        <time>2016-06-23T13:10:57.140Z</time>
      </trkpt>
      <trkpt lat="48.804" lon="2.20628">
        <ele>174.99</ele>
        <time>2016-06-23T13:11:04.497Z</time>
      </trkpt>
      <trkpt lat="48.80409" lon="2.20634">
        <ele>174.733</ele>
        <time>2016-06-23T13:11:11.968Z</time>
      </trkpt>
      <trkpt lat="48.80417" lon="2.20644">
        <ele>174.531</ele>
        <time>2016-06-23T13:11:20.293Z</time>
      </trkpt>
      <trkpt lat="48.80425" lon="2.20652">
        <ele>174.369</ele>
        <time>2016-06-23T13:11:27.536Z</time>
      </trkpt>
      <trkpt lat="48.8043" lon="2.20664">
        <ele>174.279</ele>
        <time>2016-06-23T13:11:34.873Z</time>
      </trkpt>
      <trkpt lat="48.80436" lon="2.20675">
        <ele>174.316</ele>
        <time>2016-06-23T13:11:41.909Z</time>
      </trkpt>
      <trkpt lat="48.80444" lon="2.20683">
        <ele>174.42</ele>
        <time>2016-06-23T13:11:49.242Z</time>
      </trkpt>
      <trkpt lat="48.80451" lon="2.20692">
        <ele>174.481</ele>
        <time>2016-06-23T13:11:56.573Z</time>
      </trkpt>
      <trkpt lat="48.80459" lon="2.20698">
        <ele>174.462</ele>
        <time>2016-06-23T13:12:03.947Z</time>
      </trkpt>
      <trkpt lat="48.80469" lon="2.20703">
        <ele>174.404</ele>
        <time>2016-06-23T13:12:11.473Z</time>
      </trkpt>
      <trkpt lat="48.80475" lon="2.20714">
        <ele>174.318</ele>
        <time>2016-06-23T13:12:18.576Z</time>
      </trkpt>
      <trkpt lat="48.80481" lon="2.20725">
        <ele>174.206</ele>
        <time>2016-06-23T13:12:26.381Z</time>
      </trkpt>
      <trkpt lat="48.80488" lon="2.20734">
        <ele>174.112</ele>
        <time>2016-06-23T13:12:34.999Z</time>
      </trkpt>
      <trkpt lat="48.80497" lon="2.20739">
        <ele>174.094</ele>
        <time>2016-06-23T13:12:43.016Z</time>
      </trkpt>
      <trkpt lat="48.80504" lon="2.20749">
        <ele>174.194</ele>
        <time>2016-06-23T13:12:51.724Z</time>
      </trkpt>
      <trkpt lat="48.80511" lon="2.20758">
        <ele>174.379</ele>
        <time>2016-06-23T13:12:59.583Z</time>
      </trkpt>
      <trkpt lat="48.80519" lon="2.20764">
        <ele>174.42</ele>
        <time>2016-06-23T13:13:06.645Z</time>
      </trkpt>
      <trkpt lat="48.80528" lon="2.20773">
        <ele>174.188</ele>
        <time>2016-06-23T13:13:14.400Z</time>
      </trkpt>
      <trkpt lat="48.80536" lon="2.20779">
        <ele>173.895</ele>
        <time>2016-06-23T13:13:22.155Z</time>
      </trkpt>
      <trkpt lat="48.80544" lon="2.20788">
        <ele>173.797</ele>
        <time>2016-06-23T13:13:29.763Z</time>
      </trkpt>
      <trkpt lat="48.80552" lon="2.20795">
        <ele>173.892</ele>
        <time>2016-06-23T13:13:37.114Z</time>
      </trkpt>
      <trkpt lat="48.80559" lon="2.20803">
        <ele>174.009</ele>
        <time>2016-06-23T13:13:44.763Z</time>
      </trkpt>
      <trkpt lat="48.80568" lon="2.2081">
        <ele>174.022</ele>
        <time>2016-06-23T13:13:53.420Z</time>
      </trkpt>
      <trkpt lat="48.80574" lon="2.20821">
        <ele>173.977</ele>
        <time>2016-06-23T13:14:01.963Z</time>
      </trkpt>
      <trkpt lat="48.80582" lon="2.20829">
        <ele>173.948</ele>
        <time>2016-06-23T13:14:09.529Z</time>
      </trkpt>
      <trkpt lat="48.80588" lon="2.20839">
        <ele>173.951</ele>
        <time>2016-06-23T13:14:18.028Z</time>
      </trkpt>
      <trkpt lat="48.80596" lon="2.20848">
        <ele>173.995</ele>
        <time>2016-06-23T13:14:28.000Z</time>
      </trkpt>
      <trkpt lat="48.80596" lon="2.20848">
        <ele>174.075</ele>
        <time>2016-06-23T13:14:38.000Z</time>
      </trkpt>
      <trkpt lat="48.80596" lon="2.20848">
        <ele>174.106</ele>
        <time>2016-06-23T13:14:59.000Z</time>
      </trkpt>
      <trkpt lat="48.80596" lon="2.20848">
        <ele>174.032</ele>
        <time>2016-06-23T13:15:40.722Z</time>
      </trkpt>
      <trkpt lat="48.80586" lon="2.20855">
        <ele>173.885</ele>
        <time>2016-06-23T13:15:53.000Z</time>
      </trkpt>
      <trkpt lat="48.80586" lon="2.20855">
        <ele>173.883</ele>
        <time>2016-06-23T13:15:59.000Z</time>
      </trkpt>
      <trkpt lat="48.80586" lon="2.20855">
        <ele>173.864</ele>
        <time>2016-06-23T13:16:01.400Z</time>
      </trkpt>
      <trkpt lat="48.80575" lon="2.2086">
        <ele>173.714</ele>
        <time>2016-06-23T13:16:27.559Z</time>
      </trkpt>
      <trkpt lat="48.80566" lon="2.20865">
        <ele>173.83</ele>
        <time>2016-06-23T13:16:35.869Z</time>
      </trkpt>
      <trkpt lat="48.80556" lon="2.20865">
        <ele>174.228</ele>
        <time>2016-06-23T13:16:44.335Z</time>
      </trkpt>
      <trkpt lat="48.80547" lon="2.20869">
        <ele>174.665</ele>
        <time>2016-06-23T13:16:52.636Z</time>
      </trkpt>
      <trkpt lat="48.80539" lon="2.20876">
        <ele>174.904</ele>
        <time>2016-06-23T13:17:00.012Z</time>
      </trkpt>
      <trkpt lat="48.80528" lon="2.20879">
        <ele>174.963</ele>
        <time>2016-06-23T13:17:07.757Z</time>
      </trkpt>
      <trkpt lat="48.80519" lon="2.20884">
        <ele>174.931</ele>
        <time>2016-06-23T13:17:15.854Z</time>
      </trkpt>
      <trkpt lat="48.80511" lon="2.2089">
        <ele>174.883</ele>
        <time>2016-06-23T13:17:23.660Z</time>
      </trkpt>
      <trkpt lat="48.805" lon="2.2089">
        <ele>174.832</ele>
        <time>2016-06-23T13:17:31.304Z</time>
      </trkpt>
      <trkpt lat="48.80491" lon="2.20897">
        <ele>174.794</ele>
        <time>2016-06-23T13:17:38.795Z</time>
      </trkpt>
      <trkpt lat="48.80482" lon="2.209">
        <ele>174.807</ele>
        <time>2016-06-23T13:17:47.321Z</time>
      </trkpt>
      <trkpt lat="48.80474" lon="2.20908">
        <ele>174.869</ele>
        <time>2016-06-23T13:17:56.334Z</time>
      </trkpt>
      <trkpt lat="48.80466" lon="2.20917">
        <ele>174.942</ele>
        <time>2016-06-23T13:18:04.726Z</time>
      </trkpt>
      <trkpt lat="48.80456" lon="2.20922">
        <ele>175.001</ele>
        <time>2016-06-23T13:18:12.500Z</time>
      </trkpt>
      <trkpt lat="48.80446" lon="2.20924">
        <ele>175.038</ele>
        <time>2016-06-23T13:18:19.153Z</time>
      </trkpt>
      <trkpt lat="48.80436" lon="2.20923">
        <ele>175.091</ele>
        <time>2016-06-23T13:18:25.643Z</time>
      </trkpt>
      <trkpt lat="48.80427" lon="2.20929">
        <ele>175.188</ele>
        <time>2016-06-23T13:18:34.110Z</time>
      </trkpt>
      <trkpt lat="48.80418" lon="2.20936">
        <ele>175.299</ele>
        <time>2016-06-23T13:18:43.138Z</time>
      </trkpt>
      <trkpt lat="48.80409" lon="2.20939">
        <ele>175.372</ele>
        <time>2016-06-23T13:18:51.452Z</time>
      </trkpt>
      <trkpt lat="48.804" lon="2.20946">
        <ele>175.393</ele>
        <time>2016-06-23T13:19:00.058Z</time>
      </trkpt>
      <trkpt lat="48.8039" lon="2.2095">
        <ele>175.41</ele>
        <time>2016-06-23T13:19:07.986Z</time>
      </trkpt>
      <trkpt lat="48.80381" lon="2.20954">
        <ele>175.554</ele>
        <time>2016-06-23T13:19:13.644Z</time>
      </trkpt>
      <trkpt lat="48.80372" lon="2.20956">
        <ele>175.854</ele>
        <time>2016-06-23T13:19:19.054Z</time>
      </trkpt>
      <trkpt lat="48.80364" lon="2.20961">
        <ele>176.124</ele>
        <time>2016-06-23T13:19:25.576Z</time>
      </trkpt>
      <trkpt lat="48.80359" lon="2.20973">
        <ele>176.222</ele>
        <time>2016-06-23T13:19:33.266Z</time>
      </trkpt>
      <trkpt lat="48.80363" lon="2.20987">
        <ele>176.197</ele>
        <time>2016-06-23T13:19:40.408Z</time>
      </trkpt>
      <trkpt lat="48.80367" lon="2.21001">
        <ele>176.189</ele>
        <time>2016-06-23T13:19:46.949Z</time>
      </trkpt>
      <trkpt lat="48.80372" lon="2.21013">
        <ele>176.276</ele>
        <time>2016-06-23T13:19:54.345Z</time>
      </trkpt>
      <trkpt lat="48.80375" lon="2.21027">
        <ele>176.366</ele>
        <time>2016-06-23T13:20:02.304Z</time>
      </trkpt>
      <trkpt lat="48.80377" lon="2.21041">
        <ele>176.339</ele>
        <time>2016-06-23T13:20:10.294Z</time>
      </trkpt>
      <trkpt lat="48.8038" lon="2.21055">
        <ele>176.218</ele>
        <time>2016-06-23T13:20:18.027Z</time>
      </trkpt>
      <trkpt lat="48.80385" lon="2.21068">
        <ele>176.093</ele>
        <time>2016-06-23T13:20:25.791Z</time>
      </trkpt>
      <trkpt lat="48.80388" lon="2.21083">
        <ele>176.021</ele>
        <time>2016-06-23T13:20:33.256Z</time>
      </trkpt>
      <trkpt lat="48.80389" lon="2.21098">
        <ele>176.004</ele>
        <time>2016-06-23T13:20:40.305Z</time>
      </trkpt>
      <trkpt lat="48.80394" lon="2.21109">
        <ele>176.011</ele>
        <time>2016-06-23T13:20:47.615Z</time>
      </trkpt>
      <trkpt lat="48.80399" lon="2.21123">
        <ele>176.019</ele>
        <time>2016-06-23T13:20:55.961Z</time>
      </trkpt>
      <trkpt lat="48.80395" lon="2.21135">
        <ele>176.037</ele>
        <time>2016-06-23T13:21:04.460Z</time>
      </trkpt>
      <trkpt lat="48.80394" lon="2.2115">
        <ele>176.071</ele>
        <time>2016-06-23T13:21:12.211Z</time>
      </trkpt>
      <trkpt lat="48.80397" lon="2.21163">
        <ele>176.11</ele>
        <time>2016-06-23T13:21:18.542Z</time>
      </trkpt>
      <trkpt lat="48.80403" lon="2.21174">
        <ele>176.109</ele>
        <time>2016-06-23T13:21:25.132Z</time>
      </trkpt>
      <trkpt lat="48.80407" lon="2.21188">
        <ele>176.037</ele>
        <time>2016-06-23T13:21:33.804Z</time>
      </trkpt>
      <trkpt lat="48.80411" lon="2.212">
        <ele>175.938</ele>
        <time>2016-06-23T13:21:42.951Z</time>
      </trkpt>
      <trkpt lat="48.80416" lon="2.21212">
        <ele>175.902</ele>
        <time>2016-06-23T13:21:51.966Z</time>
      </trkpt>
      <trkpt lat="48.80418" lon="2.21226">
        <ele>175.948</ele>
        <time>2016-06-23T13:22:00.447Z</time>
      </trkpt>
      <trkpt lat="48.80421" lon="2.21239">
        <ele>175.974</ele>
        <time>2016-06-23T13:22:07.169Z</time>
      </trkpt>
      <trkpt lat="48.80422" lon="2.21256">
        <ele>175.879</ele>
        <time>2016-06-23T13:22:12.901Z</time>
      </trkpt>
      <trkpt lat="48.80421" lon="2.21269">
        <ele>175.691</ele>
        <time>2016-06-23T13:22:17.262Z</time>
      </trkpt>
      <trkpt lat="48.80421" lon="2.21285">
        <ele>175.422</ele>
        <time>2016-06-23T13:22:22.513Z</time>
      </trkpt>
      <trkpt lat="48.80416" lon="2.21298">
        <ele>175.052</ele>
        <time>2016-06-23T13:22:28.855Z</time>
      </trkpt>
      <trkpt lat="48.80416" lon="2.21312">
        <ele>174.689</ele>
        <time>2016-06-23T13:22:36.102Z</time>
      </trkpt>
      <trkpt lat="48.80421" lon="2.21324">
        <ele>174.405</ele>
        <time>2016-06-23T13:22:46.033Z</time>
      </trkpt>
      <trkpt lat="48.80422" lon="2.21338">
        <ele>173.987</ele>
        <time>2016-06-23T13:22:55.770Z</time>
      </trkpt>
      <trkpt lat="48.80424" lon="2.21352">
        <ele>173.239</ele>
        <time>2016-06-23T13:23:05.677Z</time>
      </trkpt>
      <trkpt lat="48.80433" lon="2.21354">
        <ele>172.392</ele>
        <time>2016-06-23T13:23:15.443Z</time>
      </trkpt>
      <trkpt lat="48.8044" lon="2.21366">
        <ele>171.84</ele>
        <time>2016-06-23T13:23:23.655Z</time>
      </trkpt>
      <trkpt lat="48.80443" lon="2.2138">
        <ele>171.665</ele>
        <time>2016-06-23T13:23:28.076Z</time>
      </trkpt>
      <trkpt lat="48.80445" lon="2.21394">
        <ele>171.701</ele>
        <time>2016-06-23T13:23:32.316Z</time>
      </trkpt>
      <trkpt lat="48.80445" lon="2.21409">
        <ele>171.832</ele>
        <time>2016-06-23T13:23:37.852Z</time>
      </trkpt>
      <trkpt lat="48.80451" lon="2.2142">
        <ele>172</ele>
        <time>2016-06-23T13:23:43.972Z</time>
      </trkpt>
      <trkpt lat="48.80456" lon="2.21432">
        <ele>172.208</ele>
        <time>2016-06-23T13:23:52.678Z</time>
      </trkpt>
      <trkpt lat="48.80461" lon="2.21445">
        <ele>172.53</ele>
        <time>2016-06-23T13:24:01.345Z</time>
      </trkpt>
      <trkpt lat="48.80468" lon="2.21455">
        <ele>172.981</ele>
        <time>2016-06-23T13:24:09.618Z</time>
      </trkpt>
      <trkpt lat="48.80476" lon="2.21462">
        <ele>173.503</ele>
        <time>2016-06-23T13:24:17.150Z</time>
      </trkpt>
      <trkpt lat="48.80479" lon="2.21475">
        <ele>174</ele>
        <time>2016-06-23T13:24:25.382Z</time>
      </trkpt>
      <trkpt lat="48.80479" lon="2.21489">
        <ele>174.303</ele>
        <time>2016-06-23T13:24:34.465Z</time>
      </trkpt>
      <trkpt lat="48.80481" lon="2.21503">
        <ele>174.349</ele>
        <time>2016-06-23T13:24:43.440Z</time>
      </trkpt>
      <trkpt lat="48.80487" lon="2.21515">
        <ele>174.236</ele>
        <time>2016-06-23T13:24:50.999Z</time>
      </trkpt>
      <trkpt lat="48.8049" lon="2.21529">
        <ele>174.051</ele>
        <time>2016-06-23T13:24:57.796Z</time>
      </trkpt>
      <trkpt lat="48.80496" lon="2.21541">
        <ele>173.81</ele>
        <time>2016-06-23T13:25:04.024Z</time>
      </trkpt>
      <trkpt lat="48.80502" lon="2.2155">
        <ele>173.565</ele>
        <time>2016-06-23T13:25:10.211Z</time>
      </trkpt>
      <trkpt lat="48.805" lon="2.21564">
        <ele>173.404</ele>
        <time>2016-06-23T13:25:17.518Z</time>
      </trkpt>
      <trkpt lat="48.805" lon="2.21578">
        <ele>173.309</ele>
        <time>2016-06-23T13:25:25.327Z</time>
      </trkpt>
      <trkpt lat="48.80505" lon="2.2159">
        <ele>173.203</ele>
        <time>2016-06-23T13:25:33.411Z</time>
      </trkpt>
      <trkpt lat="48.80511" lon="2.216">
        <ele>173.1</ele>
        <time>2016-06-23T13:25:40.652Z</time>
      </trkpt>
      <trkpt lat="48.80516" lon="2.21612">
        <ele>173.035</ele>
        <time>2016-06-23T13:25:46.884Z</time>
      </trkpt>
      <trkpt lat="48.80521" lon="2.21625">
        <ele>172.987</ele>
        <time>2016-06-23T13:25:52.742Z</time>
      </trkpt>
      <trkpt lat="48.80524" lon="2.2164">
        <ele>172.921</ele>
        <time>2016-06-23T13:25:59.349Z</time>
      </trkpt>
      <trkpt lat="48.80525" lon="2.21655">
        <ele>172.849</ele>
        <time>2016-06-23T13:26:06.661Z</time>
      </trkpt>
      <trkpt lat="48.80529" lon="2.21668">
        <ele>172.807</ele>
        <time>2016-06-23T13:26:16.791Z</time>
      </trkpt>
      <trkpt lat="48.80531" lon="2.21683">
        <ele>172.782</ele>
        <time>2016-06-23T13:26:27.319Z</time>
      </trkpt>
      <trkpt lat="48.80537" lon="2.21694">
        <ele>172.695</ele>
        <time>2016-06-23T13:26:37.999Z</time>
      </trkpt>
      <trkpt lat="48.80537" lon="2.21694">
        <ele>172.52</ele>
        <time>2016-06-23T13:26:48.999Z</time>
      </trkpt>
      <trkpt lat="48.80537" lon="2.21694">
        <ele>172.358</ele>
        <time>2016-06-23T13:26:49.099Z</time>
      </trkpt>
      <trkpt lat="48.80549" lon="2.21702">
        <ele>172.29</ele>
        <time>2016-06-23T13:27:15.851Z</time>
      </trkpt>
      <trkpt lat="48.80558" lon="2.21701">
        <ele>172.17</ele>
        <time>2016-06-23T13:27:26.034Z</time>
      </trkpt>
      <trkpt lat="48.80566" lon="2.21693">
        <ele>171.852</ele>
        <time>2016-06-23T13:27:35.561Z</time>
      </trkpt>
      <trkpt lat="48.80575" lon="2.21688">
        <ele>171.435</ele>
        <time>2016-06-23T13:27:44.434Z</time>
      </trkpt>
      <trkpt lat="48.80584" lon="2.21682">
        <ele>171.069</ele>
        <time>2016-06-23T13:27:52.816Z</time>
      </trkpt>
      <trkpt lat="48.80593" lon="2.2168">
        <ele>170.791</ele>
        <time>2016-06-23T13:28:01.932Z</time>
      </trkpt>
      <trkpt lat="48.80602" lon="2.21676">
        <ele>170.615</ele>
        <time>2016-06-23T13:28:11.678Z</time>
      </trkpt>
      <trkpt lat="48.80611" lon="2.21675">
        <ele>170.516</ele>
        <time>2016-06-23T13:28:20.252Z</time>
      </trkpt>
      <trkpt lat="48.80619" lon="2.21668">
        <ele>170.421</ele>
        <time>2016-06-23T13:28:28.274Z</time>
      </trkpt>
      <trkpt lat="48.80627" lon="2.2166">
        <ele>170.291</ele>
        <time>2016-06-23T13:28:36.910Z</time>
      </trkpt>
      <trkpt lat="48.80636" lon="2.21655">
        <ele>170.146</ele>
        <time>2016-06-23T13:28:46.473Z</time>
      </trkpt>
      <trkpt lat="48.80644" lon="2.21647">
        <ele>170.023</ele>
        <time>2016-06-23T13:28:55.999Z</time>
      </trkpt>
      <trkpt lat="48.80644" lon="2.21647">
        <ele>169.938</ele>
        <time>2016-06-23T13:28:57.999Z</time>
      </trkpt>
      <trkpt lat="48.80644" lon="2.21647">
        <ele>169.888</ele>
        <time>2016-06-23T13:29:01.430Z</time>
      </trkpt>
      <trkpt lat="48.80653" lon="2.21641">
        <ele>169.84</ele>
        <time>2016-06-23T13:29:14.428Z</time>
      </trkpt>
      <trkpt lat="48.80663" lon="2.21637">
        <ele>169.767</ele>
        <time>2016-06-23T13:29:24.316Z</time>
      </trkpt>
      <trkpt lat="48.80671" lon="2.21633">
        <ele>169.638</ele>
        <time>2016-06-23T13:29:33.837Z</time>
      </trkpt>
      <trkpt lat="48.8068" lon="2.21626">
        <ele>169.456</ele>
        <time>2016-06-23T13:29:42.039Z</time>
      </trkpt>
      <trkpt lat="48.80688" lon="2.21621">
        <ele>169.28</ele>
        <time>2016-06-23T13:29:49.834Z</time>
      </trkpt>
      <trkpt lat="48.80698" lon="2.21617">
        <ele>169.148</ele>
        <time>2016-06-23T13:29:58.985Z</time>
      </trkpt>
      <trkpt lat="48.80708" lon="2.21614">
        <ele>169.058</ele>
        <time>2016-06-23T13:30:09.019Z</time>
      </trkpt>
      <trkpt lat="48.80716" lon="2.21606">
        <ele>169.049</ele>
        <time>2016-06-23T13:30:17.999Z</time>
      </trkpt>
      <trkpt lat="48.80716" lon="2.21606">
        <ele>169.128</ele>
        <time>2016-06-23T13:30:25.999Z</time>
      </trkpt>
      <trkpt lat="48.80716" lon="2.21606">
        <ele>169.177</ele>
        <time>2016-06-23T13:30:26.099Z</time>
      </trkpt>
      <trkpt lat="48.80732" lon="2.21591">
        <ele>169.107</ele>
        <time>2016-06-23T13:31:05.326Z</time>
      </trkpt>
      <trkpt lat="48.80741" lon="2.21586">
        <ele>169.038</ele>
        <time>2016-06-23T13:31:16.329Z</time>
      </trkpt>
      <trkpt lat="48.8075" lon="2.21582">
        <ele>169.087</ele>
        <time>2016-06-23T13:31:25.374Z</time>
      </trkpt>
      <trkpt lat="48.80758" lon="2.21587">
        <ele>169.158</ele>
        <time>2016-06-23T13:31:31.452Z</time>
      </trkpt>
      <trkpt lat="48.80766" lon="2.21595">
        <ele>169.104</ele>
        <time>2016-06-23T13:31:37.485Z</time>
      </trkpt>
      <trkpt lat="48.8077" lon="2.21609">
        <ele>168.94</ele>
        <time>2016-06-23T13:31:43.862Z</time>
      </trkpt>
      <trkpt lat="48.80769" lon="2.21624">
        <ele>168.745</ele>
        <time>2016-06-23T13:31:50.607Z</time>
      </trkpt>
      <trkpt lat="48.80772" lon="2.21638">
        <ele>168.555</ele>
        <time>2016-06-23T13:31:56.999Z</time>
      </trkpt>
      <trkpt lat="48.80772" lon="2.21638">
        <ele>168.41</ele>
        <time>2016-06-23T13:32:09.999Z</time>
      </trkpt>
      <trkpt lat="48.80772" lon="2.21638">
        <ele>168.336</ele>
        <time>2016-06-23T13:32:54.999Z</time>
      </trkpt>
      <trkpt lat="48.80772" lon="2.21638">
        <ele>168.292</ele>
        <time>2016-06-23T13:34:52.450Z</time>
      </trkpt>
      <trkpt lat="48.80794" lon="2.2163">
        <ele>168.241</ele>
        <time>2016-06-23T13:35:24.595Z</time>
      </trkpt>
      <trkpt lat="48.80801" lon="2.21621">
        <ele>167.924</ele>
        <time>2016-06-23T13:35:32.566Z</time>
      </trkpt>
      <trkpt lat="48.80808" lon="2.21611">
        <ele>167.208</ele>
        <time>2016-06-23T13:35:41.289Z</time>
      </trkpt>
      <trkpt lat="48.80815" lon="2.21602">
        <ele>166.555</ele>
        <time>2016-06-23T13:35:48.925Z</time>
      </trkpt>
      <trkpt lat="48.80824" lon="2.21594">
        <ele>166.369</ele>
        <time>2016-06-23T13:35:57.394Z</time>
      </trkpt>
      <trkpt lat="48.8083" lon="2.21583">
        <ele>166.464</ele>
        <time>2016-06-23T13:36:04.555Z</time>
      </trkpt>
      <trkpt lat="48.80835" lon="2.2157">
        <ele>166.572</ele>
        <time>2016-06-23T13:36:12.665Z</time>
      </trkpt>
      <trkpt lat="48.80841" lon="2.21559">
        <ele>166.599</ele>
        <time>2016-06-23T13:36:20.897Z</time>
      </trkpt>
      <trkpt lat="48.80849" lon="2.2155">
        <ele>166.539</ele>
        <time>2016-06-23T13:36:28.959Z</time>
      </trkpt>
      <trkpt lat="48.80857" lon="2.21541">
        <ele>166.42</ele>
        <time>2016-06-23T13:36:36.624Z</time>
      </trkpt>
      <trkpt lat="48.80864" lon="2.21531">
        <ele>166.291</ele>
        <time>2016-06-23T13:36:43.458Z</time>
      </trkpt>
      <trkpt lat="48.8087" lon="2.2152">
        <ele>166.185</ele>
        <time>2016-06-23T13:36:52.414Z</time>
      </trkpt>
      <trkpt lat="48.80877" lon="2.21509">
        <ele>166.122</ele>
        <time>2016-06-23T13:37:00.603Z</time>
      </trkpt>
      <trkpt lat="48.80883" lon="2.21498">
        <ele>166.133</ele>
        <time>2016-06-23T13:37:07.810Z</time>
      </trkpt>
      <trkpt lat="48.8089" lon="2.21488">
        <ele>166.204</ele>
        <time>2016-06-23T13:37:13.169Z</time>
      </trkpt>
      <trkpt lat="48.80897" lon="2.2148">
        <ele>166.297</ele>
        <time>2016-06-23T13:37:17.935Z</time>
      </trkpt>
      <trkpt lat="48.80907" lon="2.21474">
        <ele>166.464</ele>
        <time>2016-06-23T13:37:23.516Z</time>
      </trkpt>
      <trkpt lat="48.80913" lon="2.21463">
        <ele>166.789</ele>
        <time>2016-06-23T13:37:33.376Z</time>
      </trkpt>
      <trkpt lat="48.80919" lon="2.21452">
        <ele>167.208</ele>
        <time>2016-06-23T13:37:43.705Z</time>
      </trkpt>
      <trkpt lat="48.80929" lon="2.21448">
        <ele>167.55</ele>
        <time>2016-06-23T13:37:54.839Z</time>
      </trkpt>
      <trkpt lat="48.80938" lon="2.21451">
        <ele>167.719</ele>
        <time>2016-06-23T13:38:03.388Z</time>
      </trkpt>
      <trkpt lat="48.80946" lon="2.21458">
        <ele>167.747</ele>
        <time>2016-06-23T13:38:11.317Z</time>
      </trkpt>
      <trkpt lat="48.80954" lon="2.21467">
        <ele>167.722</ele>
        <time>2016-06-23T13:38:19.814Z</time>
      </trkpt>
      <trkpt lat="48.80963" lon="2.21472">
        <ele>167.711</ele>
        <time>2016-06-23T13:38:28.029Z</time>
      </trkpt>
      <trkpt lat="48.80971" lon="2.21479">
        <ele>167.733</ele>
        <time>2016-06-23T13:38:35.423Z</time>
      </trkpt>
      <trkpt lat="48.80979" lon="2.21489">
        <ele>167.762</ele>
        <time>2016-06-23T13:38:42.656Z</time>
      </trkpt>
      <trkpt lat="48.80988" lon="2.21498">
        <ele>167.751</ele>
        <time>2016-06-23T13:38:50.132Z</time>
      </trkpt>
      <trkpt lat="48.80994" lon="2.21509">
        <ele>167.681</ele>
        <time>2016-06-23T13:38:57.795Z</time>
      </trkpt>
      <trkpt lat="48.81001" lon="2.21517">
        <ele>167.598</ele>
        <time>2016-06-23T13:39:05.450Z</time>
      </trkpt>
      <trkpt lat="48.8101" lon="2.21526">
        <ele>167.551</ele>
        <time>2016-06-23T13:39:13.537Z</time>
      </trkpt>
      <trkpt lat="48.81016" lon="2.21537">
        <ele>167.544</ele>
        <time>2016-06-23T13:39:22.178Z</time>
      </trkpt>
      <trkpt lat="48.8102" lon="2.2155">
        <ele>167.55</ele>
        <time>2016-06-23T13:39:31.141Z</time>
      </trkpt>
      <trkpt lat="48.81025" lon="2.21562">
        <ele>167.335</ele>
        <time>2016-06-23T13:39:40.331Z</time>
      </trkpt>
      <trkpt lat="48.81029" lon="2.21574">
        <ele>166.636</ele>
        <time>2016-06-23T13:39:48.175Z</time>
      </trkpt>
      <trkpt lat="48.81033" lon="2.21588">
        <ele>165.651</ele>
        <time>2016-06-23T13:39:56.387Z</time>
      </trkpt>
      <trkpt lat="48.81037" lon="2.21601">
        <ele>164.836</ele>
        <time>2016-06-23T13:40:03.946Z</time>
      </trkpt>
      <trkpt lat="48.81042" lon="2.21614">
        <ele>164.375</ele>
        <time>2016-06-23T13:40:11.843Z</time>
      </trkpt>
      <trkpt lat="48.81046" lon="2.21627">
        <ele>164.207</ele>
        <time>2016-06-23T13:40:19.651Z</time>
      </trkpt>
      <trkpt lat="48.81048" lon="2.2164">
        <ele>164.142</ele>
        <time>2016-06-23T13:40:27.494Z</time>
      </trkpt>
      <trkpt lat="48.81053" lon="2.21652">
        <ele>163.914</ele>
        <time>2016-06-23T13:40:35.605Z</time>
      </trkpt>
      <trkpt lat="48.81057" lon="2.21664">
        <ele>163.456</ele>
        <time>2016-06-23T13:40:43.460Z</time>
      </trkpt>
      <trkpt lat="48.81061" lon="2.21678">
        <ele>162.913</ele>
        <time>2016-06-23T13:40:50.734Z</time>
      </trkpt>
      <trkpt lat="48.81066" lon="2.2169">
        <ele>162.403</ele>
        <time>2016-06-23T13:40:57.087Z</time>
      </trkpt>
      <trkpt lat="48.81069" lon="2.21703">
        <ele>161.961</ele>
        <time>2016-06-23T13:41:03.485Z</time>
      </trkpt>
      <trkpt lat="48.81074" lon="2.21715">
        <ele>161.601</ele>
        <time>2016-06-23T13:41:10.721Z</time>
      </trkpt>
      <trkpt lat="48.81079" lon="2.21728">
        <ele>161.208</ele>
        <time>2016-06-23T13:41:18.615Z</time>
      </trkpt>
      <trkpt lat="48.81079" lon="2.21742">
        <ele>160.635</ele>
        <time>2016-06-23T13:41:25.986Z</time>
      </trkpt>
      <trkpt lat="48.81083" lon="2.21756">
        <ele>159.958</ele>
        <time>2016-06-23T13:41:33.776Z</time>
      </trkpt>
      <trkpt lat="48.81086" lon="2.21771">
        <ele>159.227</ele>
        <time>2016-06-23T13:41:41.101Z</time>
      </trkpt>
      <trkpt lat="48.8109" lon="2.21784">
        <ele>158.302</ele>
        <time>2016-06-23T13:41:47.294Z</time>
      </trkpt>
      <trkpt lat="48.81094" lon="2.21797">
        <ele>157.279</ele>
        <time>2016-06-23T13:41:53.795Z</time>
      </trkpt>
      <trkpt lat="48.81095" lon="2.21811">
        <ele>156.317</ele>
        <time>2016-06-23T13:42:03.575Z</time>
      </trkpt>
      <trkpt lat="48.81101" lon="2.21823">
        <ele>155.343</ele>
        <time>2016-06-23T13:42:15.226Z</time>
      </trkpt>
      <trkpt lat="48.81106" lon="2.21835">
        <ele>154.292</ele>
        <time>2016-06-23T13:42:25.000Z</time>
      </trkpt>
      <trkpt lat="48.81106" lon="2.21835">
        <ele>153.324</ele>
        <time>2016-06-23T13:42:33.000Z</time>
      </trkpt>
      <trkpt lat="48.81106" lon="2.21835">
        <ele>152.778</ele>
        <time>2016-06-23T13:42:46.133Z</time>
      </trkpt>
      <trkpt lat="48.81105" lon="2.21851">
        <ele>152.757</ele>
        <time>2016-06-23T13:43:07.716Z</time>
      </trkpt>
      <trkpt lat="48.81101" lon="2.21864">
        <ele>152.707</ele>
        <time>2016-06-23T13:43:22.184Z</time>
      </trkpt>
      <trkpt lat="48.81095" lon="2.21877">
        <ele>152.208</ele>
        <time>2016-06-23T13:43:35.875Z</time>
      </trkpt>
      <trkpt lat="48.81088" lon="2.21886">
        <ele>151.869</ele>
        <time>2016-06-23T13:43:45.459Z</time>
      </trkpt>
      <trkpt lat="48.81081" lon="2.21897">
        <ele>152.455</ele>
        <time>2016-06-23T13:43:53.975Z</time>
      </trkpt>
      <trkpt lat="48.81075" lon="2.21907">
        <ele>153.747</ele>
        <time>2016-06-23T13:44:02.812Z</time>
      </trkpt>
      <trkpt lat="48.81067" lon="2.21914">
        <ele>155.218</ele>
        <time>2016-06-23T13:44:13.107Z</time>
      </trkpt>
      <trkpt lat="48.81061" lon="2.21926">
        <ele>156.754</ele>
        <time>2016-06-23T13:44:22.053Z</time>
      </trkpt>
      <trkpt lat="48.81057" lon="2.2194">
        <ele>158.18</ele>
        <time>2016-06-23T13:44:29.694Z</time>
      </trkpt>
      <trkpt lat="48.8105" lon="2.2195">
        <ele>159.1</ele>
        <time>2016-06-23T13:44:38.115Z</time>
      </trkpt>
      <trkpt lat="48.81045" lon="2.21962">
        <ele>159.42</ele>
        <time>2016-06-23T13:44:48.821Z</time>
      </trkpt>
      <trkpt lat="48.81039" lon="2.21972">
        <ele>159.156</ele>
        <time>2016-06-23T13:45:01.780Z</time>
      </trkpt>
      <trkpt lat="48.81032" lon="2.21983">
        <ele>158.193</ele>
        <time>2016-06-23T13:45:10.132Z</time>
      </trkpt>
      <trkpt lat="48.81026" lon="2.21996">
        <ele>156.688</ele>
        <time>2016-06-23T13:45:19.566Z</time>
      </trkpt>
      <trkpt lat="48.8102" lon="2.22007">
        <ele>155.19</ele>
        <time>2016-06-23T13:45:28.839Z</time>
      </trkpt>
      <trkpt lat="48.81013" lon="2.22016">
        <ele>154.213</ele>
        <time>2016-06-23T13:45:40.456Z</time>
      </trkpt>
      <trkpt lat="48.81006" lon="2.22028">
        <ele>154.051</ele>
        <time>2016-06-23T13:45:53.177Z</time>
      </trkpt>
      <trkpt lat="48.81" lon="2.22039">
        <ele>154.751</ele>
        <time>2016-06-23T13:46:03.367Z</time>
      </trkpt>
      <trkpt lat="48.80995" lon="2.2205">
        <ele>155.922</ele>
        <time>2016-06-23T13:46:12.757Z</time>
      </trkpt>
      <trkpt lat="48.80989" lon="2.22062">
        <ele>157.002</ele>
        <time>2016-06-23T13:46:22.805Z</time>
      </trkpt>
      <trkpt lat="48.80985" lon="2.22074">
        <ele>157.773</ele>
        <time>2016-06-23T13:46:32.639Z</time>
      </trkpt>
      <trkpt lat="48.80976" lon="2.22084">
        <ele>158.255</ele>
        <time>2016-06-23T13:46:42.126Z</time>
      </trkpt>
      <trkpt lat="48.8097" lon="2.22095">
        <ele>158.616</ele>
        <time>2016-06-23T13:46:50.692Z</time>
      </trkpt>
      <trkpt lat="48.80964" lon="2.22105">
        <ele>159.015</ele>
        <time>2016-06-23T13:46:59.245Z</time>
      </trkpt>
      <trkpt lat="48.8096" lon="2.22119">
        <ele>159.486</ele>
        <time>2016-06-23T13:47:11.047Z</time>
      </trkpt>
      <trkpt lat="48.80952" lon="2.22128">
        <ele>160.091</ele>
        <time>2016-06-23T13:47:20.808Z</time>
      </trkpt>
      <trkpt lat="48.80946" lon="2.22139">
        <ele>160.862</ele>
        <time>2016-06-23T13:47:30.029Z</time>
      </trkpt>
      <trkpt lat="48.80939" lon="2.22149">
        <ele>161.731</ele>
        <time>2016-06-23T13:47:39.752Z</time>
      </trkpt>
      <trkpt lat="48.80933" lon="2.22159">
        <ele>162.689</ele>
        <time>2016-06-23T13:47:49.323Z</time>
      </trkpt>
      <trkpt lat="48.80928" lon="2.22171">
        <ele>163.631</ele>
        <time>2016-06-23T13:47:58.555Z</time>
      </trkpt>
      <trkpt lat="48.80922" lon="2.22184">
        <ele>164.393</ele>
        <time>2016-06-23T13:48:06.715Z</time>
      </trkpt>
      <trkpt lat="48.80915" lon="2.22193">
        <ele>164.949</ele>
        <time>2016-06-23T13:48:14.082Z</time>
      </trkpt>
      <trkpt lat="48.8091" lon="2.22206">
        <ele>165.342</ele>
        <time>2016-06-23T13:48:22.416Z</time>
      </trkpt>
      <trkpt lat="48.80906" lon="2.22219">
        <ele>165.592</ele>
        <time>2016-06-23T13:48:32.000Z</time>
      </trkpt>
      <trkpt lat="48.80906" lon="2.22219">
        <ele>165.755</ele>
        <time>2016-06-23T13:48:44.000Z</time>
      </trkpt>
      <trkpt lat="48.80906" lon="2.22219">
        <ele>165.806</ele>
        <time>2016-06-23T13:48:57.845Z</time>
      </trkpt>
      <trkpt lat="48.80897" lon="2.22246">
        <ele>165.729</ele>
        <time>2016-06-23T13:49:26.627Z</time>
      </trkpt>
      <trkpt lat="48.8089" lon="2.22256">
        <ele>165.802</ele>
        <time>2016-06-23T13:49:35.699Z</time>
      </trkpt>
      <trkpt lat="48.80882" lon="2.22264">
        <ele>166.262</ele>
        <time>2016-06-23T13:49:44.831Z</time>
      </trkpt>
      <trkpt lat="48.80874" lon="2.22273">
        <ele>166.866</ele>
        <time>2016-06-23T13:49:52.962Z</time>
      </trkpt>
      <trkpt lat="48.80867" lon="2.22281">
        <ele>167.302</ele>
        <time>2016-06-23T13:50:00.111Z</time>
      </trkpt>
      <trkpt lat="48.80862" lon="2.22293">
        <ele>167.575</ele>
        <time>2016-06-23T13:50:07.097Z</time>
      </trkpt>
      <trkpt lat="48.80857" lon="2.22306">
        <ele>167.741</ele>
        <time>2016-06-23T13:50:14.773Z</time>
      </trkpt>
      <trkpt lat="48.80853" lon="2.22318">
        <ele>167.811</ele>
        <time>2016-06-23T13:50:22.005Z</time>
      </trkpt>
      <trkpt lat="48.80846" lon="2.22328">
        <ele>167.872</ele>
        <time>2016-06-23T13:50:29.083Z</time>
      </trkpt>
      <trkpt lat="48.8084" lon="2.2234">
        <ele>168.028</ele>
        <time>2016-06-23T13:50:36.212Z</time>
      </trkpt>
      <trkpt lat="48.80834" lon="2.22352">
        <ele>168.235</ele>
        <time>2016-06-23T13:50:43.588Z</time>
      </trkpt>
      <trkpt lat="48.80826" lon="2.22361">
        <ele>168.381</ele>
        <time>2016-06-23T13:50:52.000Z</time>
      </trkpt>
      <trkpt lat="48.80826" lon="2.22361">
        <ele>168.425</ele>
        <time>2016-06-23T13:51:00.000Z</time>
      </trkpt>
      <trkpt lat="48.80826" lon="2.22361">
        <ele>168.381</ele>
        <time>2016-06-23T13:51:00.100Z</time>
      </trkpt>
      <trkpt lat="48.80821" lon="2.22384">
        <ele>168.298</ele>
        <time>2016-06-23T13:51:24.798Z</time>
      </trkpt>
      <trkpt lat="48.80814" lon="2.22395">
        <ele>168.281</ele>
        <time>2016-06-23T13:51:35.011Z</time>
      </trkpt>
      <trkpt lat="48.80809" lon="2.22408">
        <ele>168.385</ele>
        <time>2016-06-23T13:51:44.349Z</time>
      </trkpt>
      <trkpt lat="48.80804" lon="2.22421">
        <ele>168.547</ele>
        <time>2016-06-23T13:51:52.650Z</time>
      </trkpt>
      <trkpt lat="48.80797" lon="2.22429">
        <ele>168.69</ele>
        <time>2016-06-23T13:51:59.605Z</time>
      </trkpt>
      <trkpt lat="48.80792" lon="2.2244">
        <ele>168.795</ele>
        <time>2016-06-23T13:52:06.480Z</time>
      </trkpt>
      <trkpt lat="48.80784" lon="2.22449">
        <ele>168.863</ele>
        <time>2016-06-23T13:52:14.620Z</time>
      </trkpt>
      <trkpt lat="48.80775" lon="2.22456">
        <ele>168.887</ele>
        <time>2016-06-23T13:52:22.429Z</time>
      </trkpt>
      <trkpt lat="48.80768" lon="2.22467">
        <ele>168.874</ele>
        <time>2016-06-23T13:52:30.450Z</time>
      </trkpt>
      <trkpt lat="48.80762" lon="2.22479">
        <ele>168.844</ele>
        <time>2016-06-23T13:52:38.412Z</time>
      </trkpt>
      <trkpt lat="48.80757" lon="2.22491">
        <ele>168.824</ele>
        <time>2016-06-23T13:52:45.965Z</time>
      </trkpt>
      <trkpt lat="48.80751" lon="2.22504">
        <ele>168.815</ele>
        <time>2016-06-23T13:52:54.206Z</time>
      </trkpt>
      <trkpt lat="48.80745" lon="2.22514">
        <ele>168.82</ele>
        <time>2016-06-23T13:53:02.021Z</time>
      </trkpt>
      <trkpt lat="48.80739" lon="2.22525">
        <ele>168.85</ele>
        <time>2016-06-23T13:53:09.817Z</time>
      </trkpt>
      <trkpt lat="48.80733" lon="2.22536">
        <ele>168.896</ele>
        <time>2016-06-23T13:53:18.268Z</time>
      </trkpt>
      <trkpt lat="48.80727" lon="2.22548">
        <ele>168.941</ele>
        <time>2016-06-23T13:53:26.535Z</time>
      </trkpt>
      <trkpt lat="48.80721" lon="2.2256">
        <ele>169.029</ele>
        <time>2016-06-23T13:53:35.404Z</time>
      </trkpt>
      <trkpt lat="48.80717" lon="2.22574">
        <ele>169.2</ele>
        <time>2016-06-23T13:53:44.437Z</time>
      </trkpt>
      <trkpt lat="48.8071" lon="2.22583">
        <ele>169.407</ele>
        <time>2016-06-23T13:53:53.562Z</time>
      </trkpt>
      <trkpt lat="48.80705" lon="2.22595">
        <ele>169.536</ele>
        <time>2016-06-23T13:54:01.696Z</time>
      </trkpt>
      <trkpt lat="48.80698" lon="2.22605">
        <ele>169.549</ele>
        <time>2016-06-23T13:54:09.088Z</time>
      </trkpt>
      <trkpt lat="48.80693" lon="2.22616">
        <ele>169.529</ele>
        <time>2016-06-23T13:54:17.115Z</time>
      </trkpt>
      <trkpt lat="48.80686" lon="2.22626">
        <ele>169.555</ele>
        <time>2016-06-23T13:54:26.477Z</time>
      </trkpt>
      <trkpt lat="48.80681" lon="2.22639">
        <ele>169.613</ele>
        <time>2016-06-23T13:54:36.386Z</time>
      </trkpt>
      <trkpt lat="48.80687" lon="2.22649">
        <ele>169.697</ele>
        <time>2016-06-23T13:54:46.041Z</time>
      </trkpt>
      <trkpt lat="48.80695" lon="2.22657">
        <ele>169.719</ele>
        <time>2016-06-23T13:54:55.903Z</time>
      </trkpt>
      <trkpt lat="48.80702" lon="2.22667">
        <ele>169.868</ele>
        <time>2016-06-23T13:55:05.520Z</time>
      </trkpt>
      <trkpt lat="48.80711" lon="2.22668">
        <ele>170.104</ele>
        <time>2016-06-23T13:55:16.550Z</time>
      </trkpt>
      <trkpt lat="48.8072" lon="2.22676">
        <ele>170.278</ele>
        <time>2016-06-23T13:55:27.170Z</time>
      </trkpt>
      <trkpt lat="48.80728" lon="2.22683">
        <ele>170.354</ele>
        <time>2016-06-23T13:55:37.806Z</time>
      </trkpt>
      <trkpt lat="48.80738" lon="2.22684">
        <ele>170.312</ele>
        <time>2016-06-23T13:55:48.258Z</time>
      </trkpt>
      <trkpt lat="48.80748" lon="2.22684">
        <ele>170.173</ele>
        <time>2016-06-23T13:55:57.825Z</time>
      </trkpt>
      <trkpt lat="48.80756" lon="2.22692">
        <ele>170.04</ele>
        <time>2016-06-23T13:56:07.198Z</time>
      </trkpt>
      <trkpt lat="48.80763" lon="2.22702">
        <ele>169.987</ele>
        <time>2016-06-23T13:56:15.878Z</time>
      </trkpt>
      <trkpt lat="48.80773" lon="2.22705">
        <ele>170.029</ele>
        <time>2016-06-23T13:56:23.812Z</time>
      </trkpt>
      <trkpt lat="48.80783" lon="2.22705">
        <ele>170.148</ele>
        <time>2016-06-23T13:56:31.446Z</time>
      </trkpt>
      <trkpt lat="48.80792" lon="2.22707">
        <ele>170.23</ele>
        <time>2016-06-23T13:56:38.795Z</time>
      </trkpt>
      <trkpt lat="48.80801" lon="2.2271">
        <ele>170.193</ele>
        <time>2016-06-23T13:56:46.566Z</time>
      </trkpt>
      <trkpt lat="48.8081" lon="2.22713">
        <ele>170.091</ele>
        <time>2016-06-23T13:56:54.870Z</time>
      </trkpt>
      <trkpt lat="48.80819" lon="2.22715">
        <ele>169.935</ele>
        <time>2016-06-23T13:57:03.428Z</time>
      </trkpt>
      <trkpt lat="48.80828" lon="2.22713">
        <ele>169.7</ele>
        <time>2016-06-23T13:57:12.969Z</time>
      </trkpt>
      <trkpt lat="48.80838" lon="2.22717">
        <ele>169.445</ele>
        <time>2016-06-23T13:57:23.991Z</time>
      </trkpt>
      <trkpt lat="48.80847" lon="2.22717">
        <ele>169.258</ele>
        <time>2016-06-23T13:57:38.000Z</time>
      </trkpt>
      <trkpt lat="48.80847" lon="2.22717">
        <ele>169.164</ele>
        <time>2016-06-23T13:57:48.000Z</time>
      </trkpt>
      <trkpt lat="48.80847" lon="2.22717">
        <ele>169.131</ele>
        <time>2016-06-23T13:57:48.100Z</time>
      </trkpt>
      <trkpt lat="48.80871" lon="2.2272">
        <ele>169.102</ele>
        <time>2016-06-23T13:58:28.429Z</time>
      </trkpt>
      <trkpt lat="48.80878" lon="2.2273">
        <ele>169.083</ele>
        <time>2016-06-23T13:58:36.527Z</time>
      </trkpt>
      <trkpt lat="48.80887" lon="2.22735">
        <ele>169.095</ele>
        <time>2016-06-23T13:58:45.308Z</time>
      </trkpt>
      <trkpt lat="48.80895" lon="2.22743">
        <ele>169.036</ele>
        <time>2016-06-23T13:58:53.351Z</time>
      </trkpt>
      <trkpt lat="48.80904" lon="2.22746">
        <ele>168.747</ele>
        <time>2016-06-23T13:59:00.764Z</time>
      </trkpt>
      <trkpt lat="48.80913" lon="2.22749">
        <ele>168.304</ele>
        <time>2016-06-23T13:59:08.000Z</time>
      </trkpt>
      <trkpt lat="48.80913" lon="2.22749">
        <ele>167.984</ele>
        <time>2016-06-23T13:59:14.000Z</time>
      </trkpt>
      <trkpt lat="48.80913" lon="2.22749">
        <ele>167.902</ele>
        <time>2016-06-23T13:59:16.826Z</time>
      </trkpt>
      <trkpt lat="48.8093" lon="2.22751">
        <ele>167.915</ele>
        <time>2016-06-23T14:00:22.592Z</time>
      </trkpt>
      <trkpt lat="48.80939" lon="2.22754">
        <ele>167.859</ele>
        <time>2016-06-23T14:00:32.266Z</time>
      </trkpt>
      <trkpt lat="48.80947" lon="2.22762">
        <ele>167.73</ele>
        <time>2016-06-23T14:00:39.922Z</time>
      </trkpt>
      <trkpt lat="48.80956" lon="2.22768">
        <ele>167.606</ele>
        <time>2016-06-23T14:00:47.412Z</time>
      </trkpt>
      <trkpt lat="48.80966" lon="2.22767">
        <ele>167.508</ele>
        <time>2016-06-23T14:00:54.391Z</time>
      </trkpt>
      <trkpt lat="48.80975" lon="2.2277">
        <ele>167.43</ele>
        <time>2016-06-23T14:01:01.646Z</time>
      </trkpt>
      <trkpt lat="48.80984" lon="2.22773">
        <ele>167.408</ele>
        <time>2016-06-23T14:01:09.160Z</time>
      </trkpt>
      <trkpt lat="48.80993" lon="2.22776">
        <ele>167.457</ele>
        <time>2016-06-23T14:01:16.509Z</time>
      </trkpt>
      <trkpt lat="48.81002" lon="2.22779">
        <ele>167.54</ele>
        <time>2016-06-23T14:01:25.507Z</time>
      </trkpt>
      <trkpt lat="48.81002" lon="2.22793">
        <ele>167.622</ele>
        <time>2016-06-23T14:01:36.000Z</time>
      </trkpt>
      <trkpt lat="48.81002" lon="2.22793">
        <ele>167.698</ele>
        <time>2016-06-23T14:01:42.000Z</time>
      </trkpt>
      <trkpt lat="48.81002" lon="2.22793">
        <ele>167.714</ele>
        <time>2016-06-23T14:01:42.100Z</time>
      </trkpt>
      <trkpt lat="48.81007" lon="2.22806">
        <ele>167.548</ele>
        <time>2016-06-23T14:02:39.000Z</time>
      </trkpt>
      <trkpt lat="48.81007" lon="2.22806">
        <ele>167.478</ele>
        <time>2016-06-23T14:02:41.000Z</time>
      </trkpt>
      <trkpt lat="48.81007" lon="2.22806">
        <ele>167.404</ele>
        <time>2016-06-23T14:02:45.713Z</time>
      </trkpt>
      <trkpt lat="48.81014" lon="2.22815">
        <ele>167.285</ele>
        <time>2016-06-23T14:03:02.264Z</time>
      </trkpt>
      <trkpt lat="48.81015" lon="2.2283">
        <ele>166.699</ele>
        <time>2016-06-23T14:03:12.659Z</time>
      </trkpt>
      <trkpt lat="48.81017" lon="2.22844">
        <ele>165.346</ele>
        <time>2016-06-23T14:03:20.876Z</time>
      </trkpt>
      <trkpt lat="48.81016" lon="2.22858">
        <ele>163.833</ele>
        <time>2016-06-23T14:03:28.139Z</time>
      </trkpt>
      <trkpt lat="48.81018" lon="2.22873">
        <ele>162.846</ele>
        <time>2016-06-23T14:03:35.298Z</time>
      </trkpt>
      <trkpt lat="48.81019" lon="2.22889">
        <ele>162.349</ele>
        <time>2016-06-23T14:03:41.651Z</time>
      </trkpt>
      <trkpt lat="48.81013" lon="2.22899">
        <ele>162.384</ele>
        <time>2016-06-23T14:03:46.650Z</time>
      </trkpt>
      <trkpt lat="48.81009" lon="2.22913">
        <ele>162.227</ele>
        <time>2016-06-23T14:03:52.061Z</time>
      </trkpt>
      <trkpt lat="48.81006" lon="2.22926">
        <ele>161.916</ele>
        <time>2016-06-23T14:03:57.491Z</time>
      </trkpt>
      <trkpt lat="48.81012" lon="2.22936">
        <ele>161.59</ele>
        <time>2016-06-23T14:04:04.287Z</time>
      </trkpt>
      <trkpt lat="48.81018" lon="2.22947">
        <ele>161.135</ele>
        <time>2016-06-23T14:04:12.076Z</time>
      </trkpt>
      <trkpt lat="48.81024" lon="2.22958">
        <ele>160.746</ele>
        <time>2016-06-23T14:04:20.622Z</time>
      </trkpt>
      <trkpt lat="48.81028" lon="2.22971">
        <ele>159.788</ele>
        <time>2016-06-23T14:04:29.409Z</time>
      </trkpt>
      <trkpt lat="48.81032" lon="2.22985">
        <ele>159.297</ele>
        <time>2016-06-23T14:04:37.537Z</time>
      </trkpt>
      <trkpt lat="48.81031" lon="2.22999">
        <ele>158.289</ele>
        <time>2016-06-23T14:04:45.548Z</time>
      </trkpt>
      <trkpt lat="48.81033" lon="2.23013">
        <ele>157.739</ele>
        <time>2016-06-23T14:04:54.339Z</time>
      </trkpt>
      <trkpt lat="48.81041" lon="2.23021">
        <ele>157.169</ele>
        <time>2016-06-23T14:05:02.354Z</time>
      </trkpt>
      <trkpt lat="48.8105" lon="2.23025">
        <ele>156.588</ele>
        <time>2016-06-23T14:05:09.992Z</time>
      </trkpt>
      <trkpt lat="48.81059" lon="2.23024">
        <ele>155.911</ele>
        <time>2016-06-23T14:05:17.918Z</time>
      </trkpt>
      <trkpt lat="48.81069" lon="2.23023">
        <ele>155.2</ele>
        <time>2016-06-23T14:05:25.852Z</time>
      </trkpt>
      <trkpt lat="48.81078" lon="2.23026">
        <ele>154.526</ele>
        <time>2016-06-23T14:05:33.963Z</time>
      </trkpt>
      <trkpt lat="48.81088" lon="2.23027">
        <ele>153.926</ele>
        <time>2016-06-23T14:05:42.433Z</time>
      </trkpt>
      <trkpt lat="48.81097" lon="2.23027">
        <ele>153.46</ele>
        <time>2016-06-23T14:05:49.991Z</time>
      </trkpt>
      <trkpt lat="48.81107" lon="2.23026">
        <ele>153.078</ele>
        <time>2016-06-23T14:05:57.785Z</time>
      </trkpt>
      <trkpt lat="48.81115" lon="2.2303">
        <ele>152.528</ele>
        <time>2016-06-23T14:06:04.699Z</time>
      </trkpt>
      <trkpt lat="48.81125" lon="2.23026">
        <ele>152.436</ele>
        <time>2016-06-23T14:06:12.709Z</time>
      </trkpt>
      <trkpt lat="48.81135" lon="2.23023">
        <ele>152.281</ele>
        <time>2016-06-23T14:06:21.555Z</time>
      </trkpt>
      <trkpt lat="48.81144" lon="2.23021">
        <ele>151.631</ele>
        <time>2016-06-23T14:06:30.243Z</time>
      </trkpt>
      <trkpt lat="48.81154" lon="2.2302">
        <ele>151.3</ele>
        <time>2016-06-23T14:06:38.998Z</time>
      </trkpt>
      <trkpt lat="48.81163" lon="2.23019">
        <ele>150.871</ele>
        <time>2016-06-23T14:06:47.747Z</time>
      </trkpt>
      <trkpt lat="48.81172" lon="2.23018">
        <ele>150.36</ele>
        <time>2016-06-23T14:06:56.564Z</time>
      </trkpt>
      <trkpt lat="48.81181" lon="2.23024">
        <ele>149.802</ele>
        <time>2016-06-23T14:07:05.000Z</time>
      </trkpt>
      <trkpt lat="48.81181" lon="2.23024">
        <ele>149.24</ele>
        <time>2016-06-23T14:07:18.000Z</time>
      </trkpt>
      <trkpt lat="48.81181" lon="2.23024">
        <ele>148.88</ele>
        <time>2016-06-23T14:07:34.121Z</time>
      </trkpt>
      <trkpt lat="48.81174" lon="2.23033">
        <ele>148.95</ele>
        <time>2016-06-23T14:07:50.356Z</time>
      </trkpt>
      <trkpt lat="48.81164" lon="2.23039">
        <ele>148.852</ele>
        <time>2016-06-23T14:07:59.870Z</time>
      </trkpt>
      <trkpt lat="48.81155" lon="2.23041">
        <ele>148.39</ele>
        <time>2016-06-23T14:08:08.020Z</time>
      </trkpt>
      <trkpt lat="48.81147" lon="2.23047">
        <ele>147.925</ele>
        <time>2016-06-23T14:08:15.822Z</time>
      </trkpt>
      <trkpt lat="48.81138" lon="2.23051">
        <ele>147.828</ele>
        <time>2016-06-23T14:08:23.193Z</time>
      </trkpt>
      <trkpt lat="48.81129" lon="2.23056">
        <ele>148.029</ele>
        <time>2016-06-23T14:08:30.268Z</time>
      </trkpt>
      <trkpt lat="48.8112" lon="2.23059">
        <ele>148.334</ele>
        <time>2016-06-23T14:08:37.211Z</time>
      </trkpt>
      <trkpt lat="48.81111" lon="2.23062">
        <ele>148.7</ele>
        <time>2016-06-23T14:08:44.335Z</time>
      </trkpt>
      <trkpt lat="48.81102" lon="2.23066">
        <ele>149.119</ele>
        <time>2016-06-23T14:08:51.682Z</time>
      </trkpt>
      <trkpt lat="48.81094" lon="2.23073">
        <ele>149.518</ele>
        <time>2016-06-23T14:08:58.877Z</time>
      </trkpt>
      <trkpt lat="48.81087" lon="2.23081">
        <ele>149.837</ele>
        <time>2016-06-23T14:09:05.964Z</time>
      </trkpt>
      <trkpt lat="48.81078" lon="2.23085">
        <ele>150.077</ele>
        <time>2016-06-23T14:09:12.950Z</time>
      </trkpt>
      <trkpt lat="48.81069" lon="2.23088">
        <ele>150.255</ele>
        <time>2016-06-23T14:09:19.931Z</time>
      </trkpt>
      <trkpt lat="48.81059" lon="2.23091">
        <ele>150.448</ele>
        <time>2016-06-23T14:09:27.536Z</time>
      </trkpt>
      <trkpt lat="48.8105" lon="2.23098">
        <ele>150.689</ele>
        <time>2016-06-23T14:09:34.913Z</time>
      </trkpt>
      <trkpt lat="48.81042" lon="2.23106">
        <ele>150.908</ele>
        <time>2016-06-23T14:09:42.475Z</time>
      </trkpt>
      <trkpt lat="48.81034" lon="2.23113">
        <ele>151.051</ele>
        <time>2016-06-23T14:09:49.744Z</time>
      </trkpt>
      <trkpt lat="48.81025" lon="2.23118">
        <ele>151.187</ele>
        <time>2016-06-23T14:09:57.739Z</time>
      </trkpt>
      <trkpt lat="48.81016" lon="2.23114">
        <ele>151.394</ele>
        <time>2016-06-23T14:10:05.791Z</time>
      </trkpt>
      <trkpt lat="48.81009" lon="2.23124">
        <ele>151.639</ele>
        <time>2016-06-23T14:10:14.305Z</time>
      </trkpt>
      <trkpt lat="48.81003" lon="2.23135">
        <ele>151.797</ele>
        <time>2016-06-23T14:10:22.516Z</time>
      </trkpt>
      <trkpt lat="48.80994" lon="2.2314">
        <ele>151.821</ele>
        <time>2016-06-23T14:10:31.041Z</time>
      </trkpt>
      <trkpt lat="48.80984" lon="2.23142">
        <ele>151.837</ele>
        <time>2016-06-23T14:10:39.150Z</time>
      </trkpt>
      <trkpt lat="48.80975" lon="2.23146">
        <ele>152.118</ele>
        <time>2016-06-23T14:10:46.910Z</time>
      </trkpt>
      <trkpt lat="48.80966" lon="2.23152">
        <ele>152.262</ele>
        <time>2016-06-23T14:10:54.910Z</time>
      </trkpt>
      <trkpt lat="48.80957" lon="2.23158">
        <ele>152.458</ele>
        <time>2016-06-23T14:11:03.573Z</time>
      </trkpt>
      <trkpt lat="48.80948" lon="2.23161">
        <ele>153.004</ele>
        <time>2016-06-23T14:11:11.944Z</time>
      </trkpt>
      <trkpt lat="48.80939" lon="2.23167">
        <ele>153.784</ele>
        <time>2016-06-23T14:11:20.420Z</time>
      </trkpt>
      <trkpt lat="48.80931" lon="2.23172">
        <ele>154.648</ele>
        <time>2016-06-23T14:11:28.398Z</time>
      </trkpt>
      <trkpt lat="48.80923" lon="2.23181">
        <ele>155.537</ele>
        <time>2016-06-23T14:11:37.040Z</time>
      </trkpt>
      <trkpt lat="48.80923" lon="2.23197">
        <ele>156.384</ele>
        <time>2016-06-23T14:11:44.639Z</time>
      </trkpt>
      <trkpt lat="48.80923" lon="2.23211">
        <ele>157.026</ele>
        <time>2016-06-23T14:11:50.499Z</time>
      </trkpt>
      <trkpt lat="48.80924" lon="2.23225">
        <ele>157.357</ele>
        <time>2016-06-23T14:11:56.813Z</time>
      </trkpt>
      <trkpt lat="48.80925" lon="2.23239">
        <ele>157.429</ele>
        <time>2016-06-23T14:12:03.743Z</time>
      </trkpt>
      <trkpt lat="48.80917" lon="2.23247">
        <ele>157.365</ele>
        <time>2016-06-23T14:12:13.733Z</time>
      </trkpt>
      <trkpt lat="48.80908" lon="2.23249">
        <ele>157.303</ele>
        <time>2016-06-23T14:12:25.000Z</time>
      </trkpt>
      <trkpt lat="48.80908" lon="2.23249">
        <ele>157.307</ele>
        <time>2016-06-23T14:12:38.000Z</time>
      </trkpt>
      <trkpt lat="48.80908" lon="2.23249">
        <ele>157.312</ele>
        <time>2016-06-23T14:13:01.000Z</time>
      </trkpt>
      <trkpt lat="48.80908" lon="2.23249">
        <ele>157.249</ele>
        <time>2016-06-23T14:18:04.000Z</time>
      </trkpt>
      <trkpt lat="48.80908" lon="2.23249">
        <ele>157.166</ele>
        <time>2016-06-23T14:18:04.100Z</time>
      </trkpt>
      <trkpt lat="48.80895" lon="2.23251">
        <ele>157.113</ele>
        <time>2016-06-23T14:24:37.999Z</time>
      </trkpt>
      <trkpt lat="48.80895" lon="2.23251">
        <ele>157.063</ele>
        <time>2016-06-23T14:24:41.999Z</time>
      </trkpt>
      <trkpt lat="48.80895" lon="2.23251">
        <ele>156.991</ele>
        <time>2016-06-23T14:24:49.791Z</time>
      </trkpt>
      <trkpt lat="48.80891" lon="2.23264">
        <ele>156.879</ele>
        <time>2016-06-23T14:25:07.721Z</time>
      </trkpt>
      <trkpt lat="48.80882" lon="2.23267">
        <ele>156.668</ele>
        <time>2016-06-23T14:25:16.999Z</time>
      </trkpt>
      <trkpt lat="48.80882" lon="2.23267">
        <ele>156.148</ele>
        <time>2016-06-23T14:25:20.999Z</time>
      </trkpt>
      <trkpt lat="48.80882" lon="2.23267">
        <ele>155.691</ele>
        <time>2016-06-23T14:25:21.099Z</time>
      </trkpt>
      <trkpt lat="48.80882" lon="2.23267">
        <ele>155.796</ele>
        <time>2016-06-23T14:25:37.999Z</time>
      </trkpt>
      <trkpt lat="48.80882" lon="2.23267">
        <ele>155.886</ele>
        <time>2016-06-23T14:25:38.099Z</time>
      </trkpt>
      <trkpt lat="48.80864" lon="2.23271">
        <ele>155.817</ele>
        <time>2016-06-23T14:26:03.999Z</time>
      </trkpt>
      <trkpt lat="48.80864" lon="2.23271">
        <ele>155.693</ele>
        <time>2016-06-23T14:26:15.999Z</time>
      </trkpt>
      <trkpt lat="48.80864" lon="2.23271">
        <ele>155.625</ele>
        <time>2016-06-23T14:26:16.099Z</time>
      </trkpt>
      <trkpt lat="48.8085" lon="2.23274">
        <ele>155.612</ele>
        <time>2016-06-23T14:26:34.999Z</time>
      </trkpt>
      <trkpt lat="48.8085" lon="2.23274">
        <ele>155.605</ele>
        <time>2016-06-23T14:26:44.999Z</time>
      </trkpt>
      <trkpt lat="48.8085" lon="2.23274">
        <ele>155.56</ele>
        <time>2016-06-23T14:26:45.099Z</time>
      </trkpt>
      <trkpt lat="48.80837" lon="2.23277">
        <ele>155.491</ele>
        <time>2016-06-23T14:27:13.055Z</time>
      </trkpt>
      <trkpt lat="48.80828" lon="2.23279">
        <ele>155.468</ele>
        <time>2016-06-23T14:27:19.999Z</time>
      </trkpt>
      <trkpt lat="48.80828" lon="2.23279">
        <ele>155.522</ele>
        <time>2016-06-23T14:27:26.999Z</time>
      </trkpt>
      <trkpt lat="48.80828" lon="2.23279">
        <ele>155.556</ele>
        <time>2016-06-23T14:27:29.757Z</time>
      </trkpt>
      <trkpt lat="48.80815" lon="2.23284">
        <ele>155.492</ele>
        <time>2016-06-23T14:27:46.999Z</time>
      </trkpt>
      <trkpt lat="48.80815" lon="2.23284">
        <ele>155.394</ele>
        <time>2016-06-23T14:27:52.999Z</time>
      </trkpt>
      <trkpt lat="48.80815" lon="2.23284">
        <ele>155.335</ele>
        <time>2016-06-23T14:28:15.860Z</time>
      </trkpt>
      <trkpt lat="48.80794" lon="2.23292">
        <ele>155.311</ele>
        <time>2016-06-23T14:28:20.551Z</time>
      </trkpt>
      <trkpt lat="48.80794" lon="2.23404">
        <ele>155.292</ele>
        <time>2016-06-23T14:28:36.772Z</time>
      </trkpt>
      <trkpt lat="48.80792" lon="2.23293">
        <ele>155.364</ele>
        <time>2016-06-23T14:28:44.999Z</time>
      </trkpt>
      <trkpt lat="48.80792" lon="2.23293">
        <ele>155.497</ele>
        <time>2016-06-23T14:28:46.999Z</time>
      </trkpt>
      <trkpt lat="48.80792" lon="2.23293">
        <ele>155.496</ele>
        <time>2016-06-23T14:28:47.099Z</time>
      </trkpt>
      <trkpt lat="48.80782" lon="2.23293">
        <ele>155.383</ele>
        <time>2016-06-23T14:29:29.999Z</time>
      </trkpt>
      <trkpt lat="48.80782" lon="2.23293">
        <ele>155.316</ele>
        <time>2016-06-23T14:29:34.999Z</time>
      </trkpt>
      <trkpt lat="48.80782" lon="2.23293">
        <ele>155.282</ele>
        <time>2016-06-23T14:29:35.099Z</time>
      </trkpt>
      <trkpt lat="48.80772" lon="2.23293">
        <ele>155.18</ele>
        <time>2016-06-23T14:29:53.966Z</time>
      </trkpt>
      <trkpt lat="48.80763" lon="2.23296">
        <ele>155.288</ele>
        <time>2016-06-23T14:30:02.475Z</time>
      </trkpt>
      <trkpt lat="48.80753" lon="2.23297">
        <ele>155.673</ele>
        <time>2016-06-23T14:30:09.670Z</time>
      </trkpt>
      <trkpt lat="48.80744" lon="2.23299">
        <ele>156.11</ele>
        <time>2016-06-23T14:30:17.111Z</time>
      </trkpt>
      <trkpt lat="48.80734" lon="2.23303">
        <ele>156.346</ele>
        <time>2016-06-23T14:30:24.999Z</time>
      </trkpt>
      <trkpt lat="48.80734" lon="2.23303">
        <ele>156.38</ele>
        <time>2016-06-23T14:30:33.999Z</time>
      </trkpt>
      <trkpt lat="48.80734" lon="2.23303">
        <ele>156.302</ele>
        <time>2016-06-23T14:30:34.099Z</time>
      </trkpt>
      <trkpt lat="48.80722" lon="2.23308">
        <ele>156.221</ele>
        <time>2016-06-23T14:30:49.494Z</time>
      </trkpt>
      <trkpt lat="48.80713" lon="2.23311">
        <ele>156.244</ele>
        <time>2016-06-23T14:30:58.182Z</time>
      </trkpt>
      <trkpt lat="48.80703" lon="2.23314">
        <ele>156.409</ele>
        <time>2016-06-23T14:31:06.326Z</time>
      </trkpt>
      <trkpt lat="48.80694" lon="2.23315">
        <ele>156.645</ele>
        <time>2016-06-23T14:31:13.049Z</time>
      </trkpt>
      <trkpt lat="48.80684" lon="2.23316">
        <ele>156.85</ele>
        <time>2016-06-23T14:31:18.852Z</time>
      </trkpt>
      <trkpt lat="48.80675" lon="2.23319">
        <ele>156.967</ele>
        <time>2016-06-23T14:31:23.625Z</time>
      </trkpt>
      <trkpt lat="48.80666" lon="2.23321">
        <ele>157.037</ele>
        <time>2016-06-23T14:31:28.000Z</time>
      </trkpt>
      <trkpt lat="48.80666" lon="2.23321">
        <ele>157.131</ele>
        <time>2016-06-23T14:31:36.000Z</time>
      </trkpt>
      <trkpt lat="48.80666" lon="2.23321">
        <ele>157.179</ele>
        <time>2016-06-23T14:31:43.130Z</time>
      </trkpt>
      <trkpt lat="48.80656" lon="2.23322">
        <ele>157.112</ele>
        <time>2016-06-23T14:32:04.109Z</time>
      </trkpt>
      <trkpt lat="48.80662" lon="2.23333">
        <ele>157.072</ele>
        <time>2016-06-23T14:32:20.000Z</time>
      </trkpt>
      <trkpt lat="48.80662" lon="2.23333">
        <ele>157.182</ele>
        <time>2016-06-23T14:32:27.000Z</time>
      </trkpt>
      <trkpt lat="48.80662" lon="2.23333">
        <ele>157.284</ele>
        <time>2016-06-23T14:32:27.099Z</time>
      </trkpt>
      <trkpt lat="48.80674" lon="2.23333">
        <ele>157.086</ele>
        <time>2016-06-23T14:32:48.056Z</time>
      </trkpt>
      <trkpt lat="48.80665" lon="2.23337">
        <ele>156.752</ele>
        <time>2016-06-23T14:33:00.573Z</time>
      </trkpt>
      <trkpt lat="48.80662" lon="2.23351">
        <ele>155.618</ele>
        <time>2016-06-23T14:33:13.653Z</time>
      </trkpt>
      <trkpt lat="48.80653" lon="2.23355">
        <ele>153.57</ele>
        <time>2016-06-23T14:33:26.174Z</time>
      </trkpt>
      <trkpt lat="48.80644" lon="2.23357">
        <ele>151.392</ele>
        <time>2016-06-23T14:33:38.547Z</time>
      </trkpt>
      <trkpt lat="48.80635" lon="2.2336">
        <ele>149.877</ele>
        <time>2016-06-23T14:33:49.390Z</time>
      </trkpt>
      <trkpt lat="48.80625" lon="2.23362">
        <ele>149.2</ele>
        <time>2016-06-23T14:33:59.963Z</time>
      </trkpt>
      <trkpt lat="48.80616" lon="2.2337">
        <ele>149.099</ele>
        <time>2016-06-23T14:34:11.811Z</time>
      </trkpt>
      <trkpt lat="48.80607" lon="2.23376">
        <ele>149.171</ele>
        <time>2016-06-23T14:34:22.016Z</time>
      </trkpt>
      <trkpt lat="48.80598" lon="2.23379">
        <ele>149.05</ele>
        <time>2016-06-23T14:34:31.575Z</time>
      </trkpt>
      <trkpt lat="48.80588" lon="2.23378">
        <ele>148.601</ele>
        <time>2016-06-23T14:34:41.822Z</time>
      </trkpt>
      <trkpt lat="48.8058" lon="2.23382">
        <ele>147.914</ele>
        <time>2016-06-23T14:34:51.810Z</time>
      </trkpt>
      <trkpt lat="48.80579" lon="2.23396">
        <ele>147.028</ele>
        <time>2016-06-23T14:35:03.097Z</time>
      </trkpt>
      <trkpt lat="48.80587" lon="2.23406">
        <ele>145.685</ele>
        <time>2016-06-23T14:35:14.744Z</time>
      </trkpt>
      <trkpt lat="48.80594" lon="2.23415">
        <ele>143.909</ele>
        <time>2016-06-23T14:35:24.935Z</time>
      </trkpt>
      <trkpt lat="48.80603" lon="2.23421">
        <ele>142.264</ele>
        <time>2016-06-23T14:35:34.854Z</time>
      </trkpt>
      <trkpt lat="48.80612" lon="2.23425">
        <ele>141.024</ele>
        <time>2016-06-23T14:35:45.295Z</time>
      </trkpt>
      <trkpt lat="48.80622" lon="2.2342">
        <ele>139.861</ele>
        <time>2016-06-23T14:35:55.000Z</time>
      </trkpt>
      <trkpt lat="48.80622" lon="2.2342">
        <ele>138.778</ele>
        <time>2016-06-23T14:35:59.000Z</time>
      </trkpt>
      <trkpt lat="48.80622" lon="2.2342">
        <ele>138.173</ele>
        <time>2016-06-23T14:36:02.663Z</time>
      </trkpt>
      <trkpt lat="48.80631" lon="2.23419">
        <ele>138.403</ele>
        <time>2016-06-23T14:36:28.027Z</time>
      </trkpt>
      <trkpt lat="48.8064" lon="2.23419">
        <ele>137.929</ele>
        <time>2016-06-23T14:36:39.886Z</time>
      </trkpt>
      <trkpt lat="48.80638" lon="2.23434">
        <ele>135.928</ele>
        <time>2016-06-23T14:36:49.425Z</time>
      </trkpt>
      <trkpt lat="48.8064" lon="2.23448">
        <ele>133.226</ele>
        <time>2016-06-23T14:36:56.636Z</time>
      </trkpt>
      <trkpt lat="48.80643" lon="2.23461">
        <ele>131.337</ele>
        <time>2016-06-23T14:37:03.508Z</time>
      </trkpt>
      <trkpt lat="48.80646" lon="2.23475">
        <ele>130.493</ele>
        <time>2016-06-23T14:37:10.714Z</time>
      </trkpt>
      <trkpt lat="48.80643" lon="2.23489">
        <ele>129.945</ele>
        <time>2016-06-23T14:37:18.999Z</time>
      </trkpt>
      <trkpt lat="48.80643" lon="2.23489">
        <ele>129.258</ele>
        <time>2016-06-23T14:37:29.000Z</time>
      </trkpt>
      <trkpt lat="48.80643" lon="2.23489">
        <ele>128.751</ele>
        <time>2016-06-23T14:37:29.100Z</time>
      </trkpt>
      <trkpt lat="48.80642" lon="2.23506">
        <ele>128.716</ele>
        <time>2016-06-23T14:38:10.000Z</time>
      </trkpt>
      <trkpt lat="48.80642" lon="2.23506">
        <ele>128.841</ele>
        <time>2016-06-23T14:38:11.000Z</time>
      </trkpt>
      <trkpt lat="48.80642" lon="2.23506">
        <ele>128.806</ele>
        <time>2016-06-23T14:38:13.734Z</time>
      </trkpt>
      <trkpt lat="48.80642" lon="2.23521">
        <ele>128.639</ele>
        <time>2016-06-23T14:38:41.136Z</time>
      </trkpt>
      <trkpt lat="48.80646" lon="2.23533">
        <ele>127.97</ele>
        <time>2016-06-23T14:38:48.392Z</time>
      </trkpt>
      <trkpt lat="48.80652" lon="2.23544">
        <ele>126.091</ele>
        <time>2016-06-23T14:38:54.206Z</time>
      </trkpt>
      <trkpt lat="48.80651" lon="2.23557">
        <ele>123.811</ele>
        <time>2016-06-23T14:39:00.000Z</time>
      </trkpt>
      <trkpt lat="48.80651" lon="2.23557">
        <ele>122.242</ele>
        <time>2016-06-23T14:39:15.000Z</time>
      </trkpt>
      <trkpt lat="48.80651" lon="2.23557">
        <ele>121.607</ele>
        <time>2016-06-23T14:40:03.299Z</time>
      </trkpt>
      <trkpt lat="48.80644" lon="2.23577">
        <ele>121.65</ele>
        <time>2016-06-23T14:40:18.345Z</time>
      </trkpt>
      <trkpt lat="48.80645" lon="2.23591">
        <ele>121.515</ele>
        <time>2016-06-23T14:40:26.031Z</time>
      </trkpt>
      <trkpt lat="48.80651" lon="2.23603">
        <ele>120.659</ele>
        <time>2016-06-23T14:40:35.765Z</time>
      </trkpt>
      <trkpt lat="48.8065" lon="2.23618">
        <ele>119.554</ele>
        <time>2016-06-23T14:40:45.227Z</time>
      </trkpt>
      <trkpt lat="48.80647" lon="2.23632">
        <ele>118.686</ele>
        <time>2016-06-23T14:40:52.746Z</time>
      </trkpt>
      <trkpt lat="48.8065" lon="2.23645">
        <ele>117.948</ele>
        <time>2016-06-23T14:40:58.623Z</time>
      </trkpt>
      <trkpt lat="48.80649" lon="2.23659">
        <ele>117.286</ele>
        <time>2016-06-23T14:41:04.937Z</time>
      </trkpt>
      <trkpt lat="48.80645" lon="2.23672">
        <ele>116.764</ele>
        <time>2016-06-23T14:41:11.867Z</time>
      </trkpt>
      <trkpt lat="48.80636" lon="2.2368">
        <ele>116.357</ele>
        <time>2016-06-23T14:41:18.194Z</time>
      </trkpt>
      <trkpt lat="48.80628" lon="2.23686">
        <ele>115.994</ele>
        <time>2016-06-23T14:41:24.072Z</time>
      </trkpt>
      <trkpt lat="48.8062" lon="2.23694">
        <ele>115.689</ele>
        <time>2016-06-23T14:41:31.339Z</time>
      </trkpt>
      <trkpt lat="48.8062" lon="2.23708">
        <ele>115.471</ele>
        <time>2016-06-23T14:41:41.053Z</time>
      </trkpt>
      <trkpt lat="48.80617" lon="2.23721">
        <ele>115.176</ele>
        <time>2016-06-23T14:41:49.205Z</time>
      </trkpt>
      <trkpt lat="48.80613" lon="2.23733">
        <ele>114.645</ele>
        <time>2016-06-23T14:41:55.883Z</time>
      </trkpt>
      <trkpt lat="48.80612" lon="2.23748">
        <ele>114.002</ele>
        <time>2016-06-23T14:42:02.999Z</time>
      </trkpt>
      <trkpt lat="48.80614" lon="2.23762">
        <ele>113.486</ele>
        <time>2016-06-23T14:42:10.620Z</time>
      </trkpt>
      <trkpt lat="48.80616" lon="2.23776">
        <ele>113.141</ele>
        <time>2016-06-23T14:42:17.842Z</time>
      </trkpt>
      <trkpt lat="48.80612" lon="2.2379">
        <ele>112.76</ele>
        <time>2016-06-23T14:42:25.630Z</time>
      </trkpt>
      <trkpt lat="48.80609" lon="2.23802">
        <ele>112.188</ele>
        <time>2016-06-23T14:42:33.598Z</time>
      </trkpt>
      <trkpt lat="48.80608" lon="2.23817">
        <ele>111.535</ele>
        <time>2016-06-23T14:42:42.453Z</time>
      </trkpt>
      <trkpt lat="48.80603" lon="2.23829">
        <ele>110.847</ele>
        <time>2016-06-23T14:42:52.717Z</time>
      </trkpt>
      <trkpt lat="48.80593" lon="2.23833">
        <ele>110.08</ele>
        <time>2016-06-23T14:43:04.112Z</time>
      </trkpt>
      <trkpt lat="48.80584" lon="2.23828">
        <ele>109.404</ele>
        <time>2016-06-23T14:43:13.285Z</time>
      </trkpt>
      <trkpt lat="48.80575" lon="2.2382">
        <ele>109.012</ele>
        <time>2016-06-23T14:43:23.120Z</time>
      </trkpt>
      <trkpt lat="48.80565" lon="2.23819">
        <ele>108.893</ele>
        <time>2016-06-23T14:43:33.369Z</time>
      </trkpt>
      <trkpt lat="48.80556" lon="2.23818">
        <ele>108.968</ele>
        <time>2016-06-23T14:43:41.239Z</time>
      </trkpt>
      <trkpt lat="48.80548" lon="2.23826">
        <ele>109.16</ele>
        <time>2016-06-23T14:43:48.000Z</time>
      </trkpt>
      <trkpt lat="48.80548" lon="2.23826">
        <ele>109.317</ele>
        <time>2016-06-23T14:43:57.000Z</time>
      </trkpt>
      <trkpt lat="48.80548" lon="2.23826">
        <ele>109.336</ele>
        <time>2016-06-23T14:43:57.100Z</time>
      </trkpt>
      <trkpt lat="48.80537" lon="2.2384">
        <ele>109.25</ele>
        <time>2016-06-23T14:44:13.754Z</time>
      </trkpt>
      <trkpt lat="48.80528" lon="2.23845">
        <ele>108.994</ele>
        <time>2016-06-23T14:44:23.463Z</time>
      </trkpt>
      <trkpt lat="48.8052" lon="2.23851">
        <ele>108.489</ele>
        <time>2016-06-23T14:44:32.115Z</time>
      </trkpt>
      <trkpt lat="48.80512" lon="2.23859">
        <ele>107.85</ele>
        <time>2016-06-23T14:44:41.347Z</time>
      </trkpt>
      <trkpt lat="48.80503" lon="2.23864">
        <ele>107.223</ele>
        <time>2016-06-23T14:44:50.071Z</time>
      </trkpt>
      <trkpt lat="48.80495" lon="2.23871">
        <ele>106.586</ele>
        <time>2016-06-23T14:44:58.079Z</time>
      </trkpt>
      <trkpt lat="48.80485" lon="2.23875">
        <ele>105.89</ele>
        <time>2016-06-23T14:45:07.948Z</time>
      </trkpt>
      <trkpt lat="48.80475" lon="2.23875">
        <ele>105.133</ele>
        <time>2016-06-23T14:45:18.347Z</time>
      </trkpt>
      <trkpt lat="48.80466" lon="2.2388">
        <ele>104.301</ele>
        <time>2016-06-23T14:45:27.053Z</time>
      </trkpt>
      <trkpt lat="48.80458" lon="2.23888">
        <ele>103.419</ele>
        <time>2016-06-23T14:45:35.391Z</time>
      </trkpt>
      <trkpt lat="48.8045" lon="2.23897">
        <ele>102.6</ele>
        <time>2016-06-23T14:45:43.508Z</time>
      </trkpt>
      <trkpt lat="48.80441" lon="2.23901">
        <ele>101.92</ele>
        <time>2016-06-23T14:45:51.958Z</time>
      </trkpt>
      <trkpt lat="48.80432" lon="2.23906">
        <ele>101.339</ele>
        <time>2016-06-23T14:46:00.648Z</time>
      </trkpt>
      <trkpt lat="48.80423" lon="2.23913">
        <ele>100.686</ele>
        <time>2016-06-23T14:46:10.124Z</time>
      </trkpt>
      <trkpt lat="48.80417" lon="2.23924">
        <ele>99.777</ele>
        <time>2016-06-23T14:46:19.585Z</time>
      </trkpt>
      <trkpt lat="48.80407" lon="2.23928">
        <ele>98.711</ele>
        <time>2016-06-23T14:46:29.917Z</time>
      </trkpt>
      <trkpt lat="48.804" lon="2.23937">
        <ele>97.732</ele>
        <time>2016-06-23T14:46:39.937Z</time>
      </trkpt>
      <trkpt lat="48.80393" lon="2.23946">
        <ele>96.958</ele>
        <time>2016-06-23T14:46:49.226Z</time>
      </trkpt>
      <trkpt lat="48.80386" lon="2.23955">
        <ele>96.45</ele>
        <time>2016-06-23T14:46:58.227Z</time>
      </trkpt>
      <trkpt lat="48.80378" lon="2.23961">
        <ele>96.28</ele>
        <time>2016-06-23T14:47:07.999Z</time>
      </trkpt>
      <trkpt lat="48.80368" lon="2.23959">
        <ele>96.454</ele>
        <time>2016-06-23T14:47:18.732Z</time>
      </trkpt>
      <trkpt lat="48.8036" lon="2.23965">
        <ele>96.893</ele>
        <time>2016-06-23T14:47:28.577Z</time>
      </trkpt>
      <trkpt lat="48.80351" lon="2.2397">
        <ele>97.403</ele>
        <time>2016-06-23T14:47:37.728Z</time>
      </trkpt>
      <trkpt lat="48.80342" lon="2.23976">
        <ele>97.907</ele>
        <time>2016-06-23T14:47:48.082Z</time>
      </trkpt>
      <trkpt lat="48.80333" lon="2.23979">
        <ele>98.555</ele>
        <time>2016-06-23T14:47:58.480Z</time>
      </trkpt>
      <trkpt lat="48.80324" lon="2.23984">
        <ele>99.468</ele>
        <time>2016-06-23T14:48:07.958Z</time>
      </trkpt>
      <trkpt lat="48.80316" lon="2.23993">
        <ele>100.516</ele>
        <time>2016-06-23T14:48:16.431Z</time>
      </trkpt>
      <trkpt lat="48.80308" lon="2.24001">
        <ele>101.555</ele>
        <time>2016-06-23T14:48:25.045Z</time>
      </trkpt>
      <trkpt lat="48.80301" lon="2.24009">
        <ele>102.622</ele>
        <time>2016-06-23T14:48:35.000Z</time>
      </trkpt>
      <trkpt lat="48.80301" lon="2.24009">
        <ele>103.603</ele>
        <time>2016-06-23T14:48:35.000Z</time>
      </trkpt>
      <trkpt lat="48.80301" lon="2.24009">
        <ele>104.094</ele>
        <time>2016-06-23T14:48:43.594Z</time>
      </trkpt>
      <trkpt lat="48.80293" lon="2.24017">
        <ele>103.702</ele>
        <time>2016-06-23T14:49:07.153Z</time>
      </trkpt>
      <trkpt lat="48.80286" lon="2.24025">
        <ele>103.95</ele>
        <time>2016-06-23T14:49:16.145Z</time>
      </trkpt>
      <trkpt lat="48.80278" lon="2.24033">
        <ele>105.064</ele>
        <time>2016-06-23T14:49:23.721Z</time>
      </trkpt>
      <trkpt lat="48.80271" lon="2.24042">
        <ele>106.303</ele>
        <time>2016-06-23T14:49:30.603Z</time>
      </trkpt>
      <trkpt lat="48.80263" lon="2.24047">
        <ele>106.93</ele>
        <time>2016-06-23T14:49:37.000Z</time>
      </trkpt>
      <trkpt lat="48.80263" lon="2.24047">
        <ele>107.044</ele>
        <time>2016-06-23T14:49:45.000Z</time>
      </trkpt>
      <trkpt lat="48.80263" lon="2.24047">
        <ele>106.948</ele>
        <time>2016-06-23T14:49:50.665Z</time>
      </trkpt>
      <trkpt lat="48.8025" lon="2.24057">
        <ele>106.861</ele>
        <time>2016-06-23T14:50:06.841Z</time>
      </trkpt>
      <trkpt lat="48.80242" lon="2.24061">
        <ele>106.979</ele>
        <time>2016-06-23T14:50:13.385Z</time>
      </trkpt>
      <trkpt lat="48.80232" lon="2.24062">
        <ele>107.459</ele>
        <time>2016-06-23T14:50:20.106Z</time>
      </trkpt>
      <trkpt lat="48.80224" lon="2.2407">
        <ele>108.208</ele>
        <time>2016-06-23T14:50:27.000Z</time>
      </trkpt>
      <trkpt lat="48.80224" lon="2.2407">
        <ele>108.901</ele>
        <time>2016-06-23T14:50:30.000Z</time>
      </trkpt>
      <trkpt lat="48.80224" lon="2.2407">
        <ele>109.223</ele>
        <time>2016-06-23T14:50:31.168Z</time>
      </trkpt>
      <trkpt lat="48.80215" lon="2.24077">
        <ele>108.925</ele>
        <time>2016-06-23T14:50:49.116Z</time>
      </trkpt>
      <trkpt lat="48.80205" lon="2.24078">
        <ele>109.136</ele>
        <time>2016-06-23T14:50:58.622Z</time>
      </trkpt>
      <trkpt lat="48.80197" lon="2.24084">
        <ele>110.057</ele>
        <time>2016-06-23T14:51:06.463Z</time>
      </trkpt>
      <trkpt lat="48.80193" lon="2.24097">
        <ele>111.224</ele>
        <time>2016-06-23T14:51:14.923Z</time>
      </trkpt>
      <trkpt lat="48.80194" lon="2.24111">
        <ele>112.208</ele>
        <time>2016-06-23T14:51:23.422Z</time>
      </trkpt>
      <trkpt lat="48.80193" lon="2.24126">
        <ele>113.167</ele>
        <time>2016-06-23T14:51:31.889Z</time>
      </trkpt>
      <trkpt lat="48.80194" lon="2.24139">
        <ele>114.287</ele>
        <time>2016-06-23T14:51:40.297Z</time>
      </trkpt>
      <trkpt lat="48.80197" lon="2.24154">
        <ele>115.394</ele>
        <time>2016-06-23T14:51:49.619Z</time>
      </trkpt>
      <trkpt lat="48.80201" lon="2.24167">
        <ele>116.295</ele>
        <time>2016-06-23T14:51:58.413Z</time>
      </trkpt>
      <trkpt lat="48.80203" lon="2.24181">
        <ele>117.084</ele>
        <time>2016-06-23T14:52:08.960Z</time>
      </trkpt>
      <trkpt lat="48.8021" lon="2.2419">
        <ele>117.823</ele>
        <time>2016-06-23T14:52:21.824Z</time>
      </trkpt>
      <trkpt lat="48.80218" lon="2.24195">
        <ele>118.787</ele>
        <time>2016-06-23T14:52:35.678Z</time>
      </trkpt>
      <trkpt lat="48.80226" lon="2.24201">
        <ele>120.349</ele>
        <time>2016-06-23T14:52:46.914Z</time>
      </trkpt>
      <trkpt lat="48.80226" lon="2.24216">
        <ele>122.106</ele>
        <time>2016-06-23T14:52:56.945Z</time>
      </trkpt>
      <trkpt lat="48.80228" lon="2.2423">
        <ele>123.46</ele>
        <time>2016-06-23T14:53:05.470Z</time>
      </trkpt>
      <trkpt lat="48.80231" lon="2.24243">
        <ele>124.392</ele>
        <time>2016-06-23T14:53:13.479Z</time>
      </trkpt>
      <trkpt lat="48.80237" lon="2.24254">
        <ele>125.177</ele>
        <time>2016-06-23T14:53:22.652Z</time>
      </trkpt>
      <trkpt lat="48.80236" lon="2.24268">
        <ele>126.025</ele>
        <time>2016-06-23T14:53:32.611Z</time>
      </trkpt>
      <trkpt lat="48.8024" lon="2.24281">
        <ele>126.915</ele>
        <time>2016-06-23T14:53:42.124Z</time>
      </trkpt>
      <trkpt lat="48.80241" lon="2.24295">
        <ele>127.688</ele>
        <time>2016-06-23T14:53:50.593Z</time>
      </trkpt>
      <trkpt lat="48.8024" lon="2.24309">
        <ele>128.323</ele>
        <time>2016-06-23T14:54:00.344Z</time>
      </trkpt>
      <trkpt lat="48.80238" lon="2.24323">
        <ele>128.903</ele>
        <time>2016-06-23T14:54:12.636Z</time>
      </trkpt>
      <trkpt lat="48.8024" lon="2.24336">
        <ele>129.76</ele>
        <time>2016-06-23T14:54:24.137Z</time>
      </trkpt>
      <trkpt lat="48.80246" lon="2.24348">
        <ele>131.205</ele>
        <time>2016-06-23T14:54:33.323Z</time>
      </trkpt>
      <trkpt lat="48.80245" lon="2.24362">
        <ele>133.013</ele>
        <time>2016-06-23T14:54:42.932Z</time>
      </trkpt>
      <trkpt lat="48.80245" lon="2.24377">
        <ele>134.814</ele>
        <time>2016-06-23T14:54:53.996Z</time>
      </trkpt>
      <trkpt lat="48.80241" lon="2.2439">
        <ele>136.598</ele>
        <time>2016-06-23T14:55:04.811Z</time>
      </trkpt>
      <trkpt lat="48.80243" lon="2.24403">
        <ele>138.516</ele>
        <time>2016-06-23T14:55:16.090Z</time>
      </trkpt>
      <trkpt lat="48.80244" lon="2.24418">
        <ele>140.594</ele>
        <time>2016-06-23T14:55:28.230Z</time>
      </trkpt>
      <trkpt lat="48.80245" lon="2.24432">
        <ele>142.677</ele>
        <time>2016-06-23T14:55:40.337Z</time>
      </trkpt>
      <trkpt lat="48.8025" lon="2.24444">
        <ele>144.744</ele>
        <time>2016-06-23T14:55:52.137Z</time>
      </trkpt>
      <trkpt lat="48.80247" lon="2.24458">
        <ele>146.761</ele>
        <time>2016-06-23T14:56:03.910Z</time>
      </trkpt>
      <trkpt lat="48.80245" lon="2.24471">
        <ele>148.485</ele>
        <time>2016-06-23T14:56:16.000Z</time>
      </trkpt>
      <trkpt lat="48.80245" lon="2.24471">
        <ele>149.704</ele>
        <time>2016-06-23T14:56:26.000Z</time>
      </trkpt>
      <trkpt lat="48.80245" lon="2.24471">
        <ele>150.234</ele>
        <time>2016-06-23T14:59:32.214Z</time>
      </trkpt>
      <trkpt lat="48.80235" lon="2.24493">
        <ele>150.107</ele>
        <time>2016-06-23T14:59:54.604Z</time>
      </trkpt>
      <trkpt lat="48.80239" lon="2.24506">
        <ele>150.103</ele>
        <time>2016-06-23T15:00:01.000Z</time>
      </trkpt>
      <trkpt lat="48.80239" lon="2.24506">
        <ele>150.764</ele>
        <time>2016-06-23T15:00:11.000Z</time>
      </trkpt>
      <trkpt lat="48.80239" lon="2.24506">
        <ele>151.409</ele>
        <time>2016-06-23T15:00:11.100Z</time>
      </trkpt>
      <trkpt lat="48.80242" lon="2.24528">
        <ele>151.349</ele>
        <time>2016-06-23T15:00:53.228Z</time>
      </trkpt>
      <trkpt lat="48.80238" lon="2.24541">
        <ele>151.366</ele>
        <time>2016-06-23T15:01:01.692Z</time>
      </trkpt>
      <trkpt lat="48.80244" lon="2.24552">
        <ele>153.339</ele>
        <time>2016-06-23T15:01:08.737Z</time>
      </trkpt>
      <trkpt lat="48.80249" lon="2.24565">
        <ele>154.091</ele>
        <time>2016-06-23T15:01:17.236Z</time>
      </trkpt>
      <trkpt lat="48.80254" lon="2.24578">
        <ele>154.523</ele>
        <time>2016-06-23T15:01:26.461Z</time>
      </trkpt>
      <trkpt lat="48.80257" lon="2.24591">
        <ele>154.83</ele>
        <time>2016-06-23T15:01:34.791Z</time>
      </trkpt>
      <trkpt lat="48.80259" lon="2.24607">
        <ele>155.135</ele>
        <time>2016-06-23T15:01:44.030Z</time>
      </trkpt>
      <trkpt lat="48.80261" lon="2.24621">
        <ele>155.474</ele>
        <time>2016-06-23T15:01:51.214Z</time>
      </trkpt>
      <trkpt lat="48.80264" lon="2.24635">
        <ele>155.829</ele>
        <time>2016-06-23T15:01:56.546Z</time>
      </trkpt>
      <trkpt lat="48.80269" lon="2.24648">
        <ele>156.218</ele>
        <time>2016-06-23T15:02:01.880Z</time>
      </trkpt>
      <trkpt lat="48.80276" lon="2.24657">
        <ele>156.748</ele>
        <time>2016-06-23T15:02:08.437Z</time>
      </trkpt>
      <trkpt lat="48.80282" lon="2.24668">
        <ele>157.435</ele>
        <time>2016-06-23T15:02:16.390Z</time>
      </trkpt>
      <trkpt lat="48.80285" lon="2.24682">
        <ele>158.148</ele>
        <time>2016-06-23T15:02:26.479Z</time>
      </trkpt>
      <trkpt lat="48.8029" lon="2.24694">
        <ele>158.828</ele>
        <time>2016-06-23T15:02:37.301Z</time>
      </trkpt>
      <trkpt lat="48.8029" lon="2.24708">
        <ele>159.526</ele>
        <time>2016-06-23T15:02:49.019Z</time>
      </trkpt>
      <trkpt lat="48.80286" lon="2.2472">
        <ele>160.414</ele>
        <time>2016-06-23T15:02:58.388Z</time>
      </trkpt>
      <trkpt lat="48.8029" lon="2.24733">
        <ele>161.686</ele>
        <time>2016-06-23T15:03:06.478Z</time>
      </trkpt>
      <trkpt lat="48.80294" lon="2.24747">
        <ele>163.196</ele>
        <time>2016-06-23T15:03:14.313Z</time>
      </trkpt>
      <trkpt lat="48.80301" lon="2.24758">
        <ele>164.467</ele>
        <time>2016-06-23T15:03:22.668Z</time>
      </trkpt>
      <trkpt lat="48.80306" lon="2.24769">
        <ele>165.206</ele>
        <time>2016-06-23T15:03:31.449Z</time>
      </trkpt>
      <trkpt lat="48.80313" lon="2.2478">
        <ele>165.465</ele>
        <time>2016-06-23T15:03:40.113Z</time>
      </trkpt>
      <trkpt lat="48.80321" lon="2.24788">
        <ele>165.411</ele>
        <time>2016-06-23T15:03:48.947Z</time>
      </trkpt>
      <trkpt lat="48.80329" lon="2.24798">
        <ele>165.158</ele>
        <time>2016-06-23T15:03:58.575Z</time>
      </trkpt>
      <trkpt lat="48.80337" lon="2.24805">
        <ele>164.827</ele>
        <time>2016-06-23T15:04:07.955Z</time>
      </trkpt>
      <trkpt lat="48.80343" lon="2.24817">
        <ele>164.475</ele>
        <time>2016-06-23T15:04:17.888Z</time>
      </trkpt>
      <trkpt lat="48.80349" lon="2.24828">
        <ele>164.119</ele>
        <time>2016-06-23T15:04:28.161Z</time>
      </trkpt>
      <trkpt lat="48.80357" lon="2.24836">
        <ele>163.737</ele>
        <time>2016-06-23T15:04:37.353Z</time>
      </trkpt>
      <trkpt lat="48.80363" lon="2.24846">
        <ele>163.221</ele>
        <time>2016-06-23T15:04:46.170Z</time>
      </trkpt>
      <trkpt lat="48.80371" lon="2.24854">
        <ele>162.536</ele>
        <time>2016-06-23T15:04:58.487Z</time>
      </trkpt>
      <trkpt lat="48.80371" lon="2.24869">
        <ele>161.749</ele>
        <time>2016-06-23T15:05:10.999Z</time>
      </trkpt>
      <trkpt lat="48.80368" lon="2.24882">
        <ele>160.987</ele>
        <time>2016-06-23T15:05:21.315Z</time>
      </trkpt>
      <trkpt lat="48.80362" lon="2.24896">
        <ele>160.508</ele>
        <time>2016-06-23T15:05:30.808Z</time>
      </trkpt>
      <trkpt lat="48.8036" lon="2.24909">
        <ele>160.394</ele>
        <time>2016-06-23T15:05:38.700Z</time>
      </trkpt>
      <trkpt lat="48.80355" lon="2.24921">
        <ele>160.461</ele>
        <time>2016-06-23T15:05:47.278Z</time>
      </trkpt>
      <trkpt lat="48.80351" lon="2.24934">
        <ele>160.581</ele>
        <time>2016-06-23T15:05:56.042Z</time>
      </trkpt>
      <trkpt lat="48.80356" lon="2.24948">
        <ele>160.73</ele>
        <time>2016-06-23T15:06:05.237Z</time>
      </trkpt>
      <trkpt lat="48.80358" lon="2.24961">
        <ele>160.864</ele>
        <time>2016-06-23T15:06:12.545Z</time>
      </trkpt>
      <trkpt lat="48.80363" lon="2.24974">
        <ele>160.931</ele>
        <time>2016-06-23T15:06:20.124Z</time>
      </trkpt>
      <trkpt lat="48.80365" lon="2.24988">
        <ele>160.916</ele>
        <time>2016-06-23T15:06:28.095Z</time>
      </trkpt>
      <trkpt lat="48.80365" lon="2.25003">
        <ele>160.81</ele>
        <time>2016-06-23T15:06:37.158Z</time>
      </trkpt>
      <trkpt lat="48.80359" lon="2.25015">
        <ele>160.609</ele>
        <time>2016-06-23T15:06:46.382Z</time>
      </trkpt>
      <trkpt lat="48.8036" lon="2.2503">
        <ele>160.368</ele>
        <time>2016-06-23T15:06:56.266Z</time>
      </trkpt>
      <trkpt lat="48.80358" lon="2.25044">
        <ele>160.185</ele>
        <time>2016-06-23T15:07:04.518Z</time>
      </trkpt>
      <trkpt lat="48.80355" lon="2.25057">
        <ele>160.104</ele>
        <time>2016-06-23T15:07:11.768Z</time>
      </trkpt>
      <trkpt lat="48.80349" lon="2.25069">
        <ele>160.072</ele>
        <time>2016-06-23T15:07:19.522Z</time>
      </trkpt>
      <trkpt lat="48.8034" lon="2.25077">
        <ele>160.037</ele>
        <time>2016-06-23T15:07:28.456Z</time>
      </trkpt>
      <trkpt lat="48.80332" lon="2.25084">
        <ele>159.988</ele>
        <time>2016-06-23T15:07:38.000Z</time>
      </trkpt>
      <trkpt lat="48.80332" lon="2.25084">
        <ele>159.937</ele>
        <time>2016-06-23T15:07:48.000Z</time>
      </trkpt>
      <trkpt lat="48.80332" lon="2.25084">
        <ele>159.885</ele>
        <time>2016-06-23T15:07:54.474Z</time>
      </trkpt>
      <trkpt lat="48.80333" lon="2.251">
        <ele>159.78</ele>
        <time>2016-06-23T15:08:32.607Z</time>
      </trkpt>
      <trkpt lat="48.80327" lon="2.25111">
        <ele>159.504</ele>
        <time>2016-06-23T15:09:00.923Z</time>
      </trkpt>
      <trkpt lat="48.80324" lon="2.25125">
        <ele>158.465</ele>
        <time>2016-06-23T15:09:19.521Z</time>
      </trkpt>
      <trkpt lat="48.80329" lon="2.25137">
        <ele>156.558</ele>
        <time>2016-06-23T15:09:31.745Z</time>
      </trkpt>
      <trkpt lat="48.80332" lon="2.2515">
        <ele>154.431</ele>
        <time>2016-06-23T15:09:43.129Z</time>
      </trkpt>
      <trkpt lat="48.80338" lon="2.2516">
        <ele>152.695</ele>
        <time>2016-06-23T15:09:53.182Z</time>
      </trkpt>
      <trkpt lat="48.80339" lon="2.25174">
        <ele>151.467</ele>
        <time>2016-06-23T15:10:01.534Z</time>
      </trkpt>
      <trkpt lat="48.80341" lon="2.25188">
        <ele>150.547</ele>
        <time>2016-06-23T15:10:11.091Z</time>
      </trkpt>
      <trkpt lat="48.80342" lon="2.25203">
        <ele>149.691</ele>
        <time>2016-06-23T15:10:20.358Z</time>
      </trkpt>
      <trkpt lat="48.80346" lon="2.25216">
        <ele>148.756</ele>
        <time>2016-06-23T15:10:29.968Z</time>
      </trkpt>
      <trkpt lat="48.80348" lon="2.25229">
        <ele>147.566</ele>
        <time>2016-06-23T15:10:40.267Z</time>
      </trkpt>
      <trkpt lat="48.80344" lon="2.25243">
        <ele>146.047</ele>
        <time>2016-06-23T15:10:51.577Z</time>
      </trkpt>
      <trkpt lat="48.80342" lon="2.25258">
        <ele>144.474</ele>
        <time>2016-06-23T15:11:01.723Z</time>
      </trkpt>
      <trkpt lat="48.80345" lon="2.25272">
        <ele>143.15</ele>
        <time>2016-06-23T15:11:10.859Z</time>
      </trkpt>
      <trkpt lat="48.80345" lon="2.25285">
        <ele>142.047</ele>
        <time>2016-06-23T15:11:20.347Z</time>
      </trkpt>
      <trkpt lat="48.80343" lon="2.253">
        <ele>141.013</ele>
        <time>2016-06-23T15:11:32.251Z</time>
      </trkpt>
      <trkpt lat="48.80344" lon="2.25315">
        <ele>139.968</ele>
        <time>2016-06-23T15:11:44.221Z</time>
      </trkpt>
      <trkpt lat="48.80342" lon="2.25329">
        <ele>138.943</ele>
        <time>2016-06-23T15:11:53.298Z</time>
      </trkpt>
      <trkpt lat="48.80341" lon="2.25343">
        <ele>138.063</ele>
        <time>2016-06-23T15:12:01.554Z</time>
      </trkpt>
      <trkpt lat="48.80338" lon="2.25358">
        <ele>137.475</ele>
        <time>2016-06-23T15:12:10.514Z</time>
      </trkpt>
      <trkpt lat="48.80334" lon="2.25371">
        <ele>137.092</ele>
        <time>2016-06-23T15:12:19.115Z</time>
      </trkpt>
      <trkpt lat="48.80333" lon="2.25385">
        <ele>136.667</ele>
        <time>2016-06-23T15:12:28.142Z</time>
      </trkpt>
      <trkpt lat="48.80329" lon="2.25399">
        <ele>136.04</ele>
        <time>2016-06-23T15:12:38.335Z</time>
      </trkpt>
      <trkpt lat="48.8033" lon="2.25412">
        <ele>135.186</ele>
        <time>2016-06-23T15:12:48.450Z</time>
      </trkpt>
      <trkpt lat="48.80327" lon="2.25426">
        <ele>134.268</ele>
        <time>2016-06-23T15:12:59.269Z</time>
      </trkpt>
      <trkpt lat="48.80324" lon="2.25441">
        <ele>133.642</ele>
        <time>2016-06-23T15:13:10.024Z</time>
      </trkpt>
      <trkpt lat="48.80322" lon="2.25456">
        <ele>133.442</ele>
        <time>2016-06-23T15:13:18.900Z</time>
      </trkpt>
      <trkpt lat="48.80322" lon="2.25471">
        <ele>133.482</ele>
        <time>2016-06-23T15:13:27.068Z</time>
      </trkpt>
      <trkpt lat="48.80325" lon="2.25484">
        <ele>133.568</ele>
        <time>2016-06-23T15:13:35.145Z</time>
      </trkpt>
      <trkpt lat="48.80324" lon="2.25498">
        <ele>133.611</ele>
        <time>2016-06-23T15:13:44.148Z</time>
      </trkpt>
      <trkpt lat="48.80323" lon="2.25512">
        <ele>133.473</ele>
        <time>2016-06-23T15:13:53.936Z</time>
      </trkpt>
      <trkpt lat="48.80325" lon="2.25527">
        <ele>133.078</ele>
        <time>2016-06-23T15:14:03.325Z</time>
      </trkpt>
      <trkpt lat="48.80329" lon="2.25541">
        <ele>132.627</ele>
        <time>2016-06-23T15:14:12.255Z</time>
      </trkpt>
      <trkpt lat="48.80333" lon="2.25555">
        <ele>132.393</ele>
        <time>2016-06-23T15:14:20.257Z</time>
      </trkpt>
      <trkpt lat="48.80336" lon="2.25569">
        <ele>132.398</ele>
        <time>2016-06-23T15:14:28.047Z</time>
      </trkpt>
      <trkpt lat="48.80341" lon="2.25582">
        <ele>132.491</ele>
        <time>2016-06-23T15:14:37.000Z</time>
      </trkpt>
      <trkpt lat="48.80341" lon="2.25582">
        <ele>132.519</ele>
        <time>2016-06-23T15:14:41.000Z</time>
      </trkpt>
    </trkseg>
  </trk>
</gpx>